Provisional Data: Little Chiques Creek near Mount Joy, PA


Please select a monitoring station.
Please select start date.
Please select start date.

Toggle Unit: C/F Toggle Unit: C/F
Sample Time Temperature (C) Temperature (F) Specific Conductivity (mS/cm) pH   Turbidity (NTU+) DO (mg/L)
8/1/2022 12:00:00 AM 20.71 69.278 0.427 7.88 17.6 7.35
8/1/2022 12:15:00 AM 20.69 69.242 0.426 7.88 17.45 7.32
8/1/2022 12:30:00 AM 20.67 69.206 0.424 7.88 22.37 7.31
8/1/2022 12:45:00 AM 20.65 69.17 0.423 7.87 18.61 7.3
8/1/2022 1:00:00 AM 20.64 69.152 0.423 7.87 16.65 7.29
8/1/2022 1:15:00 AM 20.62 69.116 0.422 7.87 17.62 7.29
8/1/2022 1:30:00 AM 20.61 69.098 0.421 7.87 17.55 7.28
8/1/2022 1:45:00 AM 20.6 69.08 0.422 7.85 18.72 7.27
8/1/2022 2:00:00 AM 20.58 69.044 0.421 7.86 18.59 7.26
8/1/2022 2:15:00 AM 20.56 69.008 0.421 7.86 17.92 7.26
8/1/2022 2:30:00 AM 20.54 68.972 0.42 7.84 18.71 7.25
8/1/2022 2:45:00 AM 20.51 68.918 0.42 7.83 17.13 7.25
8/1/2022 3:00:00 AM 20.49 68.882 0.419 7.84 20.38 7.24
8/1/2022 3:15:00 AM 20.47 68.846 0.419 7.85 20.45 7.24
8/1/2022 3:30:00 AM 20.45 68.81 0.418 7.85 24.9 7.24
8/1/2022 3:45:00 AM 20.44 68.792 0.417 7.84 37.18 7.24
8/1/2022 4:00:00 AM 20.42 68.756 0.417 7.83 28.42 7.25
8/1/2022 4:15:00 AM 20.4 68.72 0.416 7.85 28.3 7.26
8/1/2022 4:30:00 AM 20.39 68.702 0.415 7.71 44.17 7.27
8/1/2022 4:45:00 AM 20.38 68.684 0.414 7.85 26.2 7.29
8/1/2022 5:00:00 AM 20.37 68.666 0.413 7.85 24.12 7.31
8/1/2022 5:15:00 AM 20.36 68.648 0.412 7.86 80.94 7.32
8/1/2022 5:30:00 AM 20.35 68.63 0.411 7.86 36.58 7.34
8/1/2022 5:45:00 AM 20.34 68.612 0.41 7.85 28.14 7.35
8/1/2022 6:00:00 AM 20.33 68.594 0.409 7.86 34.15 7.37
8/1/2022 6:15:00 AM 20.32 68.576 0.409 7.85 25.86 7.38
8/1/2022 6:30:00 AM 20.31 68.558 0.408 7.86 26.29 7.4
8/1/2022 6:45:00 AM 20.29 68.522 0.408 7.86 27.13 7.42
8/1/2022 7:00:00 AM 20.29 68.522 0.407 7.86 26.67 7.43
8/1/2022 7:15:00 AM 20.28 68.504 0.407 7.86 27.59 7.46
8/1/2022 7:30:00 AM 20.28 68.504 0.407 7.87 40.65 7.48
8/1/2022 7:45:00 AM 20.28 68.504 0.406 7.86 25.87 7.5
8/1/2022 8:00:00 AM 20.28 68.504 0.406 7.88 21.42 7.52
8/1/2022 8:15:00 AM 20.28 68.504 0.405 7.88 28.16 7.55
8/1/2022 8:30:00 AM 20.29 68.522 0.405 7.88 26.69 7.58
8/1/2022 8:45:00 AM 20.3 68.54 0.404 7.88 24.58 7.62
8/1/2022 9:00:00 AM 20.33 68.594 0.404 7.89 25.65 7.68
8/1/2022 9:15:00 AM 20.34 68.612 0.402 7.9 24.33 7.72
8/1/2022 9:30:00 AM 20.36 68.648 0.401 7.9 24.69 7.76
8/1/2022 9:45:00 AM 20.39 68.702 0.401 7.91 22.47 7.82
8/1/2022 10:00:00 AM 20.41 68.738 0.401 7.92 25.97 7.87
8/1/2022 10:15:00 AM 20.44 68.792 0.401 7.92 24.7 7.93
8/1/2022 10:30:00 AM 20.47 68.846 0.4 7.93 24.95 8
8/1/2022 10:45:00 AM 20.49 68.882 0.4 7.94 21 8.03
8/1/2022 11:00:00 AM 20.51 68.918 0.4 7.95 19.54 8.09
8/1/2022 11:15:00 AM 20.55 68.99 0.4 7.96 21.02 8.16
8/1/2022 11:30:00 AM 20.61 69.098 0.399 7.98 21.3 8.23
8/1/2022 11:45:00 AM 20.67 69.206 0.399 7.98 23.6 8.33
8/1/2022 12:00:00 PM 20.74 69.332 0.399 8 22.66 8.43
8/1/2022 12:15:00 PM 20.78 69.404 0.399 8.01 20.04 8.49
8/1/2022 12:30:00 PM 20.81 69.458 0.399 8 20.68 8.54
8/1/2022 12:45:00 PM 20.85 69.53 0.398 8.02 22.86 8.59
8/1/2022 1:00:00 PM 20.83 69.494 0.398 8.02 24.12 8.52
8/1/2022 1:15:00 PM 20.83 69.494 0.398 8.02 21.37 8.5
8/1/2022 1:30:00 PM 20.84 69.512 0.398 8.02 23.18 8.5
8/1/2022 1:45:00 PM 20.86 69.548 0.398 8.02 26 8.51
8/1/2022 2:00:00 PM 20.88 69.584 0.399 8.03 40.58 8.53
8/1/2022 2:15:00 PM 20.97 69.746 0.399 8.04 21.13 8.63
8/1/2022 2:30:00 PM 21.07 69.926 0.4 8.04 19.2 8.74
8/1/2022 2:45:00 PM 21.11 69.998 0.4 8.06 22.42 8.79
8/1/2022 3:00:00 PM 21.19 70.142 0.4 8.06 20.74 8.85
8/1/2022 3:15:00 PM 21.3 70.34 0.4 8.08 23.97 8.95
8/1/2022 3:30:00 PM 21.41 70.538 0.4 8.1 25.34 9
8/1/2022 3:45:00 PM 21.58 70.844 0.401 8.11 26.92 9.03
8/1/2022 4:00:00 PM 21.66 70.988 0.401 8.11 102.36 9.04
8/1/2022 4:15:00 PM 21.73 71.114 0.402 8.12 25.56 9.01
8/1/2022 4:30:00 PM 21.78 71.204 0.402 8.11 21.49 8.95
8/1/2022 4:45:00 PM 21.81 71.258 0.403 8.11 26.35 8.88
8/1/2022 5:00:00 PM 21.81 71.258 0.403 8.1 25.07 8.8
8/1/2022 5:15:00 PM 21.8 71.24 0.403 8.09 98.38 8.71
8/1/2022 5:30:00 PM 21.77 71.186 0.403 8.08 20.57 8.61
8/1/2022 5:45:00 PM 21.74 71.132 0.404 8.07 19.69 8.53
8/1/2022 6:00:00 PM 21.69 71.042 0.404 8.06 22.06 8.44
8/1/2022 6:15:00 PM 21.64 70.952 0.405 8.04 29.54 8.35
8/1/2022 6:30:00 PM 21.59 70.862 0.405 8.03 25.85 8.28
8/1/2022 6:45:00 PM 21.55 70.79 0.405 8.02 26.35 8.21
8/1/2022 7:00:00 PM 21.52 70.736 0.406 8.01 22.58 8.15
8/1/2022 7:15:00 PM 21.49 70.682 0.406 7.99 20.12 8.08
8/1/2022 7:30:00 PM 21.47 70.646 0.406 7.99 21.53 8.04
8/1/2022 7:45:00 PM 21.46 70.628 0.406 7.96 22.2 7.99
8/1/2022 8:00:00 PM 21.44 70.592 0.407 7.97 21.17 7.94
8/1/2022 8:15:00 PM 21.42 70.556 0.407 7.96 21.82 7.89
8/1/2022 8:30:00 PM 21.4 70.52 0.407 7.97 21.96 7.85
8/1/2022 8:45:00 PM 21.37 70.466 0.407 7.96 30.74 7.8
8/1/2022 9:00:00 PM 21.35 70.43 0.407 7.95 23.07 7.76
8/1/2022 9:15:00 PM 21.32 70.376 0.407 7.9 163.11 7.72
8/1/2022 9:30:00 PM 21.3 70.34 0.408 7.92 47.62 7.68
8/1/2022 9:45:00 PM 21.27 70.286 0.408 7.91 120.12 7.64
8/1/2022 10:00:00 PM 21.23 70.214 0.408 7.92 40.45 7.62
8/1/2022 10:15:00 PM 21.2 70.16 0.409 7.9 65.78 7.59
8/1/2022 10:30:00 PM 21.18 70.124 0.409 7.9 27.16 7.55
8/1/2022 10:45:00 PM 21.15 70.07 0.409 7.89 40.14 7.53
8/1/2022 11:00:00 PM 21.12 70.016 0.41 7.88 42.75 7.51
8/1/2022 11:15:00 PM 21.1 69.98 0.406 7.89 37.31 7.49
8/1/2022 11:30:00 PM 21.07 69.926 0.411 7.87 38.16 7.46
8/1/2022 11:45:00 PM 21.05 69.89 0.411 7.87 33.25 7.45
8/2/2022 12:00:00 AM 21.02 69.836 0.411 7.84 35.57 7.43
8/2/2022 12:15:00 AM 21 69.8 0.411 7.87 37.2 7.42
8/2/2022 12:30:00 AM 20.97 69.746 0.411 7.86 29.2 7.4
8/2/2022 12:45:00 AM 20.95 69.71 0.412 7.83 37.36 7.39
8/2/2022 1:00:00 AM 20.93 69.674 0.402 7.88 46.47 7.51
8/2/2022 1:15:00 AM 20.91 69.638 0.404 7.87 39.05 7.45
8/2/2022 1:30:00 AM 20.88 69.584 0.405 7.84 36.36 7.4
8/2/2022 1:45:00 AM 20.85 69.53 0.406 7.85 44.53 7.38
8/2/2022 2:00:00 AM 20.82 69.476 0.408 7.83 29.57 7.36
8/2/2022 2:15:00 AM 20.79 69.422 0.409 7.85 36.85 7.33
8/2/2022 2:30:00 AM 20.77 69.386 0.41 7.83 33.17 7.3
8/2/2022 2:45:00 AM 20.74 69.332 0.411 7.83 31.23 7.3
8/2/2022 3:00:00 AM 20.71 69.278 0.412 7.84 49.17 7.29
8/2/2022 3:15:00 AM 20.68 69.224 0.413 7.81 33.95 7.28
8/2/2022 3:30:00 AM 20.64 69.152 0.413 7.83 35.35 7.28
8/2/2022 3:45:00 AM 20.61 69.098 0.414 7.83 77.66 7.26
8/2/2022 4:00:00 AM 20.57 69.026 0.414 7.82 37.24 7.26
8/2/2022 4:15:00 AM 20.54 68.972 0.414 7.82 41.01 7.27
8/2/2022 4:30:00 AM 20.5 68.9 0.415 7.79 78.02 7.27
8/2/2022 4:45:00 AM 20.46 68.828 0.415 7.81 97.07 7.27
8/2/2022 5:00:00 AM 20.42 68.756 0.415 7.8 61.73 7.28
8/2/2022 5:15:00 AM 20.39 68.702 0.416 7.79 39.72 7.29
8/2/2022 5:30:00 AM 20.35 68.63 0.416 7.81 81.03 7.28
8/2/2022 5:45:00 AM 20.31 68.558 0.416 7.81 44.99 7.26
8/2/2022 6:00:00 AM 20.28 68.504 0.416 7.79 43.34 7.28
8/2/2022 6:15:00 AM 20.25 68.45 0.417 7.81 39.03 7.27
8/2/2022 6:30:00 AM 20.23 68.414 0.417 7.77 52.68 7.26
8/2/2022 6:45:00 AM 20.21 68.378 0.417 7.78 44.93 7.3
8/2/2022 7:00:00 AM 20.2 68.36 0.417 7.78 40.07 7.22
8/2/2022 7:15:00 AM 20.18 68.324 0.418 7.78 40.99 7.19
8/2/2022 7:30:00 AM 20.18 68.324 0.418 7.77 41.44 7.21
8/2/2022 7:45:00 AM 20.19 68.342 0.419 7.79 49.34 7.36
8/2/2022 8:00:00 AM 20.2 68.36 0.418 7.81 53.93 7.35
8/2/2022 8:15:00 AM 20.21 68.378 0.419 7.82 40.79 7.39
8/2/2022 8:30:00 AM 20.23 68.414 0.419 7.8 40.52 7.42
8/2/2022 8:45:00 AM 20.27 68.486 0.419 7.81 41.78 7.45
8/2/2022 9:00:00 AM 20.31 68.558 0.417 7.82 41.47 7.52
8/2/2022 9:15:00 AM 20.36 68.648 0.42 7.82 43.78 7.58
8/2/2022 9:30:00 AM 20.42 68.756 0.42 7.82 43.19 7.63
8/2/2022 9:45:00 AM 20.48 68.864 0.42 7.83 37.69 7.69
8/2/2022 10:00:00 AM 20.55 68.99 0.421 7.86 39.45 7.76
8/2/2022 10:15:00 AM 20.63 69.134 0.42 7.85 36.69 7.87
8/2/2022 10:30:00 AM 20.69 69.242 0.42 7.89 36.45 7.93
8/2/2022 10:45:00 AM 20.77 69.386 0.421 7.89 47.02 7.98
8/2/2022 11:00:00 AM 20.87 69.566 0.421 7.9 43.62 8.09
8/2/2022 11:15:00 AM 20.99 69.782 0.421 7.9 37.71 8.18
8/2/2022 11:30:00 AM 21.15 70.07 0.421 7.93 34.59 8.28
8/2/2022 11:45:00 AM 21.3 70.34 0.421 7.93 51.53 8.38
8/2/2022 12:00:00 PM 21.48 70.664 0.421 7.94 40.77 8.49
8/2/2022 12:15:00 PM 21.69 71.042 0.422 7.96 42.81 8.59
8/2/2022 12:30:00 PM 21.92 71.456 0.422 7.97 44.74 8.65
8/2/2022 12:45:00 PM 22.14 71.852 0.422 7.99 42.49 8.75
8/2/2022 1:00:00 PM 22.28 72.104 0.422 8.01 39.33 8.83
8/2/2022 1:15:00 PM 22.47 72.446 0.422 8.01 41.98 8.92
8/2/2022 1:30:00 PM 22.64 72.752 0.422 8.02 36.05 9
8/2/2022 1:45:00 PM 22.84 73.112 0.423 8.05 42.81 9.07
8/2/2022 2:00:00 PM 23 73.4 0.423 8.05 40.14 9.09
8/2/2022 2:15:00 PM 23.11 73.598 0.423 8.06 39.61 9.11
8/2/2022 2:30:00 PM 23.3 73.94 0.423 8.06 37.9 9.14
8/2/2022 2:45:00 PM 23.45 74.21 0.423 8.08 36.83 9.14
8/2/2022 3:00:00 PM 23.64 74.552 0.423 8.1 36.39 9.18
8/2/2022 3:15:00 PM 23.76 74.768 0.423 8.09 40.61 9.18
8/2/2022 3:30:00 PM 23.88 74.984 0.424 8 36.04 9.19
8/2/2022 3:45:00 PM 23.97 75.146 0.424 8.12 37.37 9.15
8/2/2022 4:00:00 PM 24.01 75.218 0.424 8.11 37.87 9.08
8/2/2022 4:15:00 PM 23.97 75.146 0.424 8.12 37 8.99
8/2/2022 4:30:00 PM 23.95 75.11 0.425 8.1 38.31 8.91
8/2/2022 4:45:00 PM 23.91 75.038 0.425 8.09 37.63 8.8
8/2/2022 5:00:00 PM 23.84 74.912 0.425 8.1 35.5 8.72
8/2/2022 5:15:00 PM 23.77 74.786 0.426 8.06 36.27 8.64
8/2/2022 5:30:00 PM 23.7 74.66 0.426 8.08 37.17 8.56
8/2/2022 5:45:00 PM 23.62 74.516 0.426 8.06 36.98 8.45
8/2/2022 6:00:00 PM 23.53 74.354 0.427 8.05 35.85 8.34
8/2/2022 6:15:00 PM 23.44 74.192 0.427 8.03 37.35 8.26
8/2/2022 6:30:00 PM 23.36 74.048 0.427 8.03 37.19 8.17
8/2/2022 6:45:00 PM 23.28 73.904 0.428 8 36.74 8.1
8/2/2022 7:00:00 PM 23.21 73.778 0.428 8 39.63 8
8/2/2022 7:15:00 PM 23.14 73.652 0.429 7.99 51.26 7.95
8/2/2022 7:30:00 PM 23.07 73.526 0.429 7.95 41.8 7.86
8/2/2022 7:45:00 PM 23 73.4 0.429 7.98 40.74 7.79
8/2/2022 8:00:00 PM 22.94 73.292 0.429 7.97 42.26 7.67
8/2/2022 8:15:00 PM 22.88 73.184 0.429 7.94 41.15 7.64
8/2/2022 8:30:00 PM 22.83 73.094 0.429 7.93 43.63 7.55
8/2/2022 8:45:00 PM 22.79 73.022 0.429 7.94 45.24 7.49
8/2/2022 9:00:00 PM 22.74 72.932 0.43 7.92 45.23 7.44
8/2/2022 9:15:00 PM 22.7 72.86 0.43 7.9 43.76 7.39
8/2/2022 9:30:00 PM 22.65 72.77 0.43 7.92 51.21 7.34
8/2/2022 9:45:00 PM 22.61 72.698 0.431 7.91 43.57 7.31
8/2/2022 10:00:00 PM 22.57 72.626 0.431 7.88 60.07 7.27
8/2/2022 10:15:00 PM 22.52 72.536 0.431 7.89 47.59 7.23
8/2/2022 10:30:00 PM 22.47 72.446 0.431 7.89 44.18 7.21
8/2/2022 10:45:00 PM 22.42 72.356 0.432 7.89 44.95 7.19
8/2/2022 11:00:00 PM 22.36 72.248 0.432 7.87 44.59 7.17
8/2/2022 11:15:00 PM 22.31 72.158 0.433 7.87 47.18 7.16
8/2/2022 11:30:00 PM 22.26 72.068 0.432 7.87 44.02 7.13
8/2/2022 11:45:00 PM 22.2 71.96 0.433 7.88 46.83 7.12
8/3/2022 12:00:00 AM 22.15 71.87 0.433 7.87 43.45 7.11
8/3/2022 12:15:00 AM 22.09 71.762 0.433 7.86 43.75 7.1
8/3/2022 12:30:00 AM 22.03 71.654 0.433 7.87 43.16 7.09
8/3/2022 12:45:00 AM 21.98 71.564 0.434 7.87 45 7.08
8/3/2022 1:00:00 AM 21.92 71.456 0.434 7.87 44.3 7.07
8/3/2022 1:15:00 AM 21.85 71.33 0.434 7.82 48.12 7.08
8/3/2022 1:30:00 AM 21.79 71.222 0.435 7.86 44.27 7.08
8/3/2022 1:45:00 AM 21.72 71.096 0.435 7.83 62.2 7.07
8/3/2022 2:00:00 AM 21.66 70.988 0.436 7.84 49.34 7.06
8/3/2022 2:15:00 AM 21.58 70.844 0.436 7.85 77.53 7.07
8/3/2022 2:30:00 AM 21.51 70.718 0.437 7.83 52.4 7.08
8/3/2022 2:45:00 AM 21.44 70.592 0.437 7.83 58.19 7.08
8/3/2022 3:00:00 AM 21.36 70.448 0.437 7.82 55.55 7.08
8/3/2022 3:15:00 AM 21.29 70.32201 0.438 7.84 53.35 7.09
8/3/2022 3:30:00 AM 21.22 70.196 0.438 7.84 53.62 7.1
8/3/2022 3:45:00 AM 21.14 70.052 0.438 7.82 52.37 7.11
8/3/2022 4:00:00 AM 21.07 69.926 0.438 7.83 50.95 7.12
8/3/2022 4:15:00 AM 20.99 69.782 0.439 7.83 51.29 7.12
8/3/2022 4:30:00 AM 20.91 69.638 0.44 7.81 53.52 7.14
8/3/2022 4:45:00 AM 20.84 69.512 0.44 7.8 57.22 7.14
8/3/2022 5:00:00 AM 20.76 69.368 0.441 7.82 51.82 7.15
8/3/2022 5:15:00 AM 20.68 69.224 0.44 7.82 51.49 7.16
8/3/2022 5:30:00 AM 20.61 69.098 0.441 7.82 52.34 7.16
8/3/2022 5:45:00 AM 20.53 68.954 0.441 7.82 51.58 7.18
8/3/2022 6:00:00 AM 20.46 68.828 0.441 7.82 54.54 7.19
8/3/2022 6:15:00 AM 20.39 68.702 0.441 7.82 50.69 7.16
8/3/2022 6:30:00 AM 20.33 68.594 0.441 7.82 51.34 7.22
8/3/2022 6:45:00 AM 20.27 68.486 0.442 7.8 51.33 7.23
8/3/2022 7:00:00 AM 20.22 68.396 0.442 7.82 51.67 7.25
8/3/2022 7:15:00 AM 20.17 68.306 0.442 7.82 49.76 7.27
8/3/2022 7:30:00 AM 20.14 68.252 0.442 7.82 50.24 7.3
8/3/2022 7:45:00 AM 20.11 68.198 0.443 7.82 49.34 7.32
8/3/2022 8:00:00 AM 20.1 68.18 0.443 7.83 48.13 7.3
8/3/2022 8:15:00 AM 20.1 68.18 0.443 7.83 50.39 7.38
8/3/2022 8:30:00 AM 20.12 68.216 0.443 7.83 50.99 7.41
8/3/2022 8:45:00 AM 20.14 68.252 0.443 7.85 49.2 7.46
8/3/2022 9:00:00 AM 20.18 68.324 0.443 7.86 48.65 7.51
8/3/2022 9:15:00 AM 20.23 68.414 0.444 7.85 51.6 7.58
8/3/2022 9:30:00 AM 20.28 68.504 0.444 7.87 48.95 7.64
8/3/2022 9:45:00 AM 20.34 68.612 0.444 7.86 48.38 7.69
8/3/2022 10:00:00 AM 20.39 68.702 0.444 7.86 48.71 7.74
8/3/2022 10:15:00 AM 20.44 68.792 0.445 7.88 48.4 7.8
8/3/2022 10:30:00 AM 20.5 68.9 0.445 7.88 48.87 7.85
8/3/2022 10:45:00 AM 20.57 69.026 0.445 7.9 50.1 7.9
8/3/2022 11:00:00 AM 20.66 69.188 0.445 7.9 49.17 7.98
8/3/2022 11:15:00 AM 20.76 69.368 0.445 7.91 49.41 8.05
8/3/2022 11:30:00 AM 20.89 69.602 0.445 7.89 49.31 8.14
8/3/2022 11:45:00 AM 21.06 69.908 0.445 7.93 50.51 8.26
8/3/2022 12:00:00 PM 21.24 70.232 0.446 7.94 48.91 8.37
8/3/2022 12:15:00 PM 21.46 70.628 0.445 7.96 49.5 8.49
8/3/2022 12:30:00 PM 21.69 71.042 0.446 7.97 61.56 8.59
8/3/2022 12:45:00 PM 21.94 71.492 0.446 7.99 48.82 8.66
8/3/2022 1:00:00 PM 22.17 71.906 0.446 8.01 52.49 8.75
8/3/2022 1:15:00 PM 22.38 72.284 0.446 8.02 48.98 8.86
8/3/2022 1:30:00 PM 22.58 72.644 0.446 8.03 49.83 8.94
8/3/2022 1:45:00 PM 22.8 73.04 0.446 8.05 48.42 9.03
8/3/2022 2:00:00 PM 23.01 73.418 0.446 8.07 54.57 9.08
8/3/2022 2:15:00 PM 23.22 73.796 0.446 8.07 51.31 9.08
8/3/2022 2:30:00 PM 23.42 74.156 0.446 8.08 54.87 9.12
8/3/2022 2:45:00 PM 23.62 74.516 0.447 8.09 50.74 9.17
8/3/2022 3:00:00 PM 23.79 74.82201 0.446 8.1 49.31 9.16
8/3/2022 3:15:00 PM 23.95 75.11 0.446 8.11 61.96 9.16
8/3/2022 3:30:00 PM 24.09 75.362 0.446 8.11 52 9.13
8/3/2022 3:45:00 PM 24.16 75.488 0.447 8.1 53.72 9.11
8/3/2022 4:00:00 PM 24.21 75.578 0.446 8.12 51.08 9.05
8/3/2022 4:15:00 PM 24.23 75.614 0.446 8.11 48.7 8.99
8/3/2022 4:30:00 PM 24.19 75.542 0.446 8.1 49.01 8.91
8/3/2022 4:45:00 PM 24.11 75.398 0.447 8.1 56.64 8.81
8/3/2022 5:00:00 PM 24.04 75.272 0.447 8.09 49.44 8.7
8/3/2022 5:15:00 PM 23.94 75.092 0.447 8.08 50.84 8.55
8/3/2022 5:30:00 PM 23.82 74.876 0.447 8.07 48.91 8.48
8/3/2022 5:45:00 PM 23.71 74.67799 0.447 8.05 51.31 8.37
8/3/2022 6:00:00 PM 23.62 74.516 0.447 8.04 53.43 8.26
8/3/2022 6:15:00 PM 23.53 74.354 0.448 8.03 52.83 8.17
8/3/2022 6:30:00 PM 23.45 74.21 0.448 8.02 51.19 8.09
8/3/2022 6:45:00 PM 23.36 74.048 0.448 8.01 147.55 8
8/3/2022 7:00:00 PM 23.28 73.904 0.448 8 59.65 7.92
8/3/2022 7:15:00 PM 23.2 73.76 0.448 7.99 58.49 7.86
8/3/2022 7:30:00 PM 23.12 73.616 0.448 7.97 76.05 7.78
8/3/2022 7:45:00 PM 23.05 73.49 0.448 7.97 58.5 7.71
8/3/2022 8:00:00 PM 22.97 73.346 0.448 7.95 58.32 7.65
8/3/2022 8:15:00 PM 22.9 73.22 0.448 7.95 69.57 7.59
8/3/2022 8:30:00 PM 22.84 73.112 0.448 7.93 63.19 7.52
8/3/2022 8:45:00 PM 22.78 73.004 0.448 7.94 59.32 7.47
8/3/2022 9:00:00 PM 22.72 72.896 0.448 7.93 64.12 7.42
8/3/2022 9:15:00 PM 22.67 72.806 0.449 7.92 60.25 7.37
8/3/2022 9:30:00 PM 22.62 72.716 0.449 7.92 62.1 7.33
8/3/2022 9:45:00 PM 22.57 72.626 0.449 7.91 60.12 7.3
8/3/2022 10:00:00 PM 22.53 72.554 0.449 7.9 72.19 7.26
8/3/2022 10:15:00 PM 22.49 72.482 0.449 7.9 97.52 7.23
8/3/2022 10:30:00 PM 22.44 72.392 0.45 7.88 69.86 7.21
8/3/2022 10:45:00 PM 22.4 72.32 0.449 7.9 61.91 7.19
8/3/2022 11:00:00 PM 22.36 72.248 0.449 7.89 55.54 7.18
8/3/2022 11:15:00 PM 22.31 72.158 0.45 7.89 66.62 7.17
8/3/2022 11:30:00 PM 22.27 72.086 0.45 7.88 56.47 7.15
8/3/2022 11:45:00 PM 22.22 71.996 0.45 7.88 55.18 7.14
8/4/2022 12:00:00 AM 22.18 71.924 0.451 7.88 57.59 7.12
8/4/2022 12:15:00 AM 22.14 71.852 0.451 7.87 56.17 7.11
8/4/2022 12:30:00 AM 22.09 71.762 0.451 7.87 55.46 7.08
8/4/2022 12:45:00 AM 22.05 71.69 0.451 7.87 72.62 7.09
8/4/2022 1:00:00 AM 22.01 71.618 0.451 7.87 63.03 7.09
8/4/2022 1:15:00 AM 21.97 71.546 0.452 7.87 59.13 7.09
8/4/2022 1:30:00 AM 21.93 71.474 0.452 7.87 70.72 7.08
8/4/2022 1:45:00 AM 21.89 71.402 0.452 7.86 60.12 7.05
8/4/2022 2:00:00 AM 21.84 71.312 0.453 7.85 62.86 7.03
8/4/2022 2:15:00 AM 21.8 71.24 0.452 7.86 64.26 7.06
8/4/2022 2:30:00 AM 21.75 71.15 0.452 7.86 74 7.03
8/4/2022 2:45:00 AM 21.71 71.078 0.453 7.86 72.27 7.06
8/4/2022 3:00:00 AM 21.66 70.988 0.453 7.86 65.15 7.07
8/4/2022 3:15:00 AM 21.61 70.898 0.453 7.86 65.43 7.07
8/4/2022 3:30:00 AM 21.55 70.79 0.454 7.85 59.46 7.02
8/4/2022 3:45:00 AM 21.5 70.7 0.454 7.85 57.83 7.07
8/4/2022 4:00:00 AM 21.45 70.61 0.454 7.86 66.02 7.07
8/4/2022 4:15:00 AM 21.39 70.502 0.454 7.84 58.81 7.07
8/4/2022 4:30:00 AM 21.33 70.394 0.454 7.85 58.74 7.07
8/4/2022 4:45:00 AM 21.27 70.286 0.454 7.84 60.39 7.07
8/4/2022 5:00:00 AM 21.21 70.17799 0.455 7.84 54.78 7.1
8/4/2022 5:15:00 AM 21.15 70.07 0.455 7.83 55.58 7.09
8/4/2022 5:30:00 AM 21.09 69.962 0.456 7.84 57.68 7.12
8/4/2022 5:45:00 AM 21.03 69.854 0.456 7.84 60.37 7.13
8/4/2022 6:00:00 AM 20.97 69.746 0.456 7.84 55.09 7.14
8/4/2022 6:15:00 AM 20.91 69.638 0.456 7.84 56.89 7.15
8/4/2022 6:30:00 AM 20.86 69.548 0.456 7.84 55 7.15
8/4/2022 6:45:00 AM 20.81 69.458 0.457 7.83 53 7.17
8/4/2022 7:00:00 AM 20.76 69.368 0.457 7.82 56.01 7.19
8/4/2022 7:15:00 AM 20.73 69.314 0.457 7.83 53.33 7.21
8/4/2022 7:30:00 AM 20.7 69.26 0.457 7.84 52.54 7.22
8/4/2022 7:45:00 AM 20.68 69.224 0.457 7.84 52.66 7.25
8/4/2022 8:00:00 AM 20.68 69.224 0.458 7.84 53.12 7.28
8/4/2022 8:15:00 AM 20.69 69.242 0.458 7.84 53.47 7.32
8/4/2022 8:30:00 AM 20.7 69.26 0.458 7.83 53.36 7.36
8/4/2022 8:45:00 AM 20.73 69.314 0.458 7.85 53.34 7.41
8/4/2022 9:00:00 AM 20.77 69.386 0.458 7.85 52.55 7.46
8/4/2022 9:15:00 AM 20.83 69.494 0.459 7.86 52.72 7.54
8/4/2022 9:30:00 AM 20.88 69.584 0.459 7.87 53.26 7.6
8/4/2022 9:45:00 AM 20.94 69.692 0.459 7.87 57.06 7.67
8/4/2022 10:00:00 AM 20.99 69.782 0.459 7.88 54.12 7.74
8/4/2022 10:15:00 AM 21.05 69.89 0.459 7.89 52.51 7.8
8/4/2022 10:30:00 AM 21.13 70.034 0.459 7.89 66.08 7.87
8/4/2022 10:45:00 AM 21.21 70.17799 0.459 7.9 56.45 7.95
8/4/2022 11:00:00 AM 21.31 70.358 0.459 7.92 56.72 8.03
8/4/2022 11:15:00 AM 21.41 70.538 0.459 7.93 66.67 8.1
8/4/2022 11:30:00 AM 21.55 70.79 0.459 7.94 53.55 8.21
8/4/2022 11:45:00 AM 21.72 71.096 0.459 7.96 52.86 8.31
8/4/2022 12:00:00 PM 21.91 71.438 0.459 7.97 51.49 8.48
8/4/2022 12:15:00 PM 22.12 71.816 0.459 7.99 50.92 8.59
8/4/2022 12:30:00 PM 22.36 72.248 0.459 8 50.54 8.7
8/4/2022 12:45:00 PM 22.63 72.734 0.459 8.02 63.95 8.83
8/4/2022 1:00:00 PM 22.87 73.166 0.459 8.04 52.41 8.94
8/4/2022 1:15:00 PM 23.1 73.58 0.459 8.06 59.23 9.05
8/4/2022 1:30:00 PM 23.28 73.904 0.459 8.07 61.29 9.14
8/4/2022 1:45:00 PM 23.51 74.318 0.458 8.09 60.28 9.23
8/4/2022 2:00:00 PM 23.72 74.696 0.459 8.1 58.06 9.31
8/4/2022 2:15:00 PM 23.92 75.056 0.458 8.12 71.88 9.25
8/4/2022 2:30:00 PM 24.12 75.416 0.459 8.13 59.42 9.37
8/4/2022 2:45:00 PM 24.32 75.776 0.459 8.14 56.61 9.4
8/4/2022 3:00:00 PM 24.51 76.118 0.458 8.15 55.57 9.44
8/4/2022 3:15:00 PM 24.66 76.388 0.458 8.15 58.51 9.44
8/4/2022 3:30:00 PM 24.81 76.658 0.458 8.16 62.6 9.41
8/4/2022 3:45:00 PM 24.91 76.838 0.458 8.16 63.64 9.35
8/4/2022 4:00:00 PM 24.98 76.964 0.459 8.15 63.19 9.25
8/4/2022 4:15:00 PM 24.99 76.982 0.459 8.15 63.71 9.15
8/4/2022 4:30:00 PM 24.98 76.964 0.459 8.14 56.89 9.06
8/4/2022 4:45:00 PM 24.93 76.874 0.459 8.14 62.23 8.97
8/4/2022 5:00:00 PM 24.67 76.406 0.459 8.13 58.32 8.73
8/4/2022 5:15:00 PM 24.45 76.01 0.459 8.11 62.17 8.58
8/4/2022 5:30:00 PM 24.33 75.794 0.459 8.09 57.04 8.45
8/4/2022 5:45:00 PM 24.22 75.596 0.459 8.08 59.55 8.35
8/4/2022 6:00:00 PM 24.13 75.434 0.459 8.06 105.81 8.22
8/4/2022 6:15:00 PM 24.02 75.236 0.459 8.06 148.55 8.18
8/4/2022 6:30:00 PM 23.89 75.002 0.459 8.05 80.13 8.02
8/4/2022 6:45:00 PM 23.75 74.75 0.46 8.04 92.74 7.91
8/4/2022 7:00:00 PM 23.61 74.498 0.46 8.02 170.24 7.8
8/4/2022 7:15:00 PM 23.51 74.318 0.46 8.01 121.4 7.74
8/4/2022 7:30:00 PM 23.4 74.12 0.461 7.99 101.65 7.59
8/4/2022 7:45:00 PM 23.32 73.976 0.461 7.99 109.44 7.6
8/4/2022 8:00:00 PM 23.23 73.814 0.461 7.97 89.02 7.5
8/4/2022 8:15:00 PM 23.15 73.67 0.461 7.97 102.43 7.44
8/4/2022 8:30:00 PM 23.08 73.544 0.461 7.97 85.83 7.31
8/4/2022 8:45:00 PM 23.02 73.436 0.462 7.95 81.83 7.32
8/4/2022 9:00:00 PM 22.97 73.346 0.462 7.95 79.62 7.3
8/4/2022 9:15:00 PM 22.92 73.256 0.462 7.95 97.15 7.28
8/4/2022 9:30:00 PM 22.87 73.166 0.463 7.94 84.15 7.26
8/4/2022 9:45:00 PM 22.83 73.094 0.463 7.94 94.53 7.2
8/4/2022 10:00:00 PM 22.79 73.022 0.463 7.93 85.27 7.2
8/4/2022 10:15:00 PM 22.76 72.968 0.464 7.93 85.42 7.15
8/4/2022 10:30:00 PM 22.72 72.896 0.464 7.92 75.76 7.13
8/4/2022 10:45:00 PM 22.68 72.824 0.464 7.92 83.48 7.09
8/4/2022 11:00:00 PM 22.65 72.77 0.464 7.92 81.13 7.08
8/4/2022 11:15:00 PM 22.61 72.698 0.464 7.91 82.04 7.02
8/4/2022 11:30:00 PM 22.57 72.626 0.465 7.91 80.14 7.08
8/4/2022 11:45:00 PM 22.53 72.554 0.464 7.91 97.61 7.03
8/5/2022 12:00:00 AM 22.49 72.482 0.465 7.9 91.54 7.03
8/5/2022 12:15:00 AM 22.46 72.42799 0.466 7.9 92.28 7.02
8/5/2022 12:30:00 AM 22.43 72.374 0.465 7.9 81.72 7.01
8/5/2022 12:45:00 AM 22.39 72.302 0.465 7.89 81.86 7
8/5/2022 1:00:00 AM 22.36 72.248 0.465 7.89 78.84 7
8/5/2022 1:15:00 AM 22.33 72.194 0.465 7.89 82.29 7
8/5/2022 1:30:00 AM 22.3 72.14 0.465 7.9 84.84 6.95
8/5/2022 1:45:00 AM 22.26 72.068 0.466 7.89 79.98 6.99
8/5/2022 2:00:00 AM 22.23 72.014 0.465 7.88 78.92 7.01
8/5/2022 2:15:00 AM 22.19 71.942 0.466 7.89 84.45 6.98
8/5/2022 2:30:00 AM 22.15 71.87 0.466 7.89 80.91 6.97
8/5/2022 2:45:00 AM 22.12 71.816 0.466 7.88 85.92 6.98
8/5/2022 3:00:00 AM 22.08 71.744 0.466 7.88 80.42 6.99
8/5/2022 3:15:00 AM 22.04 71.672 0.466 7.88 81.99 6.95
8/5/2022 3:30:00 AM 22.01 71.618 0.466 7.88 88.71 6.96
8/5/2022 3:45:00 AM 21.97 71.546 0.467 7.88 81.85 6.93
8/5/2022 4:00:00 AM 21.93 71.474 0.467 7.88 82.4 6.96
8/5/2022 4:15:00 AM 21.89 71.402 0.467 7.87 81.87 6.97
8/5/2022 4:30:00 AM 21.84 71.312 0.467 7.87 84.95 6.97
8/5/2022 4:45:00 AM 21.8 71.24 0.467 7.87 82.4 6.95
8/5/2022 5:00:00 AM 21.76 71.168 0.467 7.87 84.77 6.96
8/5/2022 5:15:00 AM 21.71 71.078 0.468 7.86 90.16 6.98
8/5/2022 5:30:00 AM 21.66 70.988 0.468 7.86 97.08 6.97
8/5/2022 5:45:00 AM 21.61 70.898 0.468 7.86 97.23 6.98
8/5/2022 6:00:00 AM 21.56 70.808 0.469 7.86 80.89 6.96
8/5/2022 6:15:00 AM 21.52 70.736 0.469 7.86 111.92 6.93
8/5/2022 6:30:00 AM 21.48 70.664 0.469 7.86 110.43 6.98
8/5/2022 6:45:00 AM 21.44 70.592 0.469 7.86 83.77 6.98
8/5/2022 7:00:00 AM 21.4 70.52 0.47 7.86 129.87 6.98
8/5/2022 7:15:00 AM 21.38 70.484 0.47 7.86 85.31 7.01
8/5/2022 7:30:00 AM 21.36 70.448 0.47 7.86 110.57 7.04
8/5/2022 7:45:00 AM 21.33 70.394 0.47 7.86 99.85 7.11
8/5/2022 8:00:00 AM 21.31 70.358 0.47 7.85 111.54 7.13
8/5/2022 8:15:00 AM 21.3 70.34 0.47 7.86 82.16 7.16
8/5/2022 8:30:00 AM 21.3 70.34 0.47 7.87 86.66 7.23
8/5/2022 8:45:00 AM 21.31 70.358 0.47 7.87 83.91 7.24
8/5/2022 9:00:00 AM 21.32 70.376 0.471 7.88 81.07 7.33
8/5/2022 9:15:00 AM 21.35 70.43 0.471 7.89 77.76 7.43
8/5/2022 9:30:00 AM 21.39 70.502 0.471 7.89 86.79 7.58
8/5/2022 9:45:00 AM 21.43 70.574 0.47 7.91 80.92 7.68
8/5/2022 10:00:00 AM 21.47 70.646 0.471 7.92 79.93 7.82
8/5/2022 10:15:00 AM 21.53 70.754 0.471 7.93 81.35 7.94
8/5/2022 10:30:00 AM 21.58 70.844 0.47 7.95 79.75 8.03
8/5/2022 10:45:00 AM 21.68 71.024 0.47 7.97 76.68 8.27
8/5/2022 11:00:00 AM 21.78 71.204 0.47 7.98 103.31 8.49
8/5/2022 11:15:00 AM 21.89 71.402 0.47 8 79.09 8.5
8/5/2022 11:30:00 AM 21.98 71.564 0.469 8.02 88.61 8.77
8/5/2022 11:45:00 AM 22.08 71.744 0.469 8.04 105.3 8.84
8/5/2022 12:00:00 PM 22.18 71.924 0.469 8.06 75.59 8.95
8/5/2022 12:15:00 PM 22.29 72.122 0.469 8.07 95.52 9.05
8/5/2022 12:30:00 PM 22.43 72.374 0.469 8.09 84.14 9.12
8/5/2022 12:45:00 PM 22.65 72.77 0.468 8.11 87.19 9.38
8/5/2022 1:00:00 PM 22.76 72.968 0.468 8.14 82.78 9.34
8/5/2022 1:15:00 PM 22.8 73.04 0.468 8.14 67.84 9.55
8/5/2022 1:30:00 PM 22.89 73.202 0.468 8.16 68.11 9.61
8/5/2022 1:45:00 PM 23 73.4 0.468 8.17 70.53 9.6
8/5/2022 2:00:00 PM 23.09 73.562 0.467 8.17 87 9.68
8/5/2022 2:15:00 PM 23.18 73.724 0.467 8.19 82.66 9.67
8/5/2022 2:30:00 PM 23.34 74.012 0.467 8.2 75.87 9.45
8/5/2022 2:45:00 PM 23.53 74.354 0.467 8.2 77.35 9.7
8/5/2022 3:00:00 PM 23.66 74.588 0.467 8.21 71 9.63
8/5/2022 3:15:00 PM 23.75 74.75 0.467 8.21 100.08 9.67
8/5/2022 3:30:00 PM 23.77 74.786 0.468 8.18 112.7 9.57
8/5/2022 3:45:00 PM 23.9 75.02 0.467 8.19 111.03 9.6
8/5/2022 4:00:00 PM 24.01 75.218 0.467 8.21 81.18 9.34
8/5/2022 4:15:00 PM 24.12 75.416 0.467 8.2 1460.25 9.4
8/5/2022 4:30:00 PM 24.18 75.524 0.467 8.18 82.13 9.35
8/5/2022 4:45:00 PM 24.18 75.524 0.467 8.19 86.87 9.24
8/5/2022 5:00:00 PM 24.15 75.47 0.467 8.17 104.5 9.03
8/5/2022 5:15:00 PM 24.09 75.362 0.468 8.16 110.5 8.97
8/5/2022 5:30:00 PM 24 75.2 0.468 8.14 118.73 8.82
8/5/2022 5:45:00 PM 23.94 75.092 0.468 8.13 101.94 8.67
8/5/2022 6:00:00 PM 23.86 74.948 0.468 8.1 2603.22 8.29
8/5/2022 6:15:00 PM 23.8 74.84 0.468 8.07 126.16 8.37
8/5/2022 6:30:00 PM 23.74 74.732 0.468 8.08 90.81 8.25
8/5/2022 6:45:00 PM 23.68 74.624 0.469 8.06 116.55 8.18
8/5/2022 7:00:00 PM 23.59 74.462 0.469 8.04 124.79 8.09
8/5/2022 7:15:00 PM 23.53 74.354 0.469 8.03 92.72 7.93
8/5/2022 7:30:00 PM 23.43 74.174 0.469 8.03 89.1 7.92
8/5/2022 7:45:00 PM 23.33 73.994 0.468 8.03 86.98 7.88
8/5/2022 8:00:00 PM 23.23 73.814 0.469 8.02 73.3 7.74
8/5/2022 8:15:00 PM 23.13 73.634 0.469 8.01 105.31 7.67
8/5/2022 8:30:00 PM 23.04 73.472 0.469 8 88.57 7.63
8/5/2022 8:45:00 PM 22.96 73.328 0.469 8 75.66 7.57
8/5/2022 9:00:00 PM 22.89 73.202 0.469 7.99 118.22 7.52
8/5/2022 9:15:00 PM 22.82 73.076 0.469 7.98 76.54 7.36
8/5/2022 9:30:00 PM 22.77 72.986 0.469 7.98 80.77 7.41
8/5/2022 9:45:00 PM 22.72 72.896 0.469 7.97 77.54 7.38
8/5/2022 10:00:00 PM 22.68 72.824 0.469 7.95 81.42 7.31
8/5/2022 10:15:00 PM 22.64 72.752 0.469 7.96 76.7 7.28
8/5/2022 10:30:00 PM 22.62 72.716 0.469 7.95 78.29 7.24
8/5/2022 10:45:00 PM 22.59 72.662 0.469 7.95 79.45 7.18
8/5/2022 11:00:00 PM 22.57 72.626 0.469 7.95 79.67 7.14
8/5/2022 11:15:00 PM 22.54 72.57201 0.469 7.95 79.19 7.07
8/5/2022 11:30:00 PM 22.51 72.518 0.468 7.94 88.46 7.02
8/5/2022 11:45:00 PM 22.48 72.464 0.469 7.94 81.32 7.09
8/6/2022 12:00:00 AM 22.44 72.392 0.469 7.93 83.57 7.08
8/6/2022 12:15:00 AM 22.41 72.338 0.469 7.93 80.27 7.08
8/6/2022 12:30:00 AM 22.38 72.284 0.469 7.93 141.2 7
8/6/2022 12:45:00 AM 22.34 72.212 0.47 7.92 82.65 7.03
8/6/2022 1:00:00 AM 22.31 72.158 0.469 7.92 77.74 6.96
8/6/2022 1:15:00 AM 22.28 72.104 0.469 7.91 78.33 7.02
8/6/2022 1:30:00 AM 22.25 72.05 0.47 7.92 85.6 7.07
8/6/2022 1:45:00 AM 22.22 71.996 0.469 7.91 79.24 7.07
8/6/2022 2:00:00 AM 22.2 71.96 0.47 7.91 84.63 7.06
8/6/2022 2:15:00 AM 22.16 71.888 0.47 7.91 81.32 7.06
8/6/2022 2:30:00 AM 22.13 71.834 0.47 7.91 81 7.05
8/6/2022 2:45:00 AM 22.11 71.798 0.469 7.9 77.29 6.99
8/6/2022 3:00:00 AM 22.07 71.726 0.47 7.89 81.24 7.03
8/6/2022 3:15:00 AM 22.04 71.672 0.47 7.89 79.48 7.02
8/6/2022 3:30:00 AM 22 71.6 0.47 7.9 84.33 7.03
8/6/2022 3:45:00 AM 21.97 71.546 0.47 7.89 80.87 7.02
8/6/2022 4:00:00 AM 21.93 71.474 0.47 7.89 76.26 7.03
8/6/2022 4:15:00 AM 21.9 71.42 0.47 7.89 80.19 7.04
8/6/2022 4:30:00 AM 21.86 71.348 0.471 7.88 77.3 7.04
8/6/2022 4:45:00 AM 21.82 71.276 0.47 7.89 78.92 7.03
8/6/2022 5:00:00 AM 21.78 71.204 0.47 7.89 75.77 6.99
8/6/2022 5:15:00 AM 21.74 71.132 0.471 7.88 78.96 7.02
8/6/2022 5:30:00 AM 21.7 71.06 0.471 7.88 79.16 7.02
8/6/2022 5:45:00 AM 21.67 71.006 0.471 7.88 90.59 6.98
8/6/2022 6:00:00 AM 21.63 70.934 0.471 7.87 92.37 6.92
8/6/2022 6:15:00 AM 21.6 70.88 0.472 7.86 119.64 6.91
8/6/2022 6:30:00 AM 21.57 70.826 0.472 7.87 103.92 6.93
8/6/2022 6:45:00 AM 21.55 70.79 0.472 7.87 91.57 6.78
8/6/2022 7:00:00 AM 21.53 70.754 0.472 7.87 86.37 6.95
8/6/2022 7:15:00 AM 21.52 70.736 0.472 7.87 88.33 6.97
8/6/2022 7:30:00 AM 21.5 70.7 0.472 7.87 90.46 6.92
8/6/2022 7:45:00 AM 21.5 70.7 0.472 7.87 89.29 7
8/6/2022 8:00:00 AM 21.5 70.7 0.468 7.88 86.27 7.08
8/6/2022 8:15:00 AM 21.49 70.682 0.472 7.88 104.9 6.94
8/6/2022 8:30:00 AM 21.49 70.682 0.473 7.87 91.32 7.12
8/6/2022 8:45:00 AM 21.48 70.664 0.473 7.88 86.56 7.21
8/6/2022 9:00:00 AM 21.47 70.646 0.473 7.88 86.09 7.05
8/6/2022 9:15:00 AM 21.47 70.646 0.473 7.88 94.99 7.08
8/6/2022 9:30:00 AM 21.46 70.628 0.473 7.89 82.22 7.29
8/6/2022 9:45:00 AM 21.46 70.628 0.473 7.89 83.27 7.22
8/6/2022 10:00:00 AM 21.46 70.628 0.473 7.89 83.26 7.28
8/6/2022 10:15:00 AM 21.47 70.646 0.473 7.9 103.18 7.42
8/6/2022 10:30:00 AM 21.48 70.664 0.473 7.9 87.26 7.48
8/6/2022 10:45:00 AM 21.49 70.682 0.473 7.91 81 7.48
8/6/2022 11:00:00 AM 21.5 70.7 0.473 7.92 83.42 7.57
8/6/2022 11:15:00 AM 21.53 70.754 0.473 7.93 84.61 7.7
8/6/2022 11:30:00 AM 21.58 70.844 0.473 7.94 81.82 7.84
8/6/2022 11:45:00 AM 21.67 71.006 0.473 7.96 103.27 8.16
8/6/2022 12:00:00 PM 21.76 71.168 0.473 7.98 82.31 8.17
8/6/2022 12:15:00 PM 21.83 71.294 0.473 7.99 100.12 8.29
8/6/2022 12:30:00 PM 21.95 71.51 0.472 8 86.49 8.49
8/6/2022 12:45:00 PM 22.12 71.816 0.472 8.05 85.83 8.94
8/6/2022 1:00:00 PM 22.26 72.068 0.472 8.07 83.7 9.1
8/6/2022 1:15:00 PM 22.33 72.194 0.472 8.09 88.86 9.14
8/6/2022 1:30:00 PM 22.44 72.392 0.471 8.09 162.07 9.17
8/6/2022 1:45:00 PM 22.56 72.608 0.471 8.13 91.27 9.37
8/6/2022 2:00:00 PM 22.66 72.788 0.471 8.15 90.58 9.6
8/6/2022 2:15:00 PM 22.83 73.094 0.47 8.17 89.54 9.56
8/6/2022 2:30:00 PM 23 73.4 0.47 8.18 91.71 9.74
8/6/2022 2:45:00 PM 23.18 73.724 0.47 8.2 87.09 9.85
8/6/2022 3:00:00 PM 23.31 73.958 0.469 8.22 83.4 9.82
8/6/2022 3:15:00 PM 23.37 74.066 0.469 8.21 101.65 9.83
8/6/2022 3:30:00 PM 23.49 74.282 0.468 8.23 83.1 9.47
8/6/2022 3:45:00 PM 23.64 74.552 0.468 8.23 87.91 9.85
8/6/2022 4:00:00 PM 23.79 74.82201 0.469 8.23 90 9.83
8/6/2022 4:15:00 PM 23.88 74.984 0.468 8.22 83.28 9.72
8/6/2022 4:30:00 PM 23.86 74.948 0.468 8.21 82.68 9.57
8/6/2022 4:45:00 PM 23.85 74.93 0.467 8.21 78.24 9.42
8/6/2022 5:00:00 PM 23.85 74.93 0.467 8.19 81.97 9.37
8/6/2022 5:15:00 PM 23.82 74.876 0.468 8.19 103.62 9.25
8/6/2022 5:30:00 PM 23.8 74.84 0.467 8.18 100.04 9.16
8/6/2022 5:45:00 PM 23.74 74.732 0.467 8.16 91.29 9.02
8/6/2022 6:00:00 PM 23.7 74.66 0.467 8.15 89.75 8.75
8/6/2022 6:15:00 PM 23.62 74.516 0.467 8.12 94.14 8.72
8/6/2022 6:30:00 PM 23.57 74.426 0.475 8.1 93.72 8.57
8/6/2022 6:45:00 PM 23.51 74.318 0.468 8.1 85.53 8.47
8/6/2022 7:00:00 PM 23.46 74.228 0.468 8.09 90.16 8.41
8/6/2022 7:15:00 PM 23.4 74.12 0.468 8.07 103.57 8.31
8/6/2022 7:30:00 PM 23.31 73.958 0.468 8.06 94.3 8.2
8/6/2022 7:45:00 PM 23.22 73.796 0.468 8.04 113.77 8.03
8/6/2022 8:00:00 PM 23.14 73.652 0.469 8.03 109.69 7.96
8/6/2022 8:15:00 PM 23.11 73.598 0.468 8.01 89.39 7.84
8/6/2022 8:30:00 PM 23.05 73.49 0.469 8.01 220.84 7.77
8/6/2022 8:45:00 PM 23 73.4 0.469 7.99 94.16 7.72
8/6/2022 9:00:00 PM 22.96 73.328 0.469 7.99 95.65 7.64
8/6/2022 9:15:00 PM 22.93 73.274 0.467 7.99 94.87 7.56
8/6/2022 9:30:00 PM 22.89 73.202 0.476 7.96 87.95 7.5
8/6/2022 9:45:00 PM 22.86 73.148 0.468 7.96 85.01 7.43
8/6/2022 10:00:00 PM 22.84 73.112 0.469 7.97 89.18 7.38
8/6/2022 10:15:00 PM 22.81 73.058 0.468 7.96 88.85 7.34
8/6/2022 10:30:00 PM 22.79 73.022 0.469 7.94 68.93 7.22
8/6/2022 10:45:00 PM 22.78 73.004 0.468 7.94 91.36 7.28
8/6/2022 11:00:00 PM 22.76 72.968 0.468 7.93 77.4 7.25
8/6/2022 11:15:00 PM 22.73 72.914 0.468 7.87 76.22 7.21
8/6/2022 11:30:00 PM 22.72 72.896 0.468 7.93 94.17 7.19
8/6/2022 11:45:00 PM 22.7 72.86 0.468 7.93 83.81 7.18
8/7/2022 12:00:00 AM 22.68 72.824 0.468 7.92 79.77 7.16
8/7/2022 12:15:00 AM 22.67 72.806 0.468 7.9 88.84 7.14
8/7/2022 12:30:00 AM 22.64 72.752 0.468 7.93 77.23 7.11
8/7/2022 12:45:00 AM 22.62 72.716 0.468 7.89 84.22 7.09
8/7/2022 1:00:00 AM 22.61 72.698 0.469 7.91 81.2 7.08
8/7/2022 1:15:00 AM 22.59 72.662 0.469 7.91 91.99 7.07
8/7/2022 1:30:00 AM 22.57 72.626 0.469 7.91 78.6 7.06
8/7/2022 1:45:00 AM 22.56 72.608 0.469 7.91 78.77 7.05
8/7/2022 2:00:00 AM 22.54 72.57201 0.469 7.91 82.89 7.03
8/7/2022 2:15:00 AM 22.52 72.536 0.469 7.89 80.08 7.01
8/7/2022 2:30:00 AM 22.5 72.5 0.469 7.89 78.57 7
8/7/2022 2:45:00 AM 22.48 72.464 0.469 7.88 81.06 7
8/7/2022 3:00:00 AM 22.45 72.41 0.469 7.88 97.94 6.97
8/7/2022 3:15:00 AM 22.43 72.374 0.469 7.87 114.56 6.99
8/7/2022 3:30:00 AM 22.4 72.32 0.469 7.87 82.57 6.93
8/7/2022 3:45:00 AM 22.36 72.248 0.47 7.88 91.37 6.98
8/7/2022 4:00:00 AM 22.33 72.194 0.469 7.89 99.03 6.98
8/7/2022 4:15:00 AM 22.29 72.122 0.47 7.89 99.12 6.94
8/7/2022 4:30:00 AM 22.26 72.068 0.47 7.87 111.87 6.88
8/7/2022 4:45:00 AM 22.22 71.996 0.47 7.84 118.7 6.87
8/7/2022 5:00:00 AM 22.19 71.942 0.47 7.88 91.48 6.95
8/7/2022 5:15:00 AM 22.14 71.852 0.47 7.87 96.54 6.92
8/7/2022 5:30:00 AM 22.1 71.78 0.469 7.88 91.18 6.88
8/7/2022 5:45:00 AM 22.06 71.708 0.47 7.88 95.17 6.94
8/7/2022 6:00:00 AM 22.01 71.618 0.47 7.88 90.06 6.94
8/7/2022 6:15:00 AM 21.98 71.564 0.47 7.88 83.86 6.89
8/7/2022 6:30:00 AM 21.93 71.474 0.471 7.88 85.87 6.94
8/7/2022 6:45:00 AM 21.9 71.42 0.471 7.84 83.81 6.96
8/7/2022 7:00:00 AM 21.87 71.366 0.47 7.87 80.57 6.94
8/7/2022 7:15:00 AM 21.85 71.33 0.471 7.86 91.5 6.98
8/7/2022 7:30:00 AM 21.83 71.294 0.471 7.87 89.71 7.02
8/7/2022 7:45:00 AM 21.82 71.276 0.471 7.88 84.62 7.01
8/7/2022 8:00:00 AM 21.82 71.276 0.471 7.86 85.13 7.1
8/7/2022 8:15:00 AM 21.82 71.276 0.471 7.88 81.8 7.18
8/7/2022 8:30:00 AM 21.83 71.294 0.472 7.88 89.11 7.19
8/7/2022 8:45:00 AM 21.85 71.33 0.471 7.9 81.6 7.14
8/7/2022 9:00:00 AM 21.9 71.42 0.471 7.9 81.43 7.34
8/7/2022 9:15:00 AM 21.94 71.492 0.471 7.91 85.95 7.48
8/7/2022 9:30:00 AM 21.98 71.564 0.471 7.93 81.14 7.5
8/7/2022 9:45:00 AM 22.01 71.618 0.471 7.93 86.16 7.68
8/7/2022 10:00:00 AM 22.05 71.69 0.471 7.94 83.66 7.85
8/7/2022 10:15:00 AM 22.1 71.78 0.471 7.95 83.37 7.91
8/7/2022 10:30:00 AM 22.15 71.87 0.472 7.96 88.84 7.95
8/7/2022 10:45:00 AM 22.22 71.996 0.471 7.97 92.16 8.03
8/7/2022 11:00:00 AM 22.31 72.158 0.471 7.98 82.23 8.1
8/7/2022 11:15:00 AM 22.42 72.356 0.471 7.99 86.65 8.24
8/7/2022 11:30:00 AM 22.54 72.57201 0.471 8.01 85.98 8.38
8/7/2022 11:45:00 AM 22.65 72.77 0.471 8.03 89.73 8.5
8/7/2022 12:00:00 PM 22.8 73.04 0.471 8.04 91.91 8.57
8/7/2022 12:15:00 PM 23 73.4 0.47 8.05 85.49 8.71
8/7/2022 12:30:00 PM 23.17 73.706 0.471 8.06 117.98 8.79
8/7/2022 12:45:00 PM 23.39 74.102 0.47 8.08 81.71 8.93
8/7/2022 1:00:00 PM 23.53 74.354 0.47 8.1 88.89 9.04
8/7/2022 1:15:00 PM 23.74 74.732 0.47 8.11 111.59 9.18
8/7/2022 1:30:00 PM 23.93 75.074 0.47 8.13 90.83 9.25
8/7/2022 1:45:00 PM 24.16 75.488 0.47 8.14 83.36 9.33
8/7/2022 2:00:00 PM 24.36 75.848 0.47 8.16 89.92 9.43
8/7/2022 2:15:00 PM 24.49 76.082 0.262 8.18 89.59 9.45
8/7/2022 2:30:00 PM 24.57 76.226 0.469 8.18 83.06 9.43
8/7/2022 2:45:00 PM 24.7 76.46 0.469 8.2 85.78 9.44
8/7/2022 3:00:00 PM 24.84 76.712 0.469 8.2 91.16 9.45
8/7/2022 3:15:00 PM 24.88 76.784 0.469 8.21 84.79 9.42
8/7/2022 3:30:00 PM 24.92 76.856 0.469 8.21 85.87 9.41
8/7/2022 3:45:00 PM 24.97 76.946 0.468 8.21 89.77 9.25
8/7/2022 4:00:00 PM 25.04 77.07201 0.469 8.22 84.58 9.37
8/7/2022 4:15:00 PM 25.04 77.07201 0.469 8.21 143.17 9.32
8/7/2022 4:30:00 PM 25.12 77.216 0.468 8.23 81.17 9.32
8/7/2022 4:45:00 PM 25.14 77.252 0.469 8.21 83.7 9.26
8/7/2022 5:00:00 PM 25.09 77.162 0.469 8.2 106.9 9.14
8/7/2022 5:15:00 PM 25.02 77.036 0.469 8.18 97.27 8.89
8/7/2022 5:30:00 PM 24.92 76.856 0.47 8.18 84.74 8.86
8/7/2022 5:45:00 PM 24.83 76.694 0.47 8.15 91.33 8.66
8/7/2022 6:00:00 PM 24.71 76.478 0.471 8.14 91.99 8.5
8/7/2022 6:15:00 PM 24.62 76.316 0.471 8.11 86.27 8.34
8/7/2022 6:30:00 PM 24.53 76.154 0.471 8.1 105.97 8.24
8/7/2022 6:45:00 PM 24.46 76.028 0.472 8.09 87.07 8.11
8/7/2022 7:00:00 PM 24.38 75.884 0.466 8.07 111.18 7.97
8/7/2022 7:15:00 PM 24.3 75.74 0.473 8.05 84.75 7.86
8/7/2022 7:30:00 PM 24.24 75.632 0.473 8.04 86.47 7.76
8/7/2022 7:45:00 PM 24.13 75.434 0.473 7.83 84.13 7.53
8/7/2022 8:00:00 PM 24.06 75.308 0.473 8.01 84.15 7.53
8/7/2022 8:15:00 PM 23.98 75.164 0.473 8 85.41 7.43
8/7/2022 8:30:00 PM 23.9 75.02 0.472 7.99 82.73 7.38
8/7/2022 8:45:00 PM 23.84 74.912 0.473 7.98 87.38 7.32
8/7/2022 9:00:00 PM 23.78 74.804 0.473 7.96 86.1 7.27
8/7/2022 9:15:00 PM 23.72 74.696 0.473 7.96 89.17 7.21
8/7/2022 9:30:00 PM 23.67 74.606 0.474 7.95 99.27 7.16
8/7/2022 9:45:00 PM 23.62 74.516 0.474 7.94 88.92 7.1
8/7/2022 10:00:00 PM 23.58 74.444 0.473 7.94 86.17 7.07
8/7/2022 10:15:00 PM 23.54 74.372 0.473 7.93 87.11 7.03
8/7/2022 10:30:00 PM 23.51 74.318 0.473 7.92 95.2 7.01
8/7/2022 10:45:00 PM 23.48 74.264 0.473 7.92 97.67 6.99
8/7/2022 11:00:00 PM 23.46 74.228 0.473 7.92 101.91 6.97
8/7/2022 11:15:00 PM 23.42 74.156 0.473 7.92 92.27 6.96
8/7/2022 11:30:00 PM 23.4 74.12 0.473 7.92 85.3 6.91
8/7/2022 11:45:00 PM 23.38 74.084 0.473 7.91 86.17 6.9
8/8/2022 12:00:00 AM 23.35 74.03 0.473 7.91 87.02 6.89
8/8/2022 12:15:00 AM 23.31 73.958 0.473 7.91 86.64 6.85
8/8/2022 12:30:00 AM 23.28 73.904 0.473 7.9 85.14 6.84
8/8/2022 12:45:00 AM 23.24 73.832 0.474 7.9 91.37 6.84
8/8/2022 1:00:00 AM 23.21 73.778 0.474 7.9 87.43 6.84
8/8/2022 1:15:00 AM 23.17 73.706 0.474 7.91 88.25 6.85
8/8/2022 1:30:00 AM 23.14 73.652 0.473 7.9 84.84 6.84
8/8/2022 1:45:00 AM 23.1 73.58 0.473 7.9 87.52 6.82
8/8/2022 2:00:00 AM 23.07 73.526 0.474 7.9 93.17 6.83
8/8/2022 2:15:00 AM 23.03 73.454 0.474 7.89 87.2 6.82
8/8/2022 2:30:00 AM 23 73.4 0.272 7.91 95.12 6.82
8/8/2022 2:45:00 AM 22.97 73.346 0.474 7.89 87.38 6.81
8/8/2022 3:00:00 AM 22.93 73.274 0.474 7.89 86.12 6.8
8/8/2022 3:15:00 AM 22.9 73.22 0.474 7.88 87.17 6.8
8/8/2022 3:30:00 AM 22.87 73.166 0.474 7.88 86.86 6.8
8/8/2022 3:45:00 AM 22.83 73.094 0.474 7.88 87.24 6.79
8/8/2022 4:00:00 AM 22.8 73.04 0.474 7.88 86.4 6.79
8/8/2022 4:15:00 AM 22.76 72.968 0.475 7.87 87.59 6.8
8/8/2022 4:30:00 AM 22.72 72.896 0.474 7.88 86.99 6.8
8/8/2022 4:45:00 AM 22.69 72.842 0.475 7.88 91.66 6.79
8/8/2022 5:00:00 AM 22.64 72.752 0.475 7.87 105.82 6.81
8/8/2022 5:15:00 AM 22.61 72.698 0.475 7.88 98.93 6.8
8/8/2022 5:30:00 AM 22.57 72.626 0.475 7.87 95.18 6.78
8/8/2022 5:45:00 AM 22.52 72.536 0.475 7.87 91.01 6.8
8/8/2022 6:00:00 AM 22.46 72.42799 0.475 7.88 87.2 6.77
8/8/2022 6:15:00 AM 22.43 72.374 0.25 7.87 98.74 6.82
8/8/2022 6:30:00 AM 22.39 72.302 0.476 7.87 91.59 6.76
8/8/2022 6:45:00 AM 22.34 72.212 0.476 7.86 87.95 6.82
8/8/2022 7:00:00 AM 22.29 72.122 0.476 7.87 86.06 6.81
8/8/2022 7:15:00 AM 22.26 72.068 0.476 7.86 84.43 6.86
8/8/2022 7:30:00 AM 22.23 72.014 0.476 7.86 99.31 6.86
8/8/2022 7:45:00 AM 22.21 71.978 0.476 7.86 101.05 6.87
8/8/2022 8:00:00 AM 22.19 71.942 0.476 7.86 88.21 6.89
8/8/2022 8:15:00 AM 22.19 71.942 0.476 7.87 86.55 6.93
8/8/2022 8:30:00 AM 22.2 71.96 0.477 7.88 82.33 6.96
8/8/2022 8:45:00 AM 22.22 71.996 0.476 7.88 92.95 7.03
8/8/2022 9:00:00 AM 22.25 72.05 0.477 7.88 83.29 7.09
8/8/2022 9:15:00 AM 22.28 72.104 0.477 7.89 83.6 7.21
8/8/2022 9:30:00 AM 22.35 72.23 0.477 7.9 82.72 7.25
8/8/2022 9:45:00 AM 22.4 72.32 0.477 7.9 81.38 7.31
8/8/2022 10:00:00 AM 22.43 72.374 0.477 7.92 88.18 7.37
8/8/2022 10:15:00 AM 22.5 72.5 0.477 7.92 80.84 7.46
8/8/2022 10:30:00 AM 22.55 72.59 0.477 7.92 86.97 7.51
8/8/2022 10:45:00 AM 22.62 72.716 0.478 7.93 83.41 7.59
8/8/2022 11:00:00 AM 22.7 72.86 0.477 7.95 84.46 7.71
8/8/2022 11:15:00 AM 22.77 72.986 0.477 7.95 81.7 7.72
8/8/2022 11:30:00 AM 22.89 73.202 0.477 7.97 99.14 7.92
8/8/2022 11:45:00 AM 23.02 73.436 0.477 7.99 80.34 7.94
8/8/2022 12:00:00 PM 23.17 73.706 0.403 7.99 78.31 8.16
8/8/2022 12:15:00 PM 23.35 74.03 0.477 8.01 6.43 8.26
8/8/2022 12:30:00 PM 23.57 74.426 0.477 8.03 80.99 8.15
8/8/2022 12:45:00 PM 23.82 74.876 0.476 8.05 83.75 8.56
8/8/2022 1:00:00 PM 24.08 75.344 0.476 8.07 85.98 8.63
8/8/2022 1:15:00 PM 24.25 75.65 0.476 8.09 118.29 8.82
8/8/2022 1:30:00 PM 24.45 76.01 0.476 8.1 86.13 8.92
8/8/2022 1:45:00 PM 24.7 76.46 0.476 8.12 83.51 9.03
8/8/2022 2:00:00 PM 24.92 76.856 0.476 8.14 76.77 9.12
8/8/2022 2:15:00 PM 25.11 77.198 0.475 8.16 83.74 9.23
8/8/2022 2:30:00 PM 25.32 77.576 0.475 8.17 80.68 9.22
8/8/2022 2:45:00 PM 25.52 77.936 0.474 8.17 78.69 9.31
8/8/2022 3:00:00 PM 25.69 78.242 0.474 8.2 82.45 9.33
8/8/2022 3:15:00 PM 25.81 78.458 0.474 8.21 81.9 9.41
8/8/2022 3:30:00 PM 25.95 78.71 0.474 8.22 88.06 9.42
8/8/2022 3:45:00 PM 26.06 78.908 0.473 8.22 88.39 9.39
8/8/2022 4:00:00 PM 26.1 78.98 0.474 8.23 89.16 9.3
8/8/2022 4:15:00 PM 26.13 79.034 0.473 8.21 87.81 9.2
8/8/2022 4:30:00 PM 26.13 79.034 0.473 8.19 118.62 9.11
8/8/2022 4:45:00 PM 26.11 78.998 0.474 8.19 100.05 8.99
8/8/2022 5:00:00 PM 26.02 78.836 0.474 8.19 88.32 8.86
8/8/2022 5:15:00 PM 25.9 78.62 0.474 8.17 84 8.71
8/8/2022 5:30:00 PM 25.79 78.422 0.475 8.15 86.4 8.56
8/8/2022 5:45:00 PM 25.66 78.188 0.475 8.13 84.73 8.37
8/8/2022 6:00:00 PM 25.55 77.99 0.475 8.11 87.15 8.2
8/8/2022 6:15:00 PM 25.44 77.792 0.475 8.09 87.51 8.05
8/8/2022 6:30:00 PM 25.36 77.648 0.473 8.07 95.78 7.91
8/8/2022 6:45:00 PM 25.26 77.468 0.476 8.06 84.21 7.8
8/8/2022 7:00:00 PM 25.15 77.27 0.476 8.05 85.22 7.69
8/8/2022 7:15:00 PM 25.06 77.108 0.476 8.05 87 7.59
8/8/2022 7:30:00 PM 24.95 76.91 0.476 8.02 84.29 7.49
8/8/2022 7:45:00 PM 24.85 76.73 0.477 8.01 86.73 7.43
8/8/2022 8:00:00 PM 24.74 76.532 0.477 8 112.63 7.36
8/8/2022 8:15:00 PM 24.64 76.352 0.477 7.99 84.6 7.21
8/8/2022 8:30:00 PM 24.55 76.19 0.477 7.98 84.73 7.18
8/8/2022 8:45:00 PM 24.45 76.01 0.478 7.97 86.89 7.1
8/8/2022 9:00:00 PM 24.36 75.848 0.478 7.96 106.38 7.03
8/8/2022 9:15:00 PM 24.28 75.704 0.478 7.95 86.09 7.01
8/8/2022 9:30:00 PM 24.2 75.56 0.478 7.94 88.15 6.96
8/8/2022 9:45:00 PM 24.13 75.434 0.478 7.94 107.76 6.93
8/8/2022 10:00:00 PM 24.08 75.344 0.478 7.92 94.12 6.87
8/8/2022 10:15:00 PM 24.04 75.272 0.477 7.92 82.33 6.83
8/8/2022 10:30:00 PM 23.98 75.164 0.477 7.92 89.38 6.8
8/8/2022 10:45:00 PM 23.94 75.092 0.477 7.91 86 6.78
8/8/2022 11:00:00 PM 23.91 75.038 0.477 7.91 84.97 6.75
8/8/2022 11:15:00 PM 23.87 74.966 0.477 7.9 83.32 6.77
8/8/2022 11:30:00 PM 23.84 74.912 0.477 7.9 83.12 6.72
8/8/2022 11:45:00 PM 23.8 74.84 0.476 7.9 107.18 6.73
8/9/2022 12:00:00 AM 23.77 74.786 0.476 7.9 93.77 6.69
8/9/2022 12:15:00 AM 23.73 74.714 0.477 7.9 88.4 6.66
8/9/2022 12:30:00 AM 23.71 74.67799 0.477 7.89 88.24 6.65
8/9/2022 12:45:00 AM 23.66 74.588 0.477 7.89 99.36 6.7
8/9/2022 1:00:00 AM 23.63 74.534 0.477 7.89 108.76 6.66
8/9/2022 1:15:00 AM 23.58 74.444 0.477 7.89 87.94 6.68
8/9/2022 1:30:00 AM 23.54 74.372 0.477 7.89 116.81 6.67
8/9/2022 1:45:00 AM 23.5 74.3 0.477 7.88 92.52 6.66
8/9/2022 2:00:00 AM 23.45 74.21 0.477 7.89 85.5 6.66
8/9/2022 2:15:00 AM 23.41 74.138 0.477 7.89 94.38 6.63
8/9/2022 2:30:00 AM 23.38 74.084 0.477 7.89 90.46 6.6
8/9/2022 2:45:00 AM 23.34 74.012 0.477 7.89 85.71 6.63
8/9/2022 3:00:00 AM 23.31 73.958 0.477 7.88 87.78 6.64
8/9/2022 3:15:00 AM 23.27 73.886 0.477 7.89 98.22 6.62
8/9/2022 3:30:00 AM 23.23 73.814 0.478 7.88 90.73 6.68
8/9/2022 3:45:00 AM 23.2 73.76 0.477 7.88 89.43 6.66
8/9/2022 4:00:00 AM 23.17 73.706 0.477 7.88 84.8 6.63
8/9/2022 4:15:00 AM 23.13 73.634 0.478 7.88 85.68 6.65
8/9/2022 4:30:00 AM 23.1 73.58 0.477 7.88 95.39 6.65
8/9/2022 4:45:00 AM 23.07 73.526 0.477 7.88 85.91 6.68
8/9/2022 5:00:00 AM 23.02 73.436 0.478 7.88 85.33 6.66
8/9/2022 5:15:00 AM 23 73.4 0.477 7.87 83.1 6.69
8/9/2022 5:30:00 AM 22.95 73.31 0.477 7.87 83.86 6.66
8/9/2022 5:45:00 AM 22.91 73.238 0.478 7.87 86.23 6.65
8/9/2022 6:00:00 AM 22.86 73.148 0.478 7.88 93.48 6.56
8/9/2022 6:15:00 AM 22.81 73.058 0.478 7.87 91.06 6.66
8/9/2022 6:30:00 AM 22.77 72.986 0.478 7.87 88.13 6.66
8/9/2022 6:45:00 AM 22.72 72.896 0.478 7.88 85.62 6.63
8/9/2022 7:00:00 AM 22.68 72.824 0.479 7.88 92.07 6.57
8/9/2022 7:15:00 AM 22.66 72.788 0.479 7.88 83.51 6.57
8/9/2022 7:30:00 AM 22.62 72.716 0.479 7.87 83.91 6.71
8/9/2022 7:45:00 AM 22.62 72.716 0.479 7.87 83.58 6.73
8/9/2022 8:00:00 AM 22.6 72.68 0.479 7.88 83.81 6.72
8/9/2022 8:15:00 AM 22.61 72.698 0.479 7.88 84.27 6.71
8/9/2022 8:30:00 AM 22.61 72.698 0.479 7.88 98.51 6.71
8/9/2022 8:45:00 AM 22.63 72.734 0.479 7.88 85.95 6.83
8/9/2022 9:00:00 AM 22.66 72.788 0.479 7.89 86.22 6.79
8/9/2022 9:15:00 AM 22.71 72.878 0.48 7.9 98.01 6.78
8/9/2022 9:30:00 AM 22.76 72.968 0.479 7.91 82.41 6.93
8/9/2022 9:45:00 AM 22.81 73.058 0.479 7.91 87.48 7.13
8/9/2022 10:00:00 AM 22.85 73.13 0.479 7.92 82.55 7.12
8/9/2022 10:15:00 AM 22.9 73.22 0.479 7.93 96.84 7.19
8/9/2022 10:30:00 AM 22.97 73.346 0.479 7.94 82.48 7.24
8/9/2022 10:45:00 AM 23.05 73.49 0.479 7.94 89.11 7.4
8/9/2022 11:00:00 AM 23.14 73.652 0.479 7.96 93.17 7.38
8/9/2022 11:15:00 AM 23.25 73.85 0.479 7.96 84.16 7.6
8/9/2022 11:30:00 AM 23.34 74.012 0.479 7.98 87.91 7.72
8/9/2022 11:45:00 AM 23.46 74.228 0.479 7.99 85.67 7.93
8/9/2022 12:00:00 PM 23.64 74.552 0.478 7.99 80.69 8.07
8/9/2022 12:15:00 PM 23.82 74.876 0.478 8.03 83.68 8.28
8/9/2022 12:30:00 PM 23.98 75.164 0.478 8.05 85.09 8.46
8/9/2022 12:45:00 PM 24.14 75.452 0.478 8.07 86 8.54
8/9/2022 1:00:00 PM 24.33 75.794 0.478 8.09 83.99 8.69
8/9/2022 1:15:00 PM 24.56 76.208 0.477 8.11 84.4 8.89
8/9/2022 1:30:00 PM 24.73 76.514 0.477 8.14 91.55 8.98
8/9/2022 1:45:00 PM 24.87 76.766 0.477 8.15 83.44 9.09
8/9/2022 2:00:00 PM 25.08 77.144 0.477 8.17 80.94 9.2
8/9/2022 2:15:00 PM 25.3 77.54 0.476 8.19 100.48 9.34
8/9/2022 2:30:00 PM 25.49 77.882 0.476 8.2 95.88 9.37
8/9/2022 2:45:00 PM 25.71 78.278 0.476 8.22 84.19 9.43
8/9/2022 3:00:00 PM 25.79 78.422 0.475 8.23 84.21 9.5
8/9/2022 3:15:00 PM 25.64 78.152 0.476 8.21 106.66 9.27
8/9/2022 3:30:00 PM 25.5 77.9 0.47 8.19 110.3 8.95
8/9/2022 3:45:00 PM 25.36 77.648 0.452 8.19 106.14 8.69
8/9/2022 4:00:00 PM 25.04 77.07201 0.397 8.19 161.24 8.25
8/9/2022 4:15:00 PM 25.02 77.036 0.418 8.16 147.64 8.26
8/9/2022 4:30:00 PM 24.89 76.802 0.415 8.12 119.42 8.01
8/9/2022 4:45:00 PM 24.78 76.604 0.414 8.11 116.84 7.86
8/9/2022 5:00:00 PM 24.76 76.568 0.415 8.1 142.41 7.82
8/9/2022 5:15:00 PM 24.67 76.406 0.417 8.08 138.6 7.8
8/9/2022 5:30:00 PM 24.58 76.244 0.419 8.06 125.62 7.67
8/9/2022 5:45:00 PM 24.51 76.118 0.421 8.04 113.8 7.57
8/9/2022 6:00:00 PM 24.46 76.028 0.426 8.01 123.23 7.46
8/9/2022 6:15:00 PM 24.43 75.974 0.43 8 115.41 7.39
8/9/2022 6:30:00 PM 24.41 75.938 0.429 7.99 112.97 7.36
8/9/2022 6:45:00 PM 24.38 75.884 0.426 7.97 117.71 7.3
8/9/2022 7:00:00 PM 24.33 75.794 0.427 7.95 113.7 7.22
8/9/2022 7:15:00 PM 24.29 75.722 0.431 7.94 98.54 7.19
8/9/2022 7:30:00 PM 24.22 75.596 0.437 7.93 92.06 7.14
8/9/2022 7:45:00 PM 24.18 75.524 0.44 7.91 97.34 7.06
8/9/2022 8:00:00 PM 24.14 75.452 0.442 7.91 140.65 6.96
8/9/2022 8:15:00 PM 24.13 75.434 0.442 7.9 128.97 6.92
8/9/2022 8:30:00 PM 24.12 75.416 0.442 7.89 106.68 6.81
8/9/2022 8:45:00 PM 24.11 75.398 0.442 7.72 106.95 6.71
8/9/2022 9:00:00 PM 24.1 75.38 0.441 7.88 107.18 6.66
8/9/2022 9:15:00 PM 24.07 75.326 0.439 7.87 102.42 6.63
8/9/2022 9:30:00 PM 24.04 75.272 0.439 7.86 102.72 6.56
8/9/2022 9:45:00 PM 24 75.2 0.438 7.86 95.32 6.5
8/9/2022 10:00:00 PM 23.96 75.128 0.438 7.84 153.2 6.39
8/9/2022 10:15:00 PM 23.93 75.074 0.265 7.84 107.26 6.37
8/9/2022 10:30:00 PM 23.89 75.002 0.438 7.83 114.26 6.36
8/9/2022 10:45:00 PM 23.85 74.93 0.437 7.82 105.82 6.33
8/9/2022 11:00:00 PM 23.8 74.84 0.437 7.82 96.11 6.28
8/9/2022 11:15:00 PM 23.76 74.768 0.437 7.81 158.44 6.11
8/9/2022 11:30:00 PM 23.73 74.714 0.438 7.8 113.63 6.21
8/9/2022 11:45:00 PM 23.68 74.624 0.438 7.8 129.46 6.1
8/10/2022 12:00:00 AM 23.64 74.552 0.438 7.79 99.98 6.18
8/10/2022 12:15:00 AM 23.59 74.462 0.439 7.8 100.19 6.14
8/10/2022 12:30:00 AM 23.55 74.39 0.441 7.8 113.68 6.1
8/10/2022 12:45:00 AM 23.52 74.336 0.441 7.79 93.77 6.15
8/10/2022 1:00:00 AM 23.47 74.246 0.443 7.79 97.84 6.1
8/10/2022 1:15:00 AM 23.41 74.138 0.444 7.79 104.04 6.16
8/10/2022 1:30:00 AM 23.36 74.048 0.446 7.8 101.23 6.15
8/10/2022 1:45:00 AM 23.31 73.958 0.447 7.79 141.73 6.15
8/10/2022 2:00:00 AM 23.26 73.868 0.448 7.79 100.18 6.18
8/10/2022 2:15:00 AM 23.23 73.814 0.449 7.79 95.01 6.23
8/10/2022 2:30:00 AM 23.16 73.688 0.45 7.79 117.07 6.22
8/10/2022 2:45:00 AM 23.1 73.58 0.452 7.79 103.58 6.18
8/10/2022 3:00:00 AM 23.04 73.472 0.452 7.79 95.4 6.13
8/10/2022 3:15:00 AM 22.99 73.382 0.454 7.79 108.57 6.21
8/10/2022 3:30:00 AM 22.95 73.31 0.454 7.79 101.75 6.27
8/10/2022 3:45:00 AM 22.9 73.22 0.455 7.79 94.45 6.34
8/10/2022 4:00:00 AM 22.85 73.13 0.455 7.79 94.91 6.34
8/10/2022 4:15:00 AM 22.79 73.022 0.456 7.79 92.78 6.36
8/10/2022 4:30:00 AM 22.73 72.914 0.457 7.79 121.51 6.32
8/10/2022 4:45:00 AM 22.69 72.842 0.456 7.79 97.28 6.38
8/10/2022 5:00:00 AM 22.65 72.77 0.457 7.79 98.16 6.4
8/10/2022 5:15:00 AM 22.59 72.662 0.299 7.8 106.69 6.3
8/10/2022 5:30:00 AM 22.55 72.59 0.457 7.8 93.42 6.42
8/10/2022 5:45:00 AM 22.5 72.5 0.457 7.79 99.52 6.42
8/10/2022 6:00:00 AM 22.45 72.41 0.458 7.8 100.75 6.49
8/10/2022 6:15:00 AM 22.41 72.338 0.458 7.79 96.97 6.45
8/10/2022 6:30:00 AM 22.36 72.248 0.458 7.8 125.23 6.48
8/10/2022 6:45:00 AM 22.32 72.176 0.459 7.8 112.02 6.49
8/10/2022 7:00:00 AM 22.29 72.122 0.459 7.8 97.16 6.46
8/10/2022 7:15:00 AM 22.27 72.086 0.458 7.79 101.23 6.47
8/10/2022 7:30:00 AM 22.23 72.014 0.46 7.8 146.69 6.52
8/10/2022 7:45:00 AM 22.2 71.96 0.461 7.8 101.77 6.54
8/10/2022 8:00:00 AM 22.18 71.924 0.461 7.81 118.91 6.62
8/10/2022 8:15:00 AM 22.15 71.87 0.462 7.81 104.05 6.55
8/10/2022 8:30:00 AM 22.16 71.888 0.462 7.82 102.47 6.64
8/10/2022 8:45:00 AM 22.16 71.888 0.462 7.82 112.8 6.67
8/10/2022 9:00:00 AM 22.18 71.924 0.463 7.83 95.49 6.83
8/10/2022 9:15:00 AM 22.21 71.978 0.463 7.84 94.75 6.82
8/10/2022 9:30:00 AM 22.25 72.05 0.463 7.84 99.09 6.8
8/10/2022 9:45:00 AM 22.3 72.14 0.464 7.85 100.83 7
8/10/2022 10:00:00 AM 22.33 72.194 0.464 7.85 95 7.05
8/10/2022 10:15:00 AM 22.37 72.266 0.464 7.87 100.55 7.17
8/10/2022 10:30:00 AM 22.43 72.374 0.464 7.89 86.84 7.22
8/10/2022 10:45:00 AM 22.5 72.5 0.464 7.9 88.55 7.43
8/10/2022 11:00:00 AM 22.56 72.608 0.464 7.9 96.33 7.53
8/10/2022 11:15:00 AM 22.63 72.734 0.464 7.92 93.53 7.63
8/10/2022 11:30:00 AM 22.72 72.896 0.463 7.95 92.08 7.85
8/10/2022 11:45:00 AM 22.83 73.094 0.463 7.96 88.86 8.11
8/10/2022 12:00:00 PM 22.92 73.256 0.463 7.97 110.62 8.17
8/10/2022 12:15:00 PM 23 73.4 0.463 7.99 90.63 8.21
8/10/2022 12:30:00 PM 23.06 73.508 0.463 8.01 93.97 8.36
8/10/2022 12:45:00 PM 23.15 73.67 0.463 8.02 91.9 8.6
8/10/2022 1:00:00 PM 23.21 73.778 0.462 8.04 90.78 8.66
8/10/2022 1:15:00 PM 23.32 73.976 0.463 8.06 109.71 8.83
8/10/2022 1:30:00 PM 23.38 74.084 0.463 8.07 111.27 8.75
8/10/2022 1:45:00 PM 23.49 74.282 0.462 8.09 93.05 9
8/10/2022 2:00:00 PM 23.57 74.426 0.462 8.11 116.28 8.97
8/10/2022 2:15:00 PM 23.77 74.786 0.462 8.12 95.25 9.12
8/10/2022 2:30:00 PM 23.89 75.002 0.462 8.14 114.68 9.13
8/10/2022 2:45:00 PM 24.1 75.38 0.462 8.16 93.12 9.22
8/10/2022 3:00:00 PM 24.34 75.812 0.462 8.16 102.61 9.3
8/10/2022 3:15:00 PM 24.51 76.118 0.462 8.18 92.89 9.29
8/10/2022 3:30:00 PM 24.53 76.154 0.462 8.17 98.27 9.29
8/10/2022 3:45:00 PM 24.63 76.334 0.462 8.17 99.74 9.32
8/10/2022 4:00:00 PM 24.54 76.172 0.462 8.17 98.1 9.23
8/10/2022 4:15:00 PM 24.57 76.226 0.463 8.15 99.79 8.95
8/10/2022 4:30:00 PM 24.55 76.19 0.463 8.16 102.52 9
8/10/2022 4:45:00 PM 24.54 76.172 0.464 8.15 96.33 8.89
8/10/2022 5:00:00 PM 24.47 76.046 0.464 8.14 98.49 8.83
8/10/2022 5:15:00 PM 24.34 75.812 0.465 8.12 102.1 8.66
8/10/2022 5:30:00 PM 24.23 75.614 0.465 8.1 117.22 8.5
8/10/2022 5:45:00 PM 24.16 75.488 0.466 8.09 128.13 8.34
8/10/2022 6:00:00 PM 24.1 75.38 0.466 8.07 115.72 8.21
8/10/2022 6:15:00 PM 24.04 75.272 0.467 8.06 106 8.17
8/10/2022 6:30:00 PM 23.99 75.182 0.467 8.03 95.91 8.09
8/10/2022 6:45:00 PM 23.93 75.074 0.467 8.04 93.66 8.01
8/10/2022 7:00:00 PM 23.86 74.948 0.467 8.03 94.57 7.87
8/10/2022 7:15:00 PM 23.79 74.82201 0.468 8.01 93.95 7.77
8/10/2022 7:30:00 PM 23.71 74.67799 0.468 8 95.01 7.63
8/10/2022 7:45:00 PM 23.63 74.534 0.468 7.99 96.8 7.53
8/10/2022 8:00:00 PM 23.55 74.39 0.468 7.97 97.36 7.46
8/10/2022 8:15:00 PM 23.47 74.246 0.469 7.96 91.59 7.39
8/10/2022 8:30:00 PM 23.4 74.12 0.469 7.95 97.9 7.35
8/10/2022 8:45:00 PM 23.33 73.994 0.469 7.95 93.78 7.27
8/10/2022 9:00:00 PM 23.26 73.868 0.469 7.93 94.37 7.2
8/10/2022 9:15:00 PM 23.2 73.76 0.47 7.93 97.68 7.11
8/10/2022 9:30:00 PM 23.14 73.652 0.469 7.92 120.58 7.08
8/10/2022 9:45:00 PM 23.1 73.58 0.47 7.92 128.71 7.04
8/10/2022 10:00:00 PM 23.06 73.508 0.47 7.91 165.44 6.93
8/10/2022 10:15:00 PM 23.01 73.418 0.47 7.9 102.65 6.79
8/10/2022 10:30:00 PM 22.99 73.382 0.47 7.89 138.83 6.91
8/10/2022 10:45:00 PM 22.96 73.328 0.47 7.89 119.3 6.91
8/10/2022 11:00:00 PM 22.93 73.274 0.47 7.88 153.27 6.86
8/10/2022 11:15:00 PM 22.9 73.22 0.471 7.87 109.59 6.83
8/10/2022 11:30:00 PM 22.88 73.184 0.471 7.88 99.37 6.84
8/10/2022 11:45:00 PM 22.86 73.148 0.471 7.86 115.91 6.82
8/11/2022 12:00:00 AM 22.84 73.112 0.471 7.88 111.23 6.82
8/11/2022 12:15:00 AM 22.82 73.076 0.471 7.86 108.87 6.8
8/11/2022 12:30:00 AM 22.8 73.04 0.472 7.87 99.93 6.76
8/11/2022 12:45:00 AM 22.78 73.004 0.472 7.86 102.18 6.72
8/11/2022 1:00:00 AM 22.76 72.968 0.472 7.87 102.11 6.74
8/11/2022 1:15:00 AM 22.74 72.932 0.472 7.87 110.99 6.7
8/11/2022 1:30:00 AM 22.71 72.878 0.472 7.87 100.23 6.75
8/11/2022 1:45:00 AM 22.69 72.842 0.472 7.86 92.11 6.72
8/11/2022 2:00:00 AM 22.66 72.788 0.471 7.87 111.13 6.75
8/11/2022 2:15:00 AM 22.64 72.752 0.471 7.86 120.02 6.71
8/11/2022 2:30:00 AM 22.61 72.698 0.471 7.86 189.04 6.71
8/11/2022 2:45:00 AM 22.59 72.662 0.472 7.86 193.06 6.69
8/11/2022 3:00:00 AM 22.55 72.59 0.472 7.87 144.13 6.65
8/11/2022 3:15:00 AM 22.52 72.536 0.472 7.86 145.23 6.65
8/11/2022 3:30:00 AM 22.49 72.482 0.472 7.85 123.97 6.67
8/11/2022 3:45:00 AM 22.45 72.41 0.473 7.85 184.44 6.68
8/11/2022 4:00:00 AM 22.42 72.356 0.472 7.86 157.71 6.6
8/11/2022 4:15:00 AM 22.38 72.284 0.473 7.85 150.13 6.62
8/11/2022 4:30:00 AM 22.34 72.212 0.473 7.85 151.39 6.64
8/11/2022 4:45:00 AM 22.31 72.158 0.473 7.85 150.66 6.62
8/11/2022 5:00:00 AM 22.27 72.086 0.474 7.85 183.69 6.59
8/11/2022 5:15:00 AM 22.23 72.014 0.474 7.85 96.38 6.47
8/11/2022 5:30:00 AM 22.19 71.942 0.475 7.85 105.31 6.63
8/11/2022 5:45:00 AM 22.15 71.87 0.475 7.85 165.65 6.65
8/11/2022 6:00:00 AM 22.11 71.798 0.475 7.85 101.3 6.61
8/11/2022 6:15:00 AM 22.07 71.726 0.475 7.85 133.94 6.61
8/11/2022 6:30:00 AM 22.02 71.636 0.475 7.86 172.7 6.6
8/11/2022 6:45:00 AM 21.98 71.564 0.476 7.85 114.76 6.66
8/11/2022 7:00:00 AM 21.94 71.492 0.476 7.85 121.48 6.64
8/11/2022 7:15:00 AM 21.89 71.402 0.476 7.86 155.25 6.67
8/11/2022 7:30:00 AM 21.87 71.366 0.476 7.85 135.23 6.68
8/11/2022 7:45:00 AM 21.83 71.294 0.476 7.85 105.08 6.74
8/11/2022 8:00:00 AM 21.79 71.222 0.476 7.87 118.95 6.76
8/11/2022 8:15:00 AM 21.76 71.168 0.476 7.87 173.13 6.82
8/11/2022 8:30:00 AM 21.75 71.15 0.476 7.86 137.7 6.86
8/11/2022 8:45:00 AM 21.75 71.15 0.476 7.87 97.67 6.85
8/11/2022 9:00:00 AM 21.76 71.168 0.476 7.87 134.93 6.96
8/11/2022 9:15:00 AM 21.79 71.222 0.476 7.87 125.1 7.09
8/11/2022 9:30:00 AM 21.81 71.258 0.476 7.89 115.59 7.1
8/11/2022 9:45:00 AM 21.83 71.294 0.476 7.89 100.21 7.16
8/11/2022 10:00:00 AM 21.88 71.384 0.476 7.91 110.35 7.35
8/11/2022 10:15:00 AM 21.89 71.402 0.476 7.93 93.38 7.46
8/11/2022 10:30:00 AM 21.91 71.438 0.476 7.94 117.07 7.53
8/11/2022 10:45:00 AM 21.93 71.474 0.476 7.93 108.96 7.67
8/11/2022 11:00:00 AM 21.98 71.564 0.476 7.97 111.59 7.72
8/11/2022 11:15:00 AM 22.04 71.672 0.476 7.96 110.32 7.77
8/11/2022 11:30:00 AM 22.11 71.798 0.476 7.98 132.87 7.86
8/11/2022 11:45:00 AM 22.21 71.978 0.476 8.02 106.82 7.98
8/11/2022 12:00:00 PM 22.35 72.23 0.477 8.03 108.98 8.13
8/11/2022 12:15:00 PM 22.53 72.554 0.477 8.04 96.67 8.23
8/11/2022 12:30:00 PM 22.74 72.932 0.477 8.06 150.21 8.21
8/11/2022 12:45:00 PM 22.97 73.346 0.477 8.05 92.98 8.43
8/11/2022 1:00:00 PM 23.18 73.724 0.477 8.08 102.34 8.57
8/11/2022 1:15:00 PM 23.35 74.03 0.477 8.09 92.82 8.62
8/11/2022 1:30:00 PM 23.54 74.372 0.476 8.12 105.01 8.78
8/11/2022 1:45:00 PM 23.74 74.732 0.477 8.12 116.56 8.92
8/11/2022 2:00:00 PM 23.93 75.074 0.477 8.13 90.99 8.94
8/11/2022 2:15:00 PM 24.08 75.344 0.477 8.15 122.73 9.02
8/11/2022 2:30:00 PM 24.24 75.632 0.477 8.17 92.42 9.1
8/11/2022 2:45:00 PM 24.41 75.938 0.477 8.16 118.16 9.17
8/11/2022 3:00:00 PM 24.55 76.19 0.477 8.17 140.59 9.11
8/11/2022 3:15:00 PM 24.68 76.424 0.477 8.2 112.79 9.05
8/11/2022 3:30:00 PM 24.76 76.568 0.477 8.19 106.96 9.13
8/11/2022 3:45:00 PM 24.85 76.73 0.477 8.19 98.85 9.2
8/11/2022 4:00:00 PM 24.86 76.748 0.477 8.21 107.79 8.97
8/11/2022 4:15:00 PM 24.85 76.73 0.477 8.2 113.51 9.2
8/11/2022 4:30:00 PM 24.89 76.802 0.477 8.19 99.12 9.12
8/11/2022 4:45:00 PM 24.86 76.748 0.477 8.18 111.31 9.08
8/11/2022 5:00:00 PM 24.69 76.442 0.478 8.18 105.72 8.95
8/11/2022 5:15:00 PM 24.6 76.28 0.477 8.14 138.13 8.89
8/11/2022 5:30:00 PM 24.46 76.028 0.478 8.14 129.07 8.73
8/11/2022 5:45:00 PM 24.37 75.866 0.478 8.13 132.4 8.54
8/11/2022 6:00:00 PM 24.24 75.632 0.478 8.11 122.99 8.35
8/11/2022 6:15:00 PM 24.15 75.47 0.479 8.1 106.29 8.24
8/11/2022 6:30:00 PM 24.04 75.272 0.479 8.07 104.52 8
8/11/2022 6:45:00 PM 23.95 75.11 0.479 8.05 121.16 7.94
8/11/2022 7:00:00 PM 23.85 74.93 0.479 8.05 162.08 7.87
8/11/2022 7:15:00 PM 23.74 74.732 0.479 8.02 141.47 7.81
8/11/2022 7:30:00 PM 23.63 74.534 0.479 8.02 107.41 7.73
8/11/2022 7:45:00 PM 23.53 74.354 0.479 8.01 135.5 7.66
8/11/2022 8:00:00 PM 23.42 74.156 0.48 8 125.27 7.51
8/11/2022 8:15:00 PM 23.31 73.958 0.48 7.97 113.48 7.45
8/11/2022 8:30:00 PM 23.21 73.778 0.48 7.96 109.82 7.4
8/11/2022 8:45:00 PM 23.13 73.634 0.48 7.97 141.58 7.34
8/11/2022 9:00:00 PM 23.06 73.508 0.48 7.96 145.41 7.25
8/11/2022 9:15:00 PM 22.98 73.364 0.48 7.93 110.24 7.21
8/11/2022 9:30:00 PM 22.91 73.238 0.48 7.94 115.86 7.15
8/11/2022 9:45:00 PM 22.85 73.13 0.48 7.94 138.95 7.11
8/11/2022 10:00:00 PM 22.78 73.004 0.48 7.91 125.75 7.07
8/11/2022 10:15:00 PM 22.73 72.914 0.48 7.93 122.35 7.04
8/11/2022 10:30:00 PM 22.68 72.824 0.48 7.92 123.07 7.01
8/11/2022 10:45:00 PM 22.63 72.734 0.48 7.91 213.96 6.94
8/11/2022 11:00:00 PM 22.59 72.662 0.48 7.91 210.03 6.93
8/11/2022 11:15:00 PM 22.55 72.59 0.48 7.89 189.91 6.91
8/11/2022 11:30:00 PM 22.51 72.518 0.48 7.9 146.8 6.88
8/11/2022 11:45:00 PM 22.47 72.446 0.48 7.9 191.92 6.88
8/12/2022 12:00:00 AM 22.43 72.374 0.48 7.9 198.24 6.88
8/12/2022 12:15:00 AM 22.39 72.302 0.48 7.89 152.29 6.87
8/12/2022 12:30:00 AM 22.34 72.212 0.48 7.87 128.1 6.85
8/12/2022 12:45:00 AM 22.28 72.104 0.481 7.9 107.16 6.82
8/12/2022 1:00:00 AM 22.22 71.996 0.481 7.9 116.64 6.84
8/12/2022 1:15:00 AM 22.15 71.87 0.481 7.88 101.42 6.84
8/12/2022 1:30:00 AM 22.09 71.762 0.481 7.88 99.81 6.85
8/12/2022 1:45:00 AM 22.04 71.672 0.481 7.88 102.71 6.85
8/12/2022 2:00:00 AM 21.96 71.528 0.482 7.89 107.72 6.84
8/12/2022 2:15:00 AM 21.9 71.42 0.481 7.89 91.81 6.84
8/12/2022 2:30:00 AM 21.83 71.294 0.482 7.87 108.66 6.87
8/12/2022 2:45:00 AM 21.75 71.15 0.482 7.87 130.55 6.86
8/12/2022 3:00:00 AM 21.67 71.006 0.482 7.89 102.23 6.9
8/12/2022 3:15:00 AM 21.59 70.862 0.481 7.89 121.59 6.92
8/12/2022 3:30:00 AM 21.51 70.718 0.482 7.89 200.63 6.93
8/12/2022 3:45:00 AM 21.45 70.61 0.481 7.87 121.48 6.97
8/12/2022 4:00:00 AM 21.36 70.448 0.482 7.87 253.6 6.94
8/12/2022 4:15:00 AM 21.29 70.32201 0.482 7.88 172.99 6.96
8/12/2022 4:30:00 AM 21.22 70.196 0.481 7.89 133.44 6.97
8/12/2022 4:45:00 AM 21.15 70.07 0.482 7.88 196.54 6.93
8/12/2022 5:00:00 AM 21.06 69.908 0.481 7.89 101.22 6.95
8/12/2022 5:15:00 AM 20.99 69.782 0.474 7.88 94.93 6.97
8/12/2022 5:30:00 AM 20.91 69.638 0.482 7.88 98.77 6.97
8/12/2022 5:45:00 AM 20.83 69.494 0.482 7.86 134.14 6.99
8/12/2022 6:00:00 AM 20.76 69.368 0.482 7.88 103.38 7
8/12/2022 6:15:00 AM 20.68 69.224 0.482 7.88 98.84 6.97
8/12/2022 6:30:00 AM 20.6 69.08 0.482 7.88 115.1 6.94
8/12/2022 6:45:00 AM 20.53 68.954 0.483 7.88 118.7 7
8/12/2022 7:00:00 AM 20.47 68.846 0.482 7.88 108.7 7.01
8/12/2022 7:15:00 AM 20.41 68.738 0.483 7.86 107.13 7.01
8/12/2022 7:30:00 AM 20.35 68.63 0.483 7.86 113.5 7.08
8/12/2022 7:45:00 AM 20.31 68.558 0.483 7.89 100.06 7.09
8/12/2022 8:00:00 AM 20.27 68.486 0.484 7.89 138.97 7.12
8/12/2022 8:15:00 AM 20.24 68.432 0.483 7.89 130.23 7.14
8/12/2022 8:30:00 AM 20.22 68.396 0.484 7.9 106.28 7.24
8/12/2022 8:45:00 AM 20.21 68.378 0.484 7.9 98.18 7.29
8/12/2022 9:00:00 AM 20.21 68.378 0.484 7.88 94.47 7.28
8/12/2022 9:15:00 AM 20.25 68.45 0.484 7.89 93.52 7.36
8/12/2022 9:30:00 AM 20.28 68.504 0.484 7.92 101.71 7.43
8/12/2022 9:45:00 AM 20.32 68.576 0.484 7.92 127.68 7.58
8/12/2022 10:00:00 AM 20.35 68.63 0.484 7.93 89.68 7.6
8/12/2022 10:15:00 AM 20.39 68.702 0.484 7.94 108.75 7.67
8/12/2022 10:30:00 AM 20.42 68.756 0.484 7.94 112.21 7.71
8/12/2022 10:45:00 AM 20.47 68.846 0.484 7.95 138.39 7.91
8/12/2022 11:00:00 AM 20.53 68.954 0.484 7.96 124.95 7.97
8/12/2022 11:15:00 AM 20.58 69.044 0.484 7.95 100.49 7.99
8/12/2022 11:30:00 AM 20.66 69.188 0.484 7.97 117.94 8.1
8/12/2022 11:45:00 AM 20.77 69.386 0.484 7.99 151.05 8.19
8/12/2022 12:00:00 PM 20.92 69.656 0.484 8 121.91 8.44
8/12/2022 12:15:00 PM 21.1 69.98 0.484 8.02 96.31 8.64
8/12/2022 12:30:00 PM 21.31 70.358 0.484 8.04 87.64 8.8
8/12/2022 12:45:00 PM 21.53 70.754 0.484 8.05 90.57 8.96
8/12/2022 1:00:00 PM 21.7 71.06 0.484 8.06 131.26 9.08
8/12/2022 1:15:00 PM 21.82 71.276 0.483 8.09 100.44 9.11
8/12/2022 1:30:00 PM 21.99 71.582 0.483 8.1 106 9.33
8/12/2022 1:45:00 PM 22.21 71.978 0.483 8.12 111.87 9.45
8/12/2022 2:00:00 PM 22.43 72.374 0.483 8.14 92.41 9.54
8/12/2022 2:15:00 PM 22.59 72.662 0.483 8.15 135.74 9.58
8/12/2022 2:30:00 PM 22.72 72.896 0.482 8.18 119.74 9.55
8/12/2022 2:45:00 PM 22.87 73.166 0.482 8.16 192.85 9.63
8/12/2022 3:00:00 PM 23 73.4 0.482 8.18 123.9 9.62
8/12/2022 3:15:00 PM 23.09 73.562 0.482 8.17 107.13 9.61
8/12/2022 3:30:00 PM 23.17 73.706 0.482 8.19 95.4 9.64
8/12/2022 3:45:00 PM 23.22 73.796 0.482 8.19 94.26 9.61
8/12/2022 4:00:00 PM 23.31 73.958 0.482 8.18 127.06 9.59
8/12/2022 4:15:00 PM 23.34 74.012 0.482 8.19 98.29 9.55
8/12/2022 4:30:00 PM 23.35 74.03 0.482 8.19 109.78 9.46
8/12/2022 4:45:00 PM 23.3 73.94 0.483 8.18 266.72 9.43
8/12/2022 5:00:00 PM 23.19 73.742 0.483 8.15 192.43 9.24
8/12/2022 5:15:00 PM 23.03 73.454 0.484 8.13 128.87 9.06
8/12/2022 5:30:00 PM 22.9 73.22 0.484 8.13 104.85 8.87
8/12/2022 5:45:00 PM 22.75 72.95 0.485 8.12 122.74 8.73
8/12/2022 6:00:00 PM 22.61 72.698 0.485 8.08 112.32 8.55
8/12/2022 6:15:00 PM 22.51 72.518 0.485 8.08 106.23 8.48
8/12/2022 6:30:00 PM 22.41 72.338 0.485 8.07 97.88 8.36
8/12/2022 6:45:00 PM 22.32 72.176 0.485 8.07 107.08 8.23
8/12/2022 7:00:00 PM 22.19 71.942 0.486 8.06 103.84 8.16
8/12/2022 7:15:00 PM 22.09 71.762 0.486 8.04 92.49 8.11
8/12/2022 7:30:00 PM 21.97 71.546 0.486 8.03 103.37 8.02
8/12/2022 7:45:00 PM 21.86 71.348 0.487 8 103.64 7.98
8/12/2022 8:00:00 PM 21.73 71.114 0.487 7.99 96.48 7.87
8/12/2022 8:15:00 PM 21.58 70.844 0.487 8 97.49 7.79
8/12/2022 8:30:00 PM 21.44 70.592 0.488 7.99 91.16 7.71
8/12/2022 8:45:00 PM 21.29 70.32201 0.488 7.95 97.51 7.63
8/12/2022 9:00:00 PM 21.13 70.034 0.488 7.94 91.58 7.62
8/12/2022 9:15:00 PM 20.98 69.764 0.488 7.93 99.9 7.59
8/12/2022 9:30:00 PM 20.84 69.512 0.489 7.93 110.64 7.52
8/12/2022 9:45:00 PM 20.7 69.26 0.489 7.94 123.74 7.51
8/12/2022 10:00:00 PM 20.57 69.026 0.489 7.94 87.87 7.45
8/12/2022 10:15:00 PM 20.44 68.792 0.489 7.91 90 7.48
8/12/2022 10:30:00 PM 20.33 68.594 0.49 7.92 103.28 7.45
8/12/2022 10:45:00 PM 20.22 68.396 0.49 7.92 105.4 7.44
8/12/2022 11:00:00 PM 20.12 68.216 0.49 7.92 89.5 7.41
8/12/2022 11:15:00 PM 20.03 68.054 0.49 7.9 92.66 7.41
8/12/2022 11:30:00 PM 19.94 67.892 0.49 7.91 108.78 7.42
8/12/2022 11:45:00 PM 19.85 67.73 0.49 7.9 86.93 7.42
8/13/2022 12:00:00 AM 19.76 67.568 0.491 7.89 88.28 7.4
8/13/2022 12:15:00 AM 19.68 67.424 0.49 7.91 94.53 7.42
8/13/2022 12:30:00 AM 19.59 67.262 0.49 7.91 108.38 7.39
8/13/2022 12:45:00 AM 19.51 67.118 0.49 7.88 91.8 7.39
8/13/2022 1:00:00 AM 19.42 66.956 0.49 7.88 92.4 7.43
8/13/2022 1:15:00 AM 19.33 66.794 0.49 7.91 85.51 7.42
8/13/2022 1:30:00 AM 19.25 66.65 0.491 7.91 107.09 7.46
8/13/2022 1:45:00 AM 19.17 66.506 0.491 7.91 95.45 7.43
8/13/2022 2:00:00 AM 19.1 66.38 0.491 7.88 98.84 7.45
8/13/2022 2:15:00 AM 19.02 66.236 0.491 7.91 129.36 7.46
8/13/2022 2:30:00 AM 18.94 66.092 0.491 7.91 90.49 7.48
8/13/2022 2:45:00 AM 18.85 65.93 0.492 7.88 95.18 7.48
8/13/2022 3:00:00 AM 18.77 65.786 0.492 7.88 105.92 7.5
8/13/2022 3:15:00 AM 18.68 65.624 0.492 7.91 91.81 7.48
8/13/2022 3:30:00 AM 18.59 65.462 0.492 7.9 89.3 7.51
8/13/2022 3:45:00 AM 18.51 65.318 0.492 7.91 84.48 7.54
8/13/2022 4:00:00 AM 18.42 65.156 0.492 7.89 98.24 7.53
8/13/2022 4:15:00 AM 18.34 65.012 0.492 7.9 84.39 7.57
8/13/2022 4:30:00 AM 18.25 64.85 0.493 7.9 89.2 7.59
8/13/2022 4:45:00 AM 18.17 64.706 0.493 7.91 79.18 7.59
8/13/2022 5:00:00 AM 18.09 64.562 0.493 7.9 80.61 7.6
8/13/2022 5:15:00 AM 18.01 64.418 0.493 7.91 78.78 7.61
8/13/2022 5:30:00 AM 17.93 64.274 0.493 7.88 85.84 7.63
8/13/2022 5:45:00 AM 17.86 64.148 0.493 7.91 105.37 7.64
8/13/2022 6:00:00 AM 17.79 64.022 0.493 7.9 82.24 7.65
8/13/2022 6:15:00 AM 17.71 63.878 0.493 7.91 85.2 7.67
8/13/2022 6:30:00 AM 17.64 63.752 0.493 7.91 76.76 7.7
8/13/2022 6:45:00 AM 17.57 63.626 0.493 7.91 79.01 7.71
8/13/2022 7:00:00 AM 17.5 63.5 0.493 7.91 77.31 7.71
8/13/2022 7:15:00 AM 17.45 63.41 0.493 7.89 78.79 7.72
8/13/2022 7:30:00 AM 17.42 63.356 0.493 7.9 75.62 7.77
8/13/2022 7:45:00 AM 17.39 63.302 0.493 7.89 75.38 7.8
8/13/2022 8:00:00 AM 17.39 63.302 0.493 7.9 76.56 7.84
8/13/2022 8:15:00 AM 17.4 63.32 0.492 7.91 81.57 7.88
8/13/2022 8:30:00 AM 17.43 63.374 0.493 7.92 78.19 7.9
8/13/2022 8:45:00 AM 17.47 63.446 0.493 7.91 78.66 7.95
8/13/2022 9:00:00 AM 17.52 63.536 0.493 7.93 86.29 8.04
8/13/2022 9:15:00 AM 17.59 63.662 0.493 7.92 91.95 8.07
8/13/2022 9:30:00 AM 17.67 63.806 0.493 7.94 83.06 8.12
8/13/2022 9:45:00 AM 17.75 63.95 0.492 7.92 82.35 8.17
8/13/2022 10:00:00 AM 17.82 64.076 0.493 7.93 84.89 8.19
8/13/2022 10:15:00 AM 17.9 64.22 0.493 7.96 84.56 8.33
8/13/2022 10:30:00 AM 17.97 64.346 0.493 7.95 84.46 8.34
8/13/2022 10:45:00 AM 18.06 64.508 0.493 7.97 82.41 8.38
8/13/2022 11:00:00 AM 18.14 64.652 0.493 7.98 75.67 8.5
8/13/2022 11:15:00 AM 18.25 64.85 0.493 7.98 76.87 8.51
8/13/2022 11:30:00 AM 18.36 65.048 0.492 7.98 79.44 8.6
8/13/2022 11:45:00 AM 18.51 65.318 0.492 7.98 79.94 8.74
8/13/2022 12:00:00 PM 18.67 65.606 0.492 8.02 82.88 8.82
8/13/2022 12:15:00 PM 18.89 66.002 0.492 8.01 80.37 8.97
8/13/2022 12:30:00 PM 19.12 66.416 0.492 8.03 82.62 9.12
8/13/2022 12:45:00 PM 19.39 66.902 0.492 8.04 84.36 9.19
8/13/2022 1:00:00 PM 19.65 67.37 0.492 8.07 82.28 9.33
8/13/2022 1:15:00 PM 19.91 67.838 0.491 8.1 80.68 9.49
8/13/2022 1:30:00 PM 20.15 68.27 0.491 8.08 87.7 9.59
8/13/2022 1:45:00 PM 20.41 68.738 0.491 8.1 85.37 9.69
8/13/2022 2:00:00 PM 20.64 69.152 0.49 8.13 90.85 9.82
8/13/2022 2:15:00 PM 20.85 69.53 0.49 8.13 90.73 9.83
8/13/2022 2:30:00 PM 21.05 69.89 0.49 8.15 81.41 9.97
8/13/2022 2:45:00 PM 21.26 70.268 0.489 8.19 79.89 10
8/13/2022 3:00:00 PM 21.45 70.61 0.489 8.19 81.05 10.02
8/13/2022 3:15:00 PM 21.63 70.934 0.489 8.18 83.26 10.03
8/13/2022 3:30:00 PM 21.74 71.132 0.489 8.19 82.33 10.05
8/13/2022 3:45:00 PM 21.84 71.312 0.489 8.2 84.54 9.98
8/13/2022 4:00:00 PM 21.91 71.438 0.489 8.19 83.83 10.01
8/13/2022 4:15:00 PM 21.94 71.492 0.488 8.2 80.08 9.94
8/13/2022 4:30:00 PM 21.94 71.492 0.488 8.2 81.83 9.84
8/13/2022 4:45:00 PM 21.91 71.438 0.489 8.19 102.23 9.8
8/13/2022 5:00:00 PM 21.81 71.258 0.488 8.19 69.3 9.73
8/13/2022 5:15:00 PM 21.71 71.078 0.489 8.18 86.45 9.56
8/13/2022 5:30:00 PM 21.57 70.826 0.489 8.17 82.22 9.34
8/13/2022 5:45:00 PM 21.44 70.592 0.49 8.15 121.91 9.17
8/13/2022 6:00:00 PM 21.32 70.376 0.49 8.13 92.15 9.1
8/13/2022 6:15:00 PM 21.22 70.196 0.49 8.11 95.99 8.93
8/13/2022 6:30:00 PM 21.13 70.034 0.49 8.07 113.89 8.86
8/13/2022 6:45:00 PM 21.04 69.872 0.49 8.06 92.85 8.75
8/13/2022 7:00:00 PM 20.93 69.674 0.491 8.04 90.57 8.65
8/13/2022 7:15:00 PM 20.82 69.476 0.49 8.07 82.3 8.56
8/13/2022 7:30:00 PM 20.7 69.26 0.491 8.03 86.09 8.46
8/13/2022 7:45:00 PM 20.58 69.044 0.491 8.03 94.78 8.38
8/13/2022 8:00:00 PM 20.45 68.81 0.491 8.03 89.03 8.3
8/13/2022 8:15:00 PM 20.31 68.558 0.491 8 86.91 8.21
8/13/2022 8:30:00 PM 20.17 68.306 0.491 7.99 98.58 8.14
8/13/2022 8:45:00 PM 20.03 68.054 0.492 7.98 91.36 8.06
8/13/2022 9:00:00 PM 19.89 67.802 0.492 7.99 101.29 7.99
8/13/2022 9:15:00 PM 19.75 67.55 0.491 7.94 83.06 7.94
8/13/2022 9:30:00 PM 19.62 67.316 0.492 7.95 91.98 7.89
8/13/2022 9:45:00 PM 19.5 67.1 0.492 7.97 104.34 7.85
8/13/2022 10:00:00 PM 19.38 66.884 0.492 7.96 116.81 7.83
8/13/2022 10:15:00 PM 19.27 66.686 0.492 7.94 98.23 7.79
8/13/2022 10:30:00 PM 19.18 66.524 0.491 7.93 110.45 7.74
8/13/2022 10:45:00 PM 19.1 66.38 0.492 7.93 102.04 7.76
8/13/2022 11:00:00 PM 19.02 66.236 0.491 7.94 88.9 7.73
8/13/2022 11:15:00 PM 18.95 66.11 0.491 7.94 92.49 7.71
8/13/2022 11:30:00 PM 18.9 66.02 0.491 7.93 101.79 7.67
8/13/2022 11:45:00 PM 18.84 65.912 0.491 7.91 95.71 7.7
8/14/2022 12:00:00 AM 18.79 65.82201 0.492 7.91 97.29 7.68
8/14/2022 12:15:00 AM 18.75 65.75 0.492 7.92 101.7 7.65
8/14/2022 12:30:00 AM 18.7 65.66 0.492 7.9 116.26 7.65
8/14/2022 12:45:00 AM 18.66 65.588 0.492 7.91 98.12 7.64
8/14/2022 1:00:00 AM 18.62 65.516 0.492 7.92 94.99 7.65
8/14/2022 1:15:00 AM 18.58 65.444 0.492 7.91 92.8 7.59
8/14/2022 1:30:00 AM 18.55 65.39 0.492 7.92 86.49 7.64
8/14/2022 1:45:00 AM 18.51 65.318 0.492 7.91 89.24 7.62
8/14/2022 2:00:00 AM 18.47 65.246 0.493 7.91 135.05 7.67
8/14/2022 2:15:00 AM 18.43 65.174 0.493 7.91 87.45 7.62
8/14/2022 2:30:00 AM 18.38 65.084 0.493 7.91 90.78 7.64
8/14/2022 2:45:00 AM 18.34 65.012 0.493 7.9 88.46 7.64
8/14/2022 3:00:00 AM 18.3 64.94 0.493 7.89 92.96 7.62
8/14/2022 3:15:00 AM 18.26 64.868 0.493 7.91 107.02 7.65
8/14/2022 3:30:00 AM 18.22 64.796 0.494 7.88 84.44 7.67
8/14/2022 3:45:00 AM 18.18 64.724 0.494 7.91 105.13 7.67
8/14/2022 4:00:00 AM 18.14 64.652 0.494 7.9 103.23 7.64
8/14/2022 4:15:00 AM 18.08 64.544 0.494 7.9 98.35 7.63
8/14/2022 4:30:00 AM 0 32 0 0 0 0
8/14/2022 4:45:00 AM 18.01 64.418 0.494 7.9 93 7.67
8/14/2022 5:00:00 AM 17.96 64.328 0.495 7.9 138.6 7.65
8/14/2022 5:15:00 AM 17.93 64.274 0.495 7.89 91.67 7.69
8/14/2022 5:30:00 AM 17.88 64.184 0.495 7.9 92.41 7.67
8/14/2022 5:45:00 AM 17.84 64.112 0.495 7.89 98.63 7.69
8/14/2022 6:00:00 AM 17.79 64.022 0.496 7.88 123.67 7.69
8/14/2022 6:15:00 AM 17.75 63.95 0.496 7.89 93.35 7.69
8/14/2022 6:30:00 AM 17.7 63.86 0.496 7.89 99.06 7.66
8/14/2022 6:45:00 AM 17.65 63.77 0.496 7.89 85.82 7.74
8/14/2022 7:00:00 AM 17.61 63.698 0.497 7.89 89.63 7.75
8/14/2022 7:15:00 AM 17.57 63.626 0.496 7.88 92.36 7.77
8/14/2022 7:30:00 AM 17.54 63.572 0.497 7.89 110.07 7.72
8/14/2022 7:45:00 AM 17.51 63.518 0.496 7.88 122.97 7.76
8/14/2022 8:00:00 AM 17.5 63.5 0.497 7.9 88.68 7.74
8/14/2022 8:15:00 AM 17.51 63.518 0.496 7.89 122.56 7.82
8/14/2022 8:30:00 AM 17.53 63.554 0.497 7.88 85.75 7.87
8/14/2022 8:45:00 AM 17.57 63.626 0.496 7.92 83.5 7.92
8/14/2022 9:00:00 AM 17.62 63.716 0.497 7.91 83.95 7.98
8/14/2022 9:15:00 AM 17.69 63.842 0.496 7.91 90.4 8.08
8/14/2022 9:30:00 AM 17.77 63.986 0.496 7.91 83.98 8.12
8/14/2022 9:45:00 AM 17.85 64.13 0.497 7.93 91.6 8.22
8/14/2022 10:00:00 AM 17.93 64.274 0.496 7.93 88.93 8.25
8/14/2022 10:15:00 AM 18 64.4 0.496 7.94 84.69 8.29
8/14/2022 10:30:00 AM 18.07 64.526 0.496 7.95 103.35 8.29
8/14/2022 10:45:00 AM 18.17 64.706 0.496 7.95 82.75 8.49
8/14/2022 11:00:00 AM 18.26 64.868 0.496 7.96 81.15 8.49
8/14/2022 11:15:00 AM 18.37 65.066 0.496 7.97 81.74 8.52
8/14/2022 11:30:00 AM 18.5 65.3 0.496 7.97 82.09 8.75
8/14/2022 11:45:00 AM 18.64 65.552 0.495 8 100.85 8.77
8/14/2022 12:00:00 PM 18.82 65.876 0.495 8.02 80.46 8.95
8/14/2022 12:15:00 PM 19.02 66.236 0.495 8.02 102.93 9.03
8/14/2022 12:30:00 PM 19.26 66.668 0.495 8.05 97.31 9.23
8/14/2022 12:45:00 PM 19.53 67.154 0.495 8.06 86.95 9.23
8/14/2022 1:00:00 PM 19.82 67.676 0.494 8.08 84.1 9.37
8/14/2022 1:15:00 PM 20.08 68.144 0.494 8.1 100.3 9.49
8/14/2022 1:30:00 PM 20.33 68.594 0.494 8.11 89.12 9.75
8/14/2022 1:45:00 PM 20.58 69.044 0.493 8.13 85.53 9.85
8/14/2022 2:00:00 PM 20.81 69.458 0.493 8.15 84.01 9.91
8/14/2022 2:15:00 PM 21.02 69.836 0.492 8.16 85.52 10.1
8/14/2022 2:30:00 PM 21.23 70.214 0.492 8.18 84.46 10.08
8/14/2022 2:45:00 PM 21.43 70.574 0.492 8.19 85.36 10.2
8/14/2022 3:00:00 PM 21.64 70.952 0.492 8.2 85.3 10.28
8/14/2022 3:15:00 PM 21.82 71.276 0.491 8.21 95.12 10.32
8/14/2022 3:30:00 PM 21.95 71.51 0.491 8.22 82.96 10.3
8/14/2022 3:45:00 PM 22.01 71.618 0.491 8.23 81.08 10.28
8/14/2022 4:00:00 PM 22.09 71.762 0.491 8.23 85.03 10.18
8/14/2022 4:15:00 PM 22.09 71.762 0.491 8.23 84.49 10.16
8/14/2022 4:30:00 PM 22.05 71.69 0.49 8.22 85.27 10.12
8/14/2022 4:45:00 PM 21.9 71.42 0.491 8.22 87.03 10.01
8/14/2022 5:00:00 PM 21.88 71.384 0.491 8.22 156.59 10
8/14/2022 5:15:00 PM 21.74 71.132 0.491 8.21 101.69 9.88
8/14/2022 5:30:00 PM 21.65 70.97 0.491 8.2 90 9.78
8/14/2022 5:45:00 PM 21.56 70.808 0.492 8.19 89.02 9.68
8/14/2022 6:00:00 PM 21.5 70.7 0.492 8.18 90.46 9.57
8/14/2022 6:15:00 PM 21.39 70.502 0.492 8.17 96.13 9.41
8/14/2022 6:30:00 PM 21.29 70.32201 0.493 8.15 94.01 9.27
8/14/2022 6:45:00 PM 21.21 70.17799 0.493 8.13 89.96 9.16
8/14/2022 7:00:00 PM 21.11 69.998 0.493 8.12 90.34 9
8/14/2022 7:15:00 PM 21.01 69.818 0.494 8.1 86.32 8.85
8/14/2022 7:30:00 PM 20.9 69.62 0.494 8.09 119.12 8.78
8/14/2022 7:45:00 PM 20.8 69.44 0.494 8.07 94.8 8.65
8/14/2022 8:00:00 PM 20.68 69.224 0.494 8.06 97.61 8.49
8/14/2022 8:15:00 PM 20.55 68.99 0.495 8.05 87.54 8.44
8/14/2022 8:30:00 PM 20.43 68.774 0.495 8.04 94.81 8.33
8/14/2022 8:45:00 PM 20.3 68.54 0.495 8.02 107.11 8.24
8/14/2022 9:00:00 PM 20.18 68.324 0.495 8.01 109.59 8.16
8/14/2022 9:15:00 PM 20.08 68.144 0.495 8 93.22 8.06
8/14/2022 9:30:00 PM 19.98 67.964 0.495 7.99 95.05 8
8/14/2022 9:45:00 PM 19.87 67.766 0.495 7.98 104.71 7.96
8/14/2022 10:00:00 PM 19.79 67.622 0.496 7.97 97.45 7.91
8/14/2022 10:15:00 PM 19.72 67.496 0.495 7.96 109.76 7.87
8/14/2022 10:30:00 PM 19.66 67.388 0.495 7.95 98.45 7.81
8/14/2022 10:45:00 PM 19.59 67.262 0.495 7.95 106.33 7.77
8/14/2022 11:00:00 PM 19.54 67.172 0.495 7.95 89.04 7.74
8/14/2022 11:15:00 PM 19.49 67.082 0.495 7.94 98.01 7.71
8/14/2022 11:30:00 PM 19.44 66.992 0.495 7.92 97.38 7.62
8/14/2022 11:45:00 PM 19.41 66.938 0.495 7.94 91.77 7.67
8/15/2022 12:00:00 AM 19.37 66.866 0.494 7.93 94.39 7.64
8/15/2022 12:15:00 AM 19.34 66.812 0.495 7.92 97.52 7.61
8/15/2022 12:30:00 AM 19.31 66.758 0.494 7.92 102.32 7.56
8/15/2022 12:45:00 AM 19.28 66.704 0.494 7.92 93.68 7.59
8/15/2022 1:00:00 AM 19.26 66.668 0.494 7.92 88.54 7.59
8/15/2022 1:15:00 AM 19.24 66.632 0.494 7.91 83.19 7.57
8/15/2022 1:30:00 AM 19.21 66.578 0.494 7.92 85.45 7.56
8/15/2022 1:45:00 AM 19.19 66.542 0.494 7.92 86.24 7.55
8/15/2022 2:00:00 AM 19.16 66.488 0.494 7.89 91.36 7.56
8/15/2022 2:15:00 AM 19.14 66.452 0.494 7.9 84.19 7.58
8/15/2022 2:30:00 AM 19.11 66.398 0.494 7.91 92.23 7.57
8/15/2022 2:45:00 AM 19.09 66.362 0.494 7.91 86.44 7.57
8/15/2022 3:00:00 AM 19.08 66.344 0.494 7.91 89.85 7.57
8/15/2022 3:15:00 AM 19.06 66.308 0.494 7.91 86.44 7.57
8/15/2022 3:30:00 AM 19.04 66.272 0.494 7.9 95.49 7.57
8/15/2022 3:45:00 AM 19.02 66.236 0.494 7.92 107.54 7.56
8/15/2022 4:00:00 AM 19 66.2 0.494 7.92 110.66 7.54
8/15/2022 4:15:00 AM 18.98 66.164 0.494 7.92 105.65 7.56
8/15/2022 4:30:00 AM 18.96 66.128 0.493 7.92 118.16 7.55
8/15/2022 4:45:00 AM 18.95 66.11 0.493 7.91 102.36 7.53
8/15/2022 5:00:00 AM 18.92 66.056 0.494 7.91 112.63 7.54
8/15/2022 5:15:00 AM 18.9 66.02 0.493 7.89 87.26 7.53
8/15/2022 5:30:00 AM 18.88 65.984 0.494 7.91 99.55 7.55
8/15/2022 5:45:00 AM 18.86 65.948 0.494 7.91 99.66 7.53
8/15/2022 6:00:00 AM 18.84 65.912 0.494 7.89 92.54 7.54
8/15/2022 6:15:00 AM 18.82 65.876 0.494 7.9 91.93 7.53
8/15/2022 6:30:00 AM 18.8 65.84 0.494 7.9 87.47 7.53
8/15/2022 6:45:00 AM 18.78 65.804 0.494 7.9 85.28 7.54
8/15/2022 7:00:00 AM 18.76 65.768 0.493 7.9 101.61 7.54
8/15/2022 7:15:00 AM 18.75 65.75 0.492 7.89 101.95 7.55
8/15/2022 7:30:00 AM 18.74 65.732 0.493 7.87 149.84 7.49
8/15/2022 7:45:00 AM 18.73 65.714 0.492 7.89 103.44 7.52
8/15/2022 8:00:00 AM 18.72 65.696 0.492 7.88 92 7.52
8/15/2022 8:15:00 AM 18.72 65.696 0.492 7.89 95.49 7.52
8/15/2022 8:30:00 AM 18.73 65.714 0.492 7.88 98.36 7.61
8/15/2022 8:45:00 AM 18.75 65.75 0.491 7.89 96.21 7.67
8/15/2022 9:00:00 AM 18.76 65.768 0.491 7.91 100.17 7.75
8/15/2022 9:15:00 AM 18.76 65.768 0.491 7.89 92.88 7.77
8/15/2022 9:30:00 AM 18.78 65.804 0.491 7.9 87.05 7.88
8/15/2022 9:45:00 AM 18.81 65.858 0.491 7.93 103.43 7.93
8/15/2022 10:00:00 AM 18.85 65.93 0.491 7.93 93.67 8.19
8/15/2022 10:15:00 AM 18.92 66.056 0.491 7.96 100.51 8.38
8/15/2022 10:30:00 AM 18.99 66.182 0.491 7.97 90.14 8.59
8/15/2022 10:45:00 AM 19.07 66.326 0.491 7.99 85.94 8.82
8/15/2022 11:00:00 AM 19.13 66.434 0.491 8.01 85.21 8.97
8/15/2022 11:15:00 AM 19.2 66.56 0.491 8.03 94.72 9.13
8/15/2022 11:30:00 AM 19.27 66.686 0.49 8.05 87.63 9.18
8/15/2022 11:45:00 AM 19.35 66.83 0.49 8.06 83.85 9.5
8/15/2022 12:00:00 PM 19.4 66.92 0.49 8.09 87.41 9.6
8/15/2022 12:15:00 PM 19.44 66.992 0.49 8.1 90.87 9.69
8/15/2022 12:30:00 PM 19.51 67.118 0.489 8.12 86.98 9.87
8/15/2022 12:45:00 PM 19.59 67.262 0.489 8.1 89.77 10.03
8/15/2022 1:00:00 PM 19.65 67.37 0.489 8.12 82.61 10.04
8/15/2022 1:15:00 PM 19.71 67.478 0.488 8.15 82.32 10.18
8/15/2022 1:30:00 PM 19.75 67.55 0.488 8.17 83.09 10.32
8/15/2022 1:45:00 PM 19.81 67.658 0.488 8.18 84.98 10.37
8/15/2022 2:00:00 PM 19.91 67.838 0.488 8.2 82.96 10.54
8/15/2022 2:15:00 PM 19.96 67.92799 0.487 8.21 85.29 10.61
8/15/2022 2:30:00 PM 20.04 68.07201 0.487 8.22 82.28 10.41
8/15/2022 2:45:00 PM 20.11 68.198 0.486 8.21 81.22 10.72
8/15/2022 3:00:00 PM 20.18 68.324 0.486 8.25 83.08 10.83
8/15/2022 3:15:00 PM 20.22 68.396 0.486 8.25 82.91 10.83
8/15/2022 3:30:00 PM 20.27 68.486 0.485 8.24 84.16 10.89
8/15/2022 3:45:00 PM 20.38 68.684 0.485 8.27 85.61 10.98
8/15/2022 4:00:00 PM 20.45 68.81 0.485 8.25 91.03 10.85
8/15/2022 4:15:00 PM 20.46 68.828 0.484 8.27 87.23 10.88
8/15/2022 4:30:00 PM 20.52 68.936 0.484 8.27 85.45 10.93
8/15/2022 4:45:00 PM 20.47 68.846 0.484 8.26 88.53 10.65
8/15/2022 5:00:00 PM 20.42 68.756 0.484 8.24 97.9 10.43
8/15/2022 5:15:00 PM 20.42 68.756 0.485 8.23 101.1 10.37
8/15/2022 5:30:00 PM 20.41 68.738 0.485 8.23 90.57 10.3
8/15/2022 5:45:00 PM 20.4 68.72 0.485 8.19 91.96 10.19
8/15/2022 6:00:00 PM 20.38 68.684 0.485 8.2 87.83 10.1
8/15/2022 6:15:00 PM 20.34 68.612 0.485 8.19 84.55 9.93
8/15/2022 6:30:00 PM 20.3 68.54 0.486 8.17 92.16 9.75
8/15/2022 6:45:00 PM 20.26 68.468 0.486 8.15 88.64 9.61
8/15/2022 7:00:00 PM 20.21 68.378 0.486 8.13 88.21 9.42
8/15/2022 7:15:00 PM 20.16 68.288 0.486 8.12 84.66 9.27
8/15/2022 7:30:00 PM 20.11 68.198 0.487 8.1 95.74 9.13
8/15/2022 7:45:00 PM 20.06 68.108 0.487 8.07 89.49 8.98
8/15/2022 8:00:00 PM 20.02 68.036 0.487 8.07 87.43 8.82
8/15/2022 8:15:00 PM 19.97 67.946 0.488 8.05 110.65 8.69
8/15/2022 8:30:00 PM 19.91 67.838 0.488 8.04 105.28 8.56
8/15/2022 8:45:00 PM 19.85 67.73 0.489 8.02 129.84 8.45
8/15/2022 9:00:00 PM 19.79 67.622 0.489 8.01 131.41 8.34
8/15/2022 9:15:00 PM 19.73 67.514 0.489 7.97 108.86 8.23
8/15/2022 9:30:00 PM 19.68 67.424 0.489 7.97 104.41 8.14
8/15/2022 9:45:00 PM 19.62 67.316 0.488 7.98 102.11 8.07
8/15/2022 10:00:00 PM 19.57 67.226 0.489 7.97 90.85 8.01
8/15/2022 10:15:00 PM 19.51 67.118 0.489 7.95 94.7 7.96
8/15/2022 10:30:00 PM 19.46 67.028 0.49 7.96 95.94 7.9
8/15/2022 10:45:00 PM 19.41 66.938 0.489 7.96 100.3 7.85
8/15/2022 11:00:00 PM 19.37 66.866 0.489 7.94 83.88 7.82
8/15/2022 11:15:00 PM 19.33 66.794 0.49 7.92 84.58 7.79
8/15/2022 11:30:00 PM 19.29 66.722 0.455 7.94 87.53 7.76
8/15/2022 11:45:00 PM 19.25 66.65 0.489 7.94 88.57 7.73
8/16/2022 12:00:00 AM 19.22 66.596 0.489 7.92 90.12 7.69
8/16/2022 12:15:00 AM 19.18 66.524 0.489 7.93 82.16 7.7
8/16/2022 12:30:00 AM 19.15 66.47 0.489 7.93 81.63 7.68
8/16/2022 12:45:00 AM 19.12 66.416 0.489 7.93 81.66 7.65
8/16/2022 1:00:00 AM 19.08 66.344 0.489 7.92 81.34 7.67
8/16/2022 1:15:00 AM 19.05 66.29 0.489 7.92 80.87 7.65
8/16/2022 1:30:00 AM 19.01 66.218 0.489 7.92 84.74 7.65
8/16/2022 1:45:00 AM 18.98 66.164 0.489 7.91 78.92 7.63
8/16/2022 2:00:00 AM 18.94 66.092 0.489 7.92 80 7.63
8/16/2022 2:15:00 AM 18.9 66.02 0.489 7.91 78.45 7.63
8/16/2022 2:30:00 AM 18.86 65.948 0.489 7.91 79.17 7.61
8/16/2022 2:45:00 AM 18.82 65.876 0.489 7.9 78.4 7.62
8/16/2022 3:00:00 AM 18.78 65.804 0.489 7.91 81.58 7.61
8/16/2022 3:15:00 AM 18.73 65.714 0.489 7.91 85.16 7.6
8/16/2022 3:30:00 AM 18.69 65.642 0.489 7.9 81.45 7.61
8/16/2022 3:45:00 AM 18.65 65.57 0.489 7.92 81.45 7.61
8/16/2022 4:00:00 AM 18.61 65.498 0.488 7.91 76.66 7.61
8/16/2022 4:15:00 AM 18.56 65.408 0.489 7.91 88.74 7.61
8/16/2022 4:30:00 AM 18.52 65.336 0.489 7.9 85.81 7.61
8/16/2022 4:45:00 AM 18.48 65.264 0.489 7.91 84.78 7.62
8/16/2022 5:00:00 AM 18.44 65.192 0.489 7.9 85.66 7.63
8/16/2022 5:15:00 AM 18.4 65.12 0.489 7.9 97.71 7.61
8/16/2022 5:30:00 AM 18.36 65.048 0.489 7.9 83.05 7.63
8/16/2022 5:45:00 AM 18.33 64.994 0.489 7.9 97.52 7.63
8/16/2022 6:00:00 AM 18.3 64.94 0.489 7.9 80.45 7.63
8/16/2022 6:15:00 AM 18.27 64.886 0.489 7.9 99.19 7.63
8/16/2022 6:30:00 AM 18.24 64.832 0.489 7.9 82.2 7.63
8/16/2022 6:45:00 AM 18.22 64.796 0.489 7.9 79.94 7.64
8/16/2022 7:00:00 AM 18.21 64.778 0.489 7.9 81.6 7.64
8/16/2022 7:15:00 AM 18.2 64.76 0.489 7.9 85.27 7.68
8/16/2022 7:30:00 AM 18.2 64.76 0.489 7.88 81.59 7.73
8/16/2022 7:45:00 AM 18.21 64.778 0.489 7.91 82.38 7.78
8/16/2022 8:00:00 AM 18.23 64.814 0.489 7.9 87.98 7.85
8/16/2022 8:15:00 AM 18.25 64.85 0.489 7.92 100.09 7.92
8/16/2022 8:30:00 AM 18.27 64.886 0.489 7.92 83.23 7.97
8/16/2022 8:45:00 AM 18.32 64.976 0.489 7.92 81.48 8.07
8/16/2022 9:00:00 AM 18.37 65.066 0.489 7.94 91.03 8.16
8/16/2022 9:15:00 AM 18.44 65.192 0.488 7.95 83.85 8.31
8/16/2022 9:30:00 AM 18.52 65.336 0.488 7.95 81.79 8.43
8/16/2022 9:45:00 AM 18.61 65.498 0.488 7.98 80.86 8.59
8/16/2022 10:00:00 AM 18.68 65.624 0.488 8 80.93 8.68
8/16/2022 10:15:00 AM 18.74 65.732 0.488 8 80.52 8.83
8/16/2022 10:30:00 AM 18.82 65.876 0.487 8.01 87.29 8.96
8/16/2022 10:45:00 AM 18.9 66.02 0.488 8.03 79.85 9.09
8/16/2022 11:00:00 AM 18.95 66.11 0.487 8.04 80.04 9.18
8/16/2022 11:15:00 AM 19.05 66.29 0.487 8.06 84.93 9.35
8/16/2022 11:30:00 AM 19.1 66.38 0.486 8.08 82.33 9.42
8/16/2022 11:45:00 AM 19.2 66.56 0.486 8.09 78.35 9.55
8/16/2022 12:00:00 PM 19.34 66.812 0.485 8.12 79.01 9.75
8/16/2022 12:15:00 PM 19.52 67.136 0.485 8.13 77.15 9.86
8/16/2022 12:30:00 PM 19.69 67.442 0.484 8.15 79.28 9.91
8/16/2022 12:45:00 PM 19.88 67.784 0.484 8.16 81.62 10.14
8/16/2022 1:00:00 PM 20.08 68.144 0.484 8.19 81.55 10.29
8/16/2022 1:15:00 PM 20.28 68.504 0.483 8.19 82.72 10.42
8/16/2022 1:30:00 PM 20.45 68.81 0.483 8.2 80.95 10.47
8/16/2022 1:45:00 PM 20.6 69.08 0.482 8.22 84.68 10.49
8/16/2022 2:00:00 PM 20.8 69.44 0.481 8.24 84.25 10.58
8/16/2022 2:15:00 PM 21.02 69.836 0.481 8.25 85.06 10.67
8/16/2022 2:30:00 PM 21.1 69.98 0.481 8.25 80.83 10.6
8/16/2022 2:45:00 PM 21.34 70.412 0.48 8.28 84.95 10.68
8/16/2022 3:00:00 PM 21.49 70.682 0.48 8.28 79.91 10.67
8/16/2022 3:15:00 PM 21.6 70.88 0.48 8.27 81.23 10.65
8/16/2022 3:30:00 PM 21.68 71.024 0.48 8.27 82.4 10.61
8/16/2022 3:45:00 PM 21.73 71.114 0.481 8.27 81.86 10.57
8/16/2022 4:00:00 PM 21.79 71.222 0.481 8.27 82.77 10.5
8/16/2022 4:15:00 PM 21.78 71.204 0.481 8.27 83.42 10.43
8/16/2022 4:30:00 PM 21.79 71.222 0.481 8.26 82.21 10.33
8/16/2022 4:45:00 PM 21.76 71.168 0.481 8.26 78.99 10.22
8/16/2022 5:00:00 PM 21.69 71.042 0.481 8.25 82.65 10.09
8/16/2022 5:15:00 PM 21.61 70.898 0.481 8.24 81.26 9.94
8/16/2022 5:30:00 PM 21.49 70.682 0.481 8.22 83.33 9.74
8/16/2022 5:45:00 PM 21.36 70.448 0.482 8.21 80.49 9.57
8/16/2022 6:00:00 PM 21.25 70.25 0.483 8.18 82.5 9.37
8/16/2022 6:15:00 PM 21.18 70.124 0.483 8.15 133.61 9.22
8/16/2022 6:30:00 PM 21.1 69.98 0.483 8.14 83.12 9.08
8/16/2022 6:45:00 PM 21.01 69.818 0.484 8.13 82.62 8.96
8/16/2022 7:00:00 PM 20.92 69.656 0.484 8.12 82.49 8.85
8/16/2022 7:15:00 PM 20.82 69.476 0.485 8.1 78.87 8.68
8/16/2022 7:30:00 PM 20.72 69.296 0.485 8.08 82 8.6
8/16/2022 7:45:00 PM 20.62 69.116 0.485 8.08 85.96 8.5
8/16/2022 8:00:00 PM 20.51 68.918 0.486 8.06 82.31 8.39
8/16/2022 8:15:00 PM 20.41 68.738 0.486 8.04 91.89 8.29
8/16/2022 8:30:00 PM 20.3 68.54 0.487 8.03 109.67 8.2
8/16/2022 8:45:00 PM 20.19 68.342 0.487 8.02 80.07 8.12
8/16/2022 9:00:00 PM 20.08 68.144 0.487 8 88.21 8.04
8/16/2022 9:15:00 PM 19.97 67.946 0.488 8 85.89 7.97
8/16/2022 9:30:00 PM 19.87 67.766 0.488 7.99 90.81 7.91
8/16/2022 9:45:00 PM 19.76 67.568 0.488 7.95 84.22 7.86
8/16/2022 10:00:00 PM 19.65 67.37 0.488 7.97 81.42 7.81
8/16/2022 10:15:00 PM 19.54 67.172 0.488 7.97 86.29 7.76
8/16/2022 10:30:00 PM 19.44 66.992 0.488 7.95 83 7.75
8/16/2022 10:45:00 PM 19.35 66.83 0.489 7.95 82.56 7.72
8/16/2022 11:00:00 PM 19.27 66.686 0.488 7.95 79.47 7.69
8/16/2022 11:15:00 PM 19.19 66.542 0.488 7.94 77.04 7.68
8/16/2022 11:30:00 PM 19.11 66.398 0.488 7.93 84.95 7.66
8/16/2022 11:45:00 PM 19.04 66.272 0.489 7.93 86.96 7.67
8/17/2022 12:00:00 AM 18.97 66.146 0.488 7.93 81.11 7.63
8/17/2022 12:15:00 AM 18.91 66.038 0.485 7.92 91.48 7.64
8/17/2022 12:30:00 AM 18.85 65.93 0.488 7.93 106.59 7.62
8/17/2022 12:45:00 AM 18.8 65.84 0.488 7.92 88.28 7.62
8/17/2022 1:00:00 AM 18.75 65.75 0.488 7.92 88.61 7.62
8/17/2022 1:15:00 AM 18.71 65.67799 0.488 7.91 112.82 7.62
8/17/2022 1:30:00 AM 18.66 65.588 0.488 7.92 101.07 7.61
8/17/2022 1:45:00 AM 18.62 65.516 0.488 7.92 115.61 7.61
8/17/2022 2:00:00 AM 18.59 65.462 0.488 7.9 87.03 7.61
8/17/2022 2:15:00 AM 18.56 65.408 0.488 7.91 93.26 7.61
8/17/2022 2:30:00 AM 18.53 65.354 0.488 7.91 105.27 7.59
8/17/2022 2:45:00 AM 18.49 65.282 0.488 7.92 91.43 7.61
8/17/2022 3:00:00 AM 18.45 65.21 0.488 7.91 92.24 7.61
8/17/2022 3:15:00 AM 18.41 65.138 0.489 7.9 105.5 7.61
8/17/2022 3:30:00 AM 18.36 65.048 0.489 7.9 84.67 7.6
8/17/2022 3:45:00 AM 18.31 64.958 0.489 7.91 108.14 7.62
8/17/2022 4:00:00 AM 18.27 64.886 0.489 7.9 92.29 7.62
8/17/2022 4:15:00 AM 18.22 64.796 0.49 7.9 90.26 7.6
8/17/2022 4:30:00 AM 18.17 64.706 0.49 7.91 91.65 7.62
8/17/2022 4:45:00 AM 18.11 64.598 0.49 7.9 90.39 7.62
8/17/2022 5:00:00 AM 18.06 64.508 0.49 7.9 102.64 7.62
8/17/2022 5:15:00 AM 18.01 64.418 0.491 7.89 94.85 7.62
8/17/2022 5:30:00 AM 17.95 64.31 0.491 7.89 90.44 7.64
8/17/2022 5:45:00 AM 17.9 64.22 0.491 7.9 83.3 7.62
8/17/2022 6:00:00 AM 17.85 64.13 0.491 7.9 112.71 7.65
8/17/2022 6:15:00 AM 17.8 64.04 0.491 7.9 118.26 7.66
8/17/2022 6:30:00 AM 17.76 63.968 0.491 7.9 106.05 7.67
8/17/2022 6:45:00 AM 17.73 63.914 0.492 7.89 91.24 7.68
8/17/2022 7:00:00 AM 17.69 63.842 0.492 7.9 109.69 7.71
8/17/2022 7:15:00 AM 17.67 63.806 0.492 7.88 139.06 7.73
8/17/2022 7:30:00 AM 17.65 63.77 0.492 7.89 84.27 7.76
8/17/2022 7:45:00 AM 17.65 63.77 0.492 7.89 117.17 7.79
8/17/2022 8:00:00 AM 17.66 63.788 0.492 7.9 96.93 7.85
8/17/2022 8:15:00 AM 17.68 63.824 0.492 7.91 81.72 7.92
8/17/2022 8:30:00 AM 17.72 63.896 0.492 7.9 84.78 8.01
8/17/2022 8:45:00 AM 17.76 63.968 0.492 7.93 96.83 8.12
8/17/2022 9:00:00 AM 17.82 64.076 0.492 7.94 89.73 8.24
8/17/2022 9:15:00 AM 17.88 64.184 0.492 7.93 80.98 8.37
8/17/2022 9:30:00 AM 17.94 64.292 0.492 7.95 71.67 8.5
8/17/2022 9:45:00 AM 18.04 64.472 0.492 7.96 78.95 8.7
8/17/2022 10:00:00 AM 18.14 64.652 0.492 8 108.41 8.9
8/17/2022 10:15:00 AM 18.19 64.742 0.492 8 77.93 9.02
8/17/2022 10:30:00 AM 18.27 64.886 0.491 8.02 83.68 9.23
8/17/2022 10:45:00 AM 18.36 65.048 0.491 8.04 83.48 9.43
8/17/2022 11:00:00 AM 18.45 65.21 0.491 8.06 79.41 9.63
8/17/2022 11:15:00 AM 18.54 65.372 0.491 8.09 78.6 9.83
8/17/2022 11:30:00 AM 18.61 65.498 0.49 8.09 79.98 9.99
8/17/2022 11:45:00 AM 18.69 65.642 0.489 8.13 81.5 10.15
8/17/2022 12:00:00 PM 18.76 65.768 0.489 8.15 77.02 10.24
8/17/2022 12:15:00 PM 18.81 65.858 0.489 8.15 81.03 10.33
8/17/2022 12:30:00 PM 18.93 66.074 0.488 8.17 79.09 10.59
8/17/2022 12:45:00 PM 19.07 66.326 0.487 8.2 81.29 10.81
8/17/2022 1:00:00 PM 19.13 66.434 0.487 8.22 77.82 10.9
8/17/2022 1:15:00 PM 19.18 66.524 0.487 8.21 92.42 10.95
8/17/2022 1:30:00 PM 19.24 66.632 0.486 8.25 85.25 10.95
8/17/2022 1:45:00 PM 19.32 66.776 0.486 8.24 76.75 11
8/17/2022 2:00:00 PM 19.5 67.1 0.486 8.25 90.88 10.99
8/17/2022 2:15:00 PM 19.73 67.514 0.485 8.25 81.76 11.05
8/17/2022 2:30:00 PM 19.91 67.838 0.485 8.24 83.04 11.1
8/17/2022 2:45:00 PM 20.04 68.07201 0.484 8.28 82.42 11.14
8/17/2022 3:00:00 PM 16.47 61.646 0.403 8.28 181.65 10.24
8/17/2022 3:15:00 PM 16.88 62.384 0.396 8.18 170.5 10.18
8/17/2022 3:30:00 PM 17.15 62.87 0.405 8.17 119.12 10.04
8/17/2022 3:45:00 PM 17.05 62.69 0.404 8.18 109 9.87
8/17/2022 4:00:00 PM 16.97 62.546 0.402 8.11 128.55 9.67
8/17/2022 4:15:00 PM 16.89 62.402 0.403 7.92 107.28 9.43
8/17/2022 4:30:00 PM 16.81 62.258 0.405 8.08 106.5 9.21
8/17/2022 4:45:00 PM 16.73 62.114 0.405 8.05 106.85 9.06
8/17/2022 5:00:00 PM 16.7 62.06 0.407 7.89 102.38 8.96
8/17/2022 5:15:00 PM 16.76 62.168 0.41 8 108.16 8.89
8/17/2022 5:30:00 PM 16.75 62.15 0.406 7.97 104.22 8.82
8/17/2022 5:45:00 PM 16.67 62.006 0.4 7.97 101.49 8.74
8/17/2022 6:00:00 PM 16.62 61.916 0.398 7.94 101.97 8.69
8/17/2022 6:15:00 PM 16.67 62.006 0.397 7.9 108.17 8.55
8/17/2022 6:30:00 PM 16.77 62.186 0.4 7.91 105.53 8.47
8/17/2022 6:45:00 PM 16.89 62.402 0.404 7.89 94.54 8.34
8/17/2022 7:00:00 PM 17.05 62.69 0.408 7.87 94.69 8.27
8/17/2022 7:15:00 PM 17.24 63.032 0.413 7.88 91.4 8.18
8/17/2022 7:30:00 PM 17.42 63.356 0.415 7.86 91.32 8.06
8/17/2022 7:45:00 PM 17.58 63.644 0.417 7.87 100.83 8.01
8/17/2022 8:00:00 PM 17.69 63.842 0.416 7.87 94.96 7.93
8/17/2022 8:15:00 PM 17.75 63.95 0.414 7.84 103.46 7.87
8/17/2022 8:30:00 PM 17.77 63.986 0.41 7.85 121.84 7.81
8/17/2022 8:45:00 PM 17.76 63.968 0.404 7.84 118.61 7.76
8/17/2022 9:00:00 PM 17.72 63.896 0.397 7.81 108.48 7.71
8/17/2022 9:15:00 PM 17.69 63.842 0.391 7.81 112.84 7.68
8/17/2022 9:30:00 PM 17.68 63.824 0.387 7.81 115.96 7.64
8/17/2022 9:45:00 PM 17.68 63.824 0.386 7.78 116.73 7.58
8/17/2022 10:00:00 PM 17.7 63.86 0.387 7.8 110.7 7.57
8/17/2022 10:15:00 PM 17.74 63.932 0.389 7.82 104.07 7.51
8/17/2022 10:30:00 PM 17.77 63.986 0.392 7.82 106.6 7.48
8/17/2022 10:45:00 PM 17.8 64.04 0.396 7.8 111.34 7.46
8/17/2022 11:00:00 PM 17.82 64.076 0.399 7.8 197.99 7.43
8/17/2022 11:15:00 PM 17.85 64.13 0.401 7.8 116.93 7.39
8/17/2022 11:30:00 PM 17.85 64.13 0.403 7.79 101.24 7.36
8/17/2022 11:45:00 PM 17.85 64.13 0.406 7.78 103.79 7.29
8/18/2022 12:00:00 AM 17.85 64.13 0.408 7.79 131.35 7.29
8/18/2022 12:15:00 AM 17.84 64.112 0.41 7.78 202.49 7.26
8/18/2022 12:30:00 AM 17.82 64.076 0.412 7.78 99.84 7.21
8/18/2022 12:45:00 AM 17.79 64.022 0.415 7.77 101.59 7.18
8/18/2022 1:00:00 AM 17.75 63.95 0.417 7.77 95.52 7.15
8/18/2022 1:15:00 AM 17.71 63.878 0.418 7.76 96.48 7.13
8/18/2022 1:30:00 AM 17.67 63.806 0.42 7.75 98.73 7.1
8/18/2022 1:45:00 AM 17.62 63.716 0.422 7.75 97.63 7.09
8/18/2022 2:00:00 AM 17.56 63.608 0.423 7.75 96.1 7.06
8/18/2022 2:15:00 AM 17.51 63.518 0.425 7.75 91.47 7
8/18/2022 2:30:00 AM 17.45 63.41 0.425 7.74 100.41 7
8/18/2022 2:45:00 AM 17.39 63.302 0.426 7.73 98.81 6.94
8/18/2022 3:00:00 AM 17.33 63.194 0.426 7.73 94.89 7.03
8/18/2022 3:15:00 AM 17.27 63.086 0.426 7.74 96.8 6.9
8/18/2022 3:30:00 AM 17.2 62.96 0.427 7.71 93.32 6.98
8/18/2022 3:45:00 AM 17.14 62.852 0.427 7.72 104.99 6.96
8/18/2022 4:00:00 AM 17.07 62.726 0.428 7.7 95.12 6.94
8/18/2022 4:15:00 AM 17.01 62.618 0.428 7.71 111.89 6.86
8/18/2022 4:30:00 AM 16.95 62.51 0.429 7.7 135.63 6.91
8/18/2022 4:45:00 AM 16.88 62.384 0.43 7.69 103.87 6.9
8/18/2022 5:00:00 AM 16.82 62.276 0.43 7.7 99.43 6.93
8/18/2022 5:15:00 AM 16.76 62.168 0.431 7.69 98.66 6.91
8/18/2022 5:30:00 AM 16.71 62.078 0.432 7.7 104.62 6.88
8/18/2022 5:45:00 AM 16.66 61.988 0.433 7.71 104.87 6.95
8/18/2022 6:00:00 AM 16.61 61.898 0.434 7.7 97.15 6.99
8/18/2022 6:15:00 AM 16.56 61.808 0.435 7.7 94.5 6.88
8/18/2022 6:30:00 AM 16.53 61.754 0.437 7.7 99.24 6.94
8/18/2022 6:45:00 AM 16.49 61.682 0.438 7.69 91.37 6.98
8/18/2022 7:00:00 AM 16.46 61.628 0.439 7.7 103.41 6.81
8/18/2022 7:15:00 AM 16.42 61.556 0.44 7.71 91.72 6.95
8/18/2022 7:30:00 AM 16.41 61.538 0.441 7.69 91.48 6.86
8/18/2022 7:45:00 AM 16.39 61.502 0.441 7.69 88.85 6.77
8/18/2022 8:00:00 AM 16.4 61.52 0.442 7.71 86.5 6.96
8/18/2022 8:15:00 AM 16.41 61.538 0.442 7.71 86.1 6.87
8/18/2022 8:30:00 AM 16.44 61.592 0.443 7.7 87.58 6.89
8/18/2022 8:45:00 AM 16.48 61.664 0.444 7.72 85.61 6.85
8/18/2022 9:00:00 AM 16.53 61.754 0.444 7.73 90.8 7.06
8/18/2022 9:15:00 AM 16.59 61.862 0.445 7.74 84.95 7.22
8/18/2022 9:30:00 AM 16.68 62.024 0.446 7.74 85.72 7.32
8/18/2022 9:45:00 AM 16.75 62.15 0.446 7.74 89.9 7.24
8/18/2022 10:00:00 AM 16.83 62.294 0.447 7.76 88.4 7.47
8/18/2022 10:15:00 AM 16.89 62.402 0.447 7.76 85.42 7.14
8/18/2022 10:30:00 AM 16.96 62.528 0.448 7.76 85.16 7.1
8/18/2022 10:45:00 AM 17.02 62.636 0.448 7.76 85.14 7.46
8/18/2022 11:00:00 AM 17.12 62.816 0.449 7.78 85.34 7.6
8/18/2022 11:15:00 AM 17.22 62.996 0.45 7.79 84.91 7.43
8/18/2022 11:30:00 AM 17.35 63.23 0.45 7.8 85 7.73
8/18/2022 11:45:00 AM 17.48 63.464 0.451 7.8 85.17 7.74
8/18/2022 12:00:00 PM 17.61 63.698 0.451 7.8 87 7.57
8/18/2022 12:15:00 PM 17.8 64.04 0.451 7.81 86.16 7.71
8/18/2022 12:30:00 PM 17.97 64.346 0.451 7.82 84.2 7.88
8/18/2022 12:45:00 PM 18.24 64.832 0.451 7.83 86.78 7.84
8/18/2022 1:00:00 PM 18.46 65.228 0.451 7.82 88.14 7.62
8/18/2022 1:15:00 PM 18.66 65.588 0.452 7.81 92.2 8.03
8/18/2022 1:30:00 PM 18.9 66.02 0.451 7.86 89.95 8.02
8/18/2022 1:45:00 PM 19.14 66.452 0.452 7.85 89 8.1
8/18/2022 2:00:00 PM 19.36 66.848 0.452 7.89 89.06 8.04
8/18/2022 2:15:00 PM 19.54 67.172 0.453 7.9 91.46 8.19
8/18/2022 2:30:00 PM 19.74 67.532 0.453 7.91 87.43 7.97
8/18/2022 2:45:00 PM 19.98 67.964 0.453 7.92 87.81 8.36
8/18/2022 3:00:00 PM 20.06 68.108 0.453 7.91 86.57 8.36
8/18/2022 3:15:00 PM 20.25 68.45 0.453 7.9 86.1 8.07
8/18/2022 3:30:00 PM 20.45 68.81 0.454 7.9 89.01 8.4
8/18/2022 3:45:00 PM 20.67 69.206 0.454 7.92 89.54 8.01
8/18/2022 4:00:00 PM 20.73 69.314 0.454 7.93 86.48 8.49
8/18/2022 4:15:00 PM 20.83 69.494 0.454 7.92 88.39 7.98
8/18/2022 4:30:00 PM 20.86 69.548 0.455 7.92 86 8.59
8/18/2022 4:45:00 PM 20.91 69.638 0.455 7.93 91.11 8.51
8/18/2022 5:00:00 PM 20.9 69.62 0.456 7.93 86.31 8.54
8/18/2022 5:15:00 PM 20.88 69.584 0.456 7.9 86.49 8.13
8/18/2022 5:30:00 PM 20.82 69.476 0.457 7.9 88.98 8.38
8/18/2022 5:45:00 PM 20.74 69.332 0.458 7.91 85.93 8.04
8/18/2022 6:00:00 PM 20.66 69.188 0.458 7.9 87.11 7.97
8/18/2022 6:15:00 PM 20.57 69.026 0.459 7.89 85.98 7.92
8/18/2022 6:30:00 PM 20.48 68.864 0.46 7.88 86.12 7.52
8/18/2022 6:45:00 PM 20.4 68.72 0.46 7.86 87.46 7.6
8/18/2022 7:00:00 PM 20.31 68.558 0.46 7.87 86.74 7.48
8/18/2022 7:15:00 PM 20.24 68.432 0.461 7.85 87.58 7.04
8/18/2022 7:30:00 PM 20.14 68.252 0.461 7.85 90.85 6.93
8/18/2022 7:45:00 PM 20.07 68.126 0.462 7.83 88.04 7.09
8/18/2022 8:00:00 PM 19.98 67.964 0.462 7.83 84.34 7.07
8/18/2022 8:15:00 PM 19.87 67.766 0.462 7.82 85.7 7.24
8/18/2022 8:30:00 PM 19.77 67.586 0.463 7.8 83.57 7.19
8/18/2022 8:45:00 PM 19.67 67.406 0.463 7.81 84.97 7.14
8/18/2022 9:00:00 PM 19.58 67.244 0.463 7.79 90.1 7.08
8/18/2022 9:15:00 PM 19.49 67.082 0.463 7.79 95.2 7.05
8/18/2022 9:30:00 PM 19.41 66.938 0.464 7.78 107.92 6.98
8/18/2022 9:45:00 PM 19.34 66.812 0.464 7.78 92.5 6.87
8/18/2022 10:00:00 PM 19.28 66.704 0.464 7.77 89.79 6.72
8/18/2022 10:15:00 PM 19.19 66.542 0.465 7.78 90.66 6.58
8/18/2022 10:30:00 PM 19.12 66.416 0.465 7.78 87.49 6.49
8/18/2022 10:45:00 PM 19.05 66.29 0.466 7.76 87.78 6.59
8/18/2022 11:00:00 PM 19.01 66.218 0.466 7.77 87.95 6.65
8/18/2022 11:15:00 PM 18.96 66.128 0.466 7.77 99.69 6.63
8/18/2022 11:30:00 PM 18.89 66.002 0.466 7.76 86.88 6.61
8/18/2022 11:45:00 PM 18.83 65.894 0.467 7.76 87.3 6.41
8/19/2022 12:00:00 AM 18.8 65.84 0.467 7.77 90.74 6.53
8/19/2022 12:15:00 AM 18.73 65.714 0.467 7.76 87.27 6.06
8/19/2022 12:30:00 AM 18.67 65.606 0.468 7.76 82.59 6.37
8/19/2022 12:45:00 AM 18.65 65.57 0.468 7.77 86.46 6.58
8/19/2022 1:00:00 AM 18.59 65.462 0.469 7.76 88.06 6.31
8/19/2022 1:15:00 AM 18.57 65.426 0.468 7.76 101.98 6.65
8/19/2022 1:30:00 AM 18.51 65.318 0.469 7.76 91.23 5.78
8/19/2022 1:45:00 AM 18.46 65.228 0.47 7.74 84.32 6.16
8/19/2022 2:00:00 AM 18.45 65.21 0.47 7.77 87.87 6.09
8/19/2022 2:15:00 AM 18.36 65.048 0.471 7.76 84.68 6.51
8/19/2022 2:30:00 AM 18.32 64.976 0.471 7.76 88.3 6.51
8/19/2022 2:45:00 AM 18.29 64.922 0.471 7.74 86.73 6.52
8/19/2022 3:00:00 AM 18.25 64.85 0.471 7.76 87.72 6.57
8/19/2022 3:15:00 AM 18.19 64.742 0.472 7.76 85.47 6.65
8/19/2022 3:30:00 AM 18.16 64.688 0.472 7.75 86.01 6.53
8/19/2022 3:45:00 AM 18.12 64.616 0.472 7.75 84.2 6.55
8/19/2022 4:00:00 AM 18.09 64.562 0.473 7.77 84.89 6.54
8/19/2022 4:15:00 AM 18.04 64.472 0.473 7.77 87.94 6.59
8/19/2022 4:30:00 AM 17.99 64.382 0.473 7.77 87.14 6.8
8/19/2022 4:45:00 AM 17.94 64.292 0.474 7.77 87.14 6.8
8/19/2022 5:00:00 AM 17.91 64.238 0.474 7.76 84.51 6.74
8/19/2022 5:15:00 AM 17.86 64.148 0.475 7.76 84.41 6.75
8/19/2022 5:30:00 AM 17.81 64.058 0.475 7.76 83.67 6.78
8/19/2022 5:45:00 AM 17.75 63.95 0.476 7.73 86.75 6.79
8/19/2022 6:00:00 AM 17.7 63.86 0.476 7.76 86.48 6.83
8/19/2022 6:15:00 AM 17.68 63.824 0.476 7.76 83.6 6.67
8/19/2022 6:30:00 AM 17.61 63.698 0.477 7.73 94.66 6.76
8/19/2022 6:45:00 AM 17.59 63.662 0.476 7.75 84.69 6.83
8/19/2022 7:00:00 AM 17.57 63.626 0.477 7.75 83.69 6.71
8/19/2022 7:15:00 AM 17.5 63.5 0.478 7.76 81.87 6.68
8/19/2022 7:30:00 AM 17.5 63.5 0.478 7.76 82.53 6.78
8/19/2022 7:45:00 AM 17.44 63.392 0.479 7.76 80.93 6.89
8/19/2022 8:00:00 AM 17.43 63.374 0.479 7.75 84.93 6.82
8/19/2022 8:15:00 AM 17.44 63.392 0.479 7.77 81.56 6.68
8/19/2022 8:30:00 AM 17.47 63.446 0.479 7.76 79.89 6.84
8/19/2022 8:45:00 AM 17.52 63.536 0.478 7.77 31.95 6.79
8/19/2022 9:00:00 AM 17.52 63.536 0.481 7.78 79.38 6.44
8/19/2022 9:15:00 AM 17.55 63.59 0.481 7.78 82.34 6.99
8/19/2022 9:30:00 AM 17.61 63.698 0.482 7.78 79.61 6.81
8/19/2022 9:45:00 AM 17.73 63.914 0.481 7.78 80.85 6.76
8/19/2022 10:00:00 AM 17.83 64.094 0.482 7.79 81.01 7.07
8/19/2022 10:15:00 AM 17.9 64.22 0.482 7.8 82.16 7.33
8/19/2022 10:30:00 AM 17.95 64.31 0.483 7.81 83.12 7.23
8/19/2022 10:45:00 AM 18 64.4 0.483 7.8 81.39 7.24
8/19/2022 11:00:00 AM 18.08 64.544 0.483 7.82 80.78 6.61
8/19/2022 11:15:00 AM 18.2 64.76 0.484 7.84 81.11 6.83
8/19/2022 11:30:00 AM 18.3 64.94 0.484 7.85 80.16 7.18
8/19/2022 11:45:00 AM 18.43 65.174 0.484 7.82 84.2 7.16
8/19/2022 12:00:00 PM 18.61 65.498 0.485 7.85 85.51 7.16
8/19/2022 12:15:00 PM 18.8 65.84 0.485 7.86 84.38 7.21
8/19/2022 12:30:00 PM 19.06 66.308 0.484 7.85 81.65 7.44
8/19/2022 12:45:00 PM 19.31 66.758 0.484 7.89 82.19 8.01
8/19/2022 1:00:00 PM 19.51 67.118 0.485 7.89 80.85 7.82
8/19/2022 1:15:00 PM 19.85 67.73 0.484 7.91 82.88 7.98
8/19/2022 1:30:00 PM 20.04 68.07201 0.483 7.95 81.1 8.55
8/19/2022 1:45:00 PM 20.19 68.342 0.484 7.95 81.38 7.9
8/19/2022 2:00:00 PM 20.37 68.666 0.484 7.96 85.85 8.31
8/19/2022 2:15:00 PM 20.53 68.954 0.484 7.95 85.98 7.63
8/19/2022 2:30:00 PM 20.75 69.35 0.484 7.97 83.08 8.12
8/19/2022 2:45:00 PM 20.84 69.512 0.484 7.97 83.01 8.32
8/19/2022 3:00:00 PM 20.94 69.692 0.484 7.98 83.14 8.43
8/19/2022 3:15:00 PM 20.98 69.764 0.481 7.98 86 8.51
8/19/2022 3:30:00 PM 21 69.8 0.48 7.98 85.87 8.44
8/19/2022 3:45:00 PM 21.05 69.89 0.478 7.97 86.72 8.36
8/19/2022 4:00:00 PM 21.16 70.088 0.48 7.98 86.17 8.22
8/19/2022 4:15:00 PM 21.16 70.088 0.48 7.98 86.26 8.08
8/19/2022 4:30:00 PM 21.13 70.034 0.48 7.94 87.42 7.49
8/19/2022 4:45:00 PM 21.06 69.908 0.48 7.96 91.87 7.89
8/19/2022 5:00:00 PM 20.99 69.782 0.48 7.94 86.2 7.56
8/19/2022 5:15:00 PM 20.93 69.674 0.48 7.96 84.36 8.21
8/19/2022 5:30:00 PM 20.92 69.656 0.481 7.91 87.55 7.81
8/19/2022 5:45:00 PM 20.89 69.602 0.48 7.92 83.91 7.86
8/19/2022 6:00:00 PM 20.87 69.566 0.481 7.91 86.98 7.82
8/19/2022 6:15:00 PM 20.86 69.548 0.481 7.93 84.98 7.88
8/19/2022 6:30:00 PM 20.79 69.422 0.482 7.92 94.87 7.52
8/19/2022 6:45:00 PM 20.73 69.314 0.483 7.9 110.95 7.18
8/19/2022 7:00:00 PM 20.66 69.188 0.483 7.86 90.99 7.52
8/19/2022 7:15:00 PM 20.6 69.08 0.484 7.89 89.45 7.28
8/19/2022 7:30:00 PM 20.54 68.972 0.484 7.86 81.65 7.04
8/19/2022 7:45:00 PM 20.51 68.918 0.484 7.87 87.77 7.28
8/19/2022 8:00:00 PM 20.43 68.774 0.484 7.86 84.73 6.88
8/19/2022 8:15:00 PM 20.41 68.738 0.484 7.83 84.71 6.86
8/19/2022 8:30:00 PM 20.3 68.54 0.484 7.81 81.53 7.06
8/19/2022 8:45:00 PM 20.25 68.45 0.485 7.83 92.18 6.7
8/19/2022 9:00:00 PM 20.19 68.342 0.485 7.82 94.28 7.1
8/19/2022 9:15:00 PM 20.12 68.216 0.486 7.8 83.04 6.83
8/19/2022 9:30:00 PM 20.06 68.108 0.486 7.81 89.09 6.56
8/19/2022 9:45:00 PM 20.02 68.036 0.486 7.8 88.78 6.56
8/19/2022 10:00:00 PM 19.98 67.964 0.486 7.8 91.99 6.36
8/19/2022 10:15:00 PM 19.94 67.892 0.486 7.8 93.64 6.44
8/19/2022 10:30:00 PM 19.92 67.856 0.486 7.78 85.62 6.39
8/19/2022 10:45:00 PM 19.88 67.784 0.486 7.78 96.9 6.43
8/19/2022 11:00:00 PM 19.84 67.712 0.486 7.76 89.52 6.07
8/19/2022 11:15:00 PM 19.81 67.658 0.486 7.76 90.29 6.19
8/19/2022 11:30:00 PM 19.78 67.604 0.487 7.76 86.93 6.13
8/19/2022 11:45:00 PM 19.75 67.55 0.487 7.75 90.15 6.07
8/20/2022 12:00:00 AM 19.71 67.478 0.487 7.76 88.24 6.15
8/20/2022 12:15:00 AM 19.69 67.442 0.487 7.76 87.04 6.26
8/20/2022 12:30:00 AM 19.66 67.388 0.487 7.76 86.78 6.31
8/20/2022 12:45:00 AM 19.63 67.334 0.488 7.75 97.59 6.34
8/20/2022 1:00:00 AM 19.6 67.28 0.488 7.75 84.75 6.38
8/20/2022 1:15:00 AM 19.58 67.244 0.488 7.75 86.97 5.99
8/20/2022 1:30:00 AM 19.56 67.208 0.488 7.75 86.17 6.25
8/20/2022 1:45:00 AM 19.53 67.154 0.488 7.74 88.04 6.01
8/20/2022 2:00:00 AM 19.51 67.118 0.488 7.73 90.29 6
8/20/2022 2:15:00 AM 19.49 67.082 0.488 7.75 105.27 6.2
8/20/2022 2:30:00 AM 19.48 67.064 0.488 7.74 88.53 6.05
8/20/2022 2:45:00 AM 19.46 67.028 0.488 7.73 79.93 6.28
8/20/2022 3:00:00 AM 19.45 67.01 0.489 7.74 86.29 5.9
8/20/2022 3:15:00 AM 19.44 66.992 0.488 7.74 84.62 5.78
8/20/2022 3:30:00 AM 19.44 66.992 0.488 7.71 87.96 5.98
8/20/2022 3:45:00 AM 19.44 66.992 0.488 7.73 92.37 5.98
8/20/2022 4:00:00 AM 19.41 66.938 0.488 7.74 95.98 6.24
8/20/2022 4:15:00 AM 19.39 66.902 0.489 7.72 88.15 6.17
8/20/2022 4:30:00 AM 19.37 66.866 0.488 7.73 79.6 5.88
8/20/2022 4:45:00 AM 19.35 66.83 0.488 7.72 87.91 5.87
8/20/2022 5:00:00 AM 19.34 66.812 0.488 7.7 88.59 5.85
8/20/2022 5:15:00 AM 19.31 66.758 0.488 7.72 88.42 6.27
8/20/2022 5:30:00 AM 19.29 66.722 0.488 7.73 86.51 5.92
8/20/2022 5:45:00 AM 19.29 66.722 0.488 7.71 82.11 5.95
8/20/2022 6:00:00 AM 19.25 66.65 0.488 7.72 90.57 6.17
8/20/2022 6:15:00 AM 19.25 66.65 0.488 7.72 93.01 6.04
8/20/2022 6:30:00 AM 19.24 66.632 0.488 7.7 84.77 6.18
8/20/2022 6:45:00 AM 19.18 66.524 0.488 7.73 83.54 6.11
8/20/2022 7:00:00 AM 19.16 66.488 0.488 7.72 86.67 5.78
8/20/2022 7:15:00 AM 19.11 66.398 0.488 7.74 104.94 5.73
8/20/2022 7:30:00 AM 19.1 66.38 0.488 7.73 85.17 6.01
8/20/2022 7:45:00 AM 19.08 66.344 0.488 7.72 87.81 5.93
8/20/2022 8:00:00 AM 19.08 66.344 0.488 7.71 89.4 6.14
8/20/2022 8:15:00 AM 19.1 66.38 0.488 7.74 85.48 6.18
8/20/2022 8:30:00 AM 19.11 66.398 0.488 7.73 86.09 5.93
8/20/2022 8:45:00 AM 19.13 66.434 0.489 7.74 90.03 6.21
8/20/2022 9:00:00 AM 19.16 66.488 0.488 7.76 82.64 6.71
8/20/2022 9:15:00 AM 19.21 66.578 0.488 7.75 85.02 6.58
8/20/2022 9:30:00 AM 19.28 66.704 0.488 7.76 80.64 6.53
8/20/2022 9:45:00 AM 19.32 66.776 0.488 7.77 83.98 6.48
8/20/2022 10:00:00 AM 19.38 66.884 0.488 7.78 85.74 6.69
8/20/2022 10:15:00 AM 19.45 67.01 0.488 7.8 86.91 7.09
8/20/2022 10:30:00 AM 19.52 67.136 0.488 7.81 87.15 7.07
8/20/2022 10:45:00 AM 19.59 67.262 0.488 7.8 78.73 7.33
8/20/2022 11:00:00 AM 19.68 67.424 0.488 7.81 86.9 7.01
8/20/2022 11:15:00 AM 19.76 67.568 0.488 7.8 81.6 7.23
8/20/2022 11:30:00 AM 19.89 67.802 0.488 7.84 80.28 7.44
8/20/2022 11:45:00 AM 20.05 68.09 0.488 7.85 80.36 7.96
8/20/2022 12:00:00 PM 20.17 68.306 0.487 7.82 77.8 7.62
8/20/2022 12:15:00 PM 20.35 68.63 0.487 7.84 77.16 8.22
8/20/2022 12:30:00 PM 20.53 68.954 0.487 7.88 80.55 7.6
8/20/2022 12:45:00 PM 20.75 69.35 0.487 7.91 82.98 8.1
8/20/2022 1:00:00 PM 20.97 69.746 0.486 7.9 81.9 7.94
8/20/2022 1:15:00 PM 21.16 70.088 0.486 7.94 79.54 8.33
8/20/2022 1:30:00 PM 21.38 70.484 0.486 7.91 80.53 8.4
8/20/2022 1:45:00 PM 21.61 70.898 0.486 7.93 80.61 8.09
8/20/2022 2:00:00 PM 21.82 71.276 0.485 7.89 76.71 8.74
8/20/2022 2:15:00 PM 22.01 71.618 0.485 7.94 103.26 8.32
8/20/2022 2:30:00 PM 22.21 71.978 0.485 7.97 92.54 8.72
8/20/2022 2:45:00 PM 22.31 72.158 0.485 7.98 84.03 8.82
8/20/2022 3:00:00 PM 22.46 72.42799 0.484 7.96 81.06 8.68
8/20/2022 3:15:00 PM 22.71 72.878 0.484 8 81.41 8.87
8/20/2022 3:30:00 PM 22.8 73.04 0.484 7.97 80.26 8.72
8/20/2022 3:45:00 PM 22.93 73.274 0.484 7.96 77.5 8.85
8/20/2022 4:00:00 PM 23.03 73.454 0.484 7.98 83.21 8.81
8/20/2022 4:15:00 PM 23.12 73.616 0.484 7.98 82.07 8.74
8/20/2022 4:30:00 PM 23.16 73.688 0.484 7.99 79.99 8.66
8/20/2022 4:45:00 PM 23.14 73.652 0.484 7.99 80.79 8.55
8/20/2022 5:00:00 PM 23.09 73.562 0.484 7.98 78.99 8.43
8/20/2022 5:15:00 PM 23.01 73.418 0.484 7.94 78.58 8.25
8/20/2022 5:30:00 PM 22.89 73.202 0.485 7.97 160.24 8.24
8/20/2022 5:45:00 PM 22.78 73.004 0.485 7.96 107.07 8.19
8/20/2022 6:00:00 PM 22.67 72.806 0.486 7.94 87.53 7.99
8/20/2022 6:15:00 PM 22.59 72.662 0.486 7.94 85.77 7.82
8/20/2022 6:30:00 PM 22.51 72.518 0.487 7.92 84.5 7.74
8/20/2022 6:45:00 PM 22.42 72.356 0.487 7.91 80.12 7.47
8/20/2022 7:00:00 PM 22.31 72.158 0.487 7.91 82.54 7.44
8/20/2022 7:15:00 PM 22.22 71.996 0.487 7.9 84.03 7.26
8/20/2022 7:30:00 PM 22.12 71.816 0.488 7.88 80.01 7.28
8/20/2022 7:45:00 PM 21.99 71.582 0.487 7.88 77.87 7.08
8/20/2022 8:00:00 PM 21.89 71.402 0.488 7.86 81.9 7
8/20/2022 8:15:00 PM 21.77 71.186 0.488 7.86 77.96 7.04
8/20/2022 8:30:00 PM 21.64 70.952 0.488 7.84 82.82 6.96
8/20/2022 8:45:00 PM 21.51 70.718 0.488 7.83 82.72 6.91
8/20/2022 9:00:00 PM 21.39 70.502 0.489 7.83 90.14 6.81
8/20/2022 9:15:00 PM 21.26 70.268 0.489 7.83 92.3 6.82
8/20/2022 9:30:00 PM 21.13 70.034 0.489 7.82 88.22 6.77
8/20/2022 9:45:00 PM 21.01 69.818 0.489 7.82 83.47 6.75
8/20/2022 10:00:00 PM 20.9 69.62 0.489 7.79 3555.39 6.51
8/20/2022 10:15:00 PM 20.81 69.458 0.489 7.76 1053.67 6.43
8/20/2022 10:30:00 PM 20.69 69.242 0.489 7.76 289.47 6.55
8/20/2022 10:45:00 PM 20.6 69.08 0.489 7.76 197.51 6.39
8/20/2022 11:00:00 PM 20.52 68.936 0.489 7.77 165.79 6.45
8/20/2022 11:15:00 PM 20.48 68.864 0.49 7.76 203.57 6.46
8/20/2022 11:30:00 PM 20.39 68.702 0.49 7.76 163.33 6.42
8/20/2022 11:45:00 PM 20.33 68.594 0.489 7.77 116.62 6.38
8/21/2022 12:00:00 AM 20.25 68.45 0.49 7.76 138.41 6.42
8/21/2022 12:15:00 AM 20.2 68.36 0.49 7.76 96.93 6.4
8/21/2022 12:30:00 AM 20.14 68.252 0.49 7.76 93.17 6.36
8/21/2022 12:45:00 AM 20.09 68.162 0.49 7.77 97.35 6.34
8/21/2022 1:00:00 AM 20.04 68.07201 0.49 7.76 130.05 6.34
8/21/2022 1:15:00 AM 19.99 67.982 0.49 7.77 92.83 6.37
8/21/2022 1:30:00 AM 19.94 67.892 0.49 7.76 91.07 6.3
8/21/2022 1:45:00 AM 19.89 67.802 0.49 7.76 93.84 6.36
8/21/2022 2:00:00 AM 19.84 67.712 0.49 7.76 106.9 6.38
8/21/2022 2:15:00 AM 19.79 67.622 0.491 7.76 87.91 6.41
8/21/2022 2:30:00 AM 19.74 67.532 0.49 7.75 84.67 6.31
8/21/2022 2:45:00 AM 19.69 67.442 0.491 7.76 87.12 6.32
8/21/2022 3:00:00 AM 19.65 67.37 0.491 7.76 88.6 6.31
8/21/2022 3:15:00 AM 19.6 67.28 0.491 7.76 89.93 6.38
8/21/2022 3:30:00 AM 19.56 67.208 0.491 7.75 84.7 6.37
8/21/2022 3:45:00 AM 19.53 67.154 0.491 7.76 96.86 6.45
8/21/2022 4:00:00 AM 19.49 67.082 0.491 7.77 92.09 6.51
8/21/2022 4:15:00 AM 19.45 67.01 0.491 7.75 84.04 6.39
8/21/2022 4:30:00 AM 19.4 66.92 0.492 7.76 85.12 6.42
8/21/2022 4:45:00 AM 19.37 66.866 0.491 7.77 84.13 6.41
8/21/2022 5:00:00 AM 19.34 66.812 0.491 7.77 86.05 6.41
8/21/2022 5:15:00 AM 19.31 66.758 0.492 7.77 83.66 6.39
8/21/2022 5:30:00 AM 19.28 66.704 0.492 7.77 91.35 6.43
8/21/2022 5:45:00 AM 19.26 66.668 0.492 7.77 88.11 6.46
8/21/2022 6:00:00 AM 19.22 66.596 0.492 7.77 84.82 6.25
8/21/2022 6:15:00 AM 19.19 66.542 0.493 7.76 100.59 6.18
8/21/2022 6:30:00 AM 19.17 66.506 0.493 7.76 81.74 6.25
8/21/2022 6:45:00 AM 19.15 66.47 0.492 7.74 84.96 6.31
8/21/2022 7:00:00 AM 19.15 66.47 0.493 7.75 93.53 6.18
8/21/2022 7:15:00 AM 19.13 66.434 0.493 7.77 82.22 6.23
8/21/2022 7:30:00 AM 19.12 66.416 0.493 7.76 78.77 6.17
8/21/2022 7:45:00 AM 19.14 66.452 0.493 7.77 83.77 6.19
8/21/2022 8:00:00 AM 19.14 66.452 0.493 7.77 83.71 6.07
8/21/2022 8:15:00 AM 19.2 66.56 0.493 7.74 80.13 6.28
8/21/2022 8:30:00 AM 19.19 66.542 0.494 7.77 81.11 6.27
8/21/2022 8:45:00 AM 19.22 66.596 0.493 7.77 77.31 6.06
8/21/2022 9:00:00 AM 19.27 66.686 0.494 7.78 82.07 6.29
8/21/2022 9:15:00 AM 19.35 66.83 0.494 7.8 80.6 6.53
8/21/2022 9:30:00 AM 19.43 66.974 0.495 7.79 80.15 6.42
8/21/2022 9:45:00 AM 19.5 67.1 0.494 7.81 85.85 6.89
8/21/2022 10:00:00 AM 19.54 67.172 0.494 7.81 93.98 6.64
8/21/2022 10:15:00 AM 19.58 67.244 0.495 7.81 85.33 6.11
8/21/2022 10:30:00 AM 19.65 67.37 0.494 7.83 79.66 6.51
8/21/2022 10:45:00 AM 19.78 67.604 0.494 7.84 79.13 6.28
8/21/2022 11:00:00 AM 19.87 67.766 0.494 7.82 97.87 6.58
8/21/2022 11:15:00 AM 19.94 67.892 0.494 7.84 80.79 7.07
8/21/2022 11:30:00 AM 20.01 68.018 0.494 7.84 81.63 7.5
8/21/2022 11:45:00 AM 20.16 68.288 0.493 7.85 80.48 7.39
8/21/2022 12:00:00 PM 20.24 68.432 0.494 7.9 78.13 7.47
8/21/2022 12:15:00 PM 20.33 68.594 0.494 7.89 78.7 7.56
8/21/2022 12:30:00 PM 20.45 68.81 0.493 7.89 78.29 8
8/21/2022 12:45:00 PM 20.56 69.008 0.493 7.91 80.13 7.73
8/21/2022 1:00:00 PM 20.69 69.242 0.493 7.92 78.92 8.31
8/21/2022 1:15:00 PM 20.85 69.53 0.492 7.92 80.49 8.4
8/21/2022 1:30:00 PM 20.99 69.782 0.492 7.94 78.34 8.62
8/21/2022 1:45:00 PM 21.1 69.98 0.492 7.96 79.7 8.67
8/21/2022 2:00:00 PM 21.15 70.07 0.492 7.96 79.17 8.78
8/21/2022 2:15:00 PM 21.25 70.25 0.492 7.97 79.2 8.68
8/21/2022 2:30:00 PM 21.35 70.43 0.491 7.98 85.92 8.69
8/21/2022 2:45:00 PM 21.43 70.574 0.491 7.97 85.87 8.52
8/21/2022 3:00:00 PM 21.5 70.7 0.491 8 80.08 8.9
8/21/2022 3:15:00 PM 21.57 70.826 0.491 8.01 82.75 8.79
8/21/2022 3:30:00 PM 21.64 70.952 0.49 8.04 100.49 8.97
8/21/2022 3:45:00 PM 21.65 70.97 0.49 8.03 85.99 8.42
8/21/2022 4:00:00 PM 21.64 70.952 0.49 8.05 77.88 8.73
8/21/2022 4:15:00 PM 21.66 70.988 0.49 8.04 83.22 8.71
8/21/2022 4:30:00 PM 21.66 70.988 0.49 8.04 81.49 8.98
8/21/2022 4:45:00 PM 21.63 70.934 0.491 8.04 80.58 8.55
8/21/2022 5:00:00 PM 21.59 70.862 0.491 8.03 79.4 8.94
8/21/2022 5:15:00 PM 21.56 70.808 0.491 8.02 79.91 8.81
8/21/2022 5:30:00 PM 21.53 70.754 0.491 8.01 80.23 8.63
8/21/2022 5:45:00 PM 21.49 70.682 0.491 8.01 91 8.51
8/21/2022 6:00:00 PM 21.47 70.646 0.491 7.99 81.69 8.49
8/21/2022 6:15:00 PM 21.44 70.592 0.491 7.99 92.89 8.02
8/21/2022 6:30:00 PM 21.4 70.52 0.492 7.98 80.87 8.31
8/21/2022 6:45:00 PM 21.35 70.43 0.492 7.96 83.74 8.17
8/21/2022 7:00:00 PM 21.3 70.34 0.492 7.96 79.83 8.07
8/21/2022 7:15:00 PM 21.25 70.25 0.493 7.95 94 7.9
8/21/2022 7:30:00 PM 21.21 70.17799 0.493 7.92 81.04 7.79
8/21/2022 7:45:00 PM 21.14 70.052 0.494 7.92 79.59 7.49
8/21/2022 8:00:00 PM 21.08 69.944 0.495 7.9 81.27 7.49
8/21/2022 8:15:00 PM 21.02 69.836 0.495 7.9 79.67 7.45
8/21/2022 8:30:00 PM 20.97 69.746 0.495 7.89 83.58 7.19
8/21/2022 8:45:00 PM 20.94 69.692 0.495 7.88 80.75 7.15
8/21/2022 9:00:00 PM 20.86 69.548 0.496 7.87 78.73 7.1
8/21/2022 9:15:00 PM 20.81 69.458 0.496 7.86 79.21 7.04
8/21/2022 9:30:00 PM 20.77 69.386 0.496 7.86 78.64 6.87
8/21/2022 9:45:00 PM 20.72 69.296 0.496 7.85 104.2 6.86
8/21/2022 10:00:00 PM 20.68 69.224 0.496 7.84 89.53 6.83
8/21/2022 10:15:00 PM 20.65 69.17 0.497 7.83 80.19 6.79
8/21/2022 10:30:00 PM 20.58 69.044 0.496 7.83 82.69 6.74
8/21/2022 10:45:00 PM 20.57 69.026 0.497 7.82 82.75 6.7
8/21/2022 11:00:00 PM 20.5 68.9 0.496 7.82 83.04 6.6
8/21/2022 11:15:00 PM 20.47 68.846 0.496 7.82 83.48 6.59
8/21/2022 11:30:00 PM 20.43 68.774 0.496 7.81 81.05 6.17
8/21/2022 11:45:00 PM 20.41 68.738 0.496 7.81 81.62 6.31
8/22/2022 12:00:00 AM 20.38 68.684 0.496 7.81 79.88 6.39
8/22/2022 12:15:00 AM 20.38 68.684 0.495 7.8 81.85 6.38
8/22/2022 12:30:00 AM 20.35 68.63 0.496 7.81 82.39 5.99
8/22/2022 12:45:00 AM 20.35 68.63 0.495 7.8 82.33 6.41
8/22/2022 1:00:00 AM 20.33 68.594 0.495 7.79 83.23 6.38
8/22/2022 1:15:00 AM 20.3 68.54 0.496 7.79 96.05 6.15
8/22/2022 1:30:00 AM 20.28 68.504 0.496 7.81 82.7 6.04
8/22/2022 1:45:00 AM 20.26 68.468 0.496 7.8 82.48 6.43
8/22/2022 2:00:00 AM 20.22 68.396 0.496 7.8 85.71 6.36
8/22/2022 2:15:00 AM 20.21 68.378 0.496 7.79 84.33 6.42
8/22/2022 2:30:00 AM 20.2 68.36 0.496 7.79 87.53 6.37
8/22/2022 2:45:00 AM 20.14 68.252 0.496 7.79 81.01 6.48
8/22/2022 3:00:00 AM 20.13 68.234 0.496 7.8 82.85 6.43
8/22/2022 3:15:00 AM 20.11 68.198 0.496 7.8 85.96 6.01
8/22/2022 3:30:00 AM 20.11 68.198 0.496 7.82 85.01 6.36
8/22/2022 3:45:00 AM 20.07 68.126 0.496 7.8 82.77 6.33
8/22/2022 4:00:00 AM 20.05 68.09 0.497 7.8 86.33 6.35
8/22/2022 4:15:00 AM 20.04 68.07201 0.496 7.74 82.42 6.32
8/22/2022 4:30:00 AM 20.06 68.108 0.496 7.8 85.25 6.31
8/22/2022 4:45:00 AM 20.02 68.036 0.496 7.8 81.45 6.18
8/22/2022 5:00:00 AM 20.01 68.018 0.496 7.75 82.47 6.28
8/22/2022 5:15:00 AM 19.99 67.982 0.495 7.79 76.61 6.4
8/22/2022 5:30:00 AM 19.98 67.964 0.496 7.79 82.77 6.06
8/22/2022 5:45:00 AM 19.97 67.946 0.498 7.79 85.08 6.16
8/22/2022 6:00:00 AM 19.95 67.91 0.496 7.79 81.93 6.23
8/22/2022 6:15:00 AM 19.93 67.874 0.497 7.8 85.38 6.15
8/22/2022 6:30:00 AM 19.92 67.856 0.496 7.79 81.62 6.14
8/22/2022 6:45:00 AM 19.91 67.838 0.497 7.79 83.48 6.18
8/22/2022 7:00:00 AM 19.9 67.82 0.497 7.78 80.44 6.15
8/22/2022 7:15:00 AM 19.91 67.838 0.496 7.78 80.86 5.78
8/22/2022 7:30:00 AM 19.89 67.802 0.497 7.78 83.51 5.78
8/22/2022 7:45:00 AM 19.89 67.802 0.497 7.77 94 6.09
8/22/2022 8:00:00 AM 19.91 67.838 0.496 7.78 83.04 6.05
8/22/2022 8:15:00 AM 19.88 67.784 0.497 7.78 81.24 6.15
8/22/2022 8:30:00 AM 19.88 67.784 0.497 7.76 78.9 6.07
8/22/2022 8:45:00 AM 19.89 67.802 0.496 7.78 82.57 6.03
8/22/2022 9:00:00 AM 19.89 67.802 0.497 7.78 76.82 6.23
8/22/2022 9:15:00 AM 19.89 67.802 0.496 7.8 79.04 6.02
8/22/2022 9:30:00 AM 19.91 67.838 0.497 7.8 78.61 6.07
8/22/2022 9:45:00 AM 19.96 67.92799 0.495 7.77 76.97 6.33
8/22/2022 10:00:00 AM 20.01 68.018 0.496 7.8 78.91 6.29
8/22/2022 10:15:00 AM 20.08 68.144 0.495 7.78 77.2 6.53
8/22/2022 10:30:00 AM 20.13 68.234 0.496 7.8 80.68 6.59
8/22/2022 10:45:00 AM 20.22 68.396 0.496 7.82 79.74 6.87
8/22/2022 11:00:00 AM 20.29 68.522 0.496 7.85 79.75 7.01
8/22/2022 11:15:00 AM 20.36 68.648 0.495 7.83 76.24 7.25
8/22/2022 11:30:00 AM 20.43 68.774 0.495 7.84 79.37 7.4
8/22/2022 11:45:00 AM 20.48 68.864 0.495 7.85 83.59 7.47
8/22/2022 12:00:00 PM 20.53 68.954 0.494 7.88 84.28 7.6
8/22/2022 12:15:00 PM 20.6 69.08 0.493 7.89 80.75 7.53
8/22/2022 12:30:00 PM 20.68 69.224 0.493 7.88 81.34 7.37
8/22/2022 12:45:00 PM 20.77 69.386 0.493 7.87 79.95 7.39
8/22/2022 1:00:00 PM 20.88 69.584 0.492 7.91 78.96 7.59
8/22/2022 1:15:00 PM 20.92 69.656 0.492 7.92 77.79 8.02
8/22/2022 1:30:00 PM 21.04 69.872 0.492 7.94 78.94 7.78
8/22/2022 1:45:00 PM 21.24 70.232 0.492 7.9 83.31 7.91
8/22/2022 2:00:00 PM 21.48 70.664 0.492 7.93 79.9 8.09
8/22/2022 2:15:00 PM 21.65 70.97 0.492 7.92 80.69 7.95
8/22/2022 2:30:00 PM 21.8 71.24 0.492 7.94 83.76 7.83
8/22/2022 2:45:00 PM 21.97 71.546 0.492 7.97 78.58 7.83
8/22/2022 3:00:00 PM 22.08 71.744 0.492 7.96 79.83 8.18
8/22/2022 3:15:00 PM 22.09 71.762 0.491 7.96 79.48 8.18
8/22/2022 3:30:00 PM 22.13 71.834 0.491 7.93 77.21 8.04
8/22/2022 3:45:00 PM 22.17 71.906 0.491 7.96 78.17 8.06
8/22/2022 4:00:00 PM 22.23 72.014 0.491 7.93 79.13 7.87
8/22/2022 4:15:00 PM 22.31 72.158 0.491 7.93 78.59 7.86
8/22/2022 4:30:00 PM 22.34 72.212 0.491 7.93 79.68 7.86
8/22/2022 4:45:00 PM 22.35 72.23 0.491 7.93 78.57 7.75
8/22/2022 5:00:00 PM 22.37 72.266 0.491 7.93 79.92 7.48
8/22/2022 5:15:00 PM 22.34 72.212 0.49 7.94 82.6 7.96
8/22/2022 5:30:00 PM 22.26 72.068 0.492 7.97 80.64 7.52
8/22/2022 5:45:00 PM 22.21 71.978 0.492 7.96 79.01 7.7
8/22/2022 6:00:00 PM 22.15 71.87 0.492 7.94 78.13 7.85
8/22/2022 6:15:00 PM 22.07 71.726 0.492 7.94 76.28 7.64
8/22/2022 6:30:00 PM 22.01 71.618 0.491 7.93 79.98 7.55
8/22/2022 6:45:00 PM 21.95 71.51 0.492 7.93 90.06 7.53
8/22/2022 7:00:00 PM 21.9 71.42 0.492 7.93 77.34 7.31
8/22/2022 7:15:00 PM 21.84 71.312 0.492 7.92 77.4 7.09
8/22/2022 7:30:00 PM 21.75 71.15 0.492 7.91 79.56 7.36
8/22/2022 7:45:00 PM 21.69 71.042 0.492 7.91 77.23 7.4
8/22/2022 8:00:00 PM 21.61 70.898 0.492 7.91 82.99 7.09
8/22/2022 8:15:00 PM 21.52 70.736 0.492 7.9 82.46 7.04
8/22/2022 8:30:00 PM 21.43 70.574 0.492 7.89 78.97 6.95
8/22/2022 8:45:00 PM 21.34 70.412 0.492 7.88 79.99 6.9
8/22/2022 9:00:00 PM 21.26 70.268 0.492 7.87 79.92 6.82
8/22/2022 9:15:00 PM 21.19 70.142 0.492 7.87 77.15 6.49
8/22/2022 9:30:00 PM 21.11 69.998 0.492 7.85 78.85 6.65
8/22/2022 9:45:00 PM 21.03 69.854 0.492 7.85 80.98 6.59
8/22/2022 10:00:00 PM 20.97 69.746 0.492 7.84 79.73 6.47
8/22/2022 10:15:00 PM 20.9 69.62 0.492 7.84 81.53 6.51
8/22/2022 10:30:00 PM 20.84 69.512 0.492 7.83 87.19 6.57
8/22/2022 10:45:00 PM 20.78 69.404 0.492 7.83 80.96 6.29
8/22/2022 11:00:00 PM 20.73 69.314 0.493 7.83 75.95 6.18
8/22/2022 11:15:00 PM 20.66 69.188 0.492 7.82 77.09 5.91
8/22/2022 11:30:00 PM 20.6 69.08 0.493 7.81 78.81 5.89
8/22/2022 11:45:00 PM 20.54 68.972 0.492 7.81 80.27 6.33
8/23/2022 12:00:00 AM 20.48 68.864 0.493 7.81 76.35 6.26
8/23/2022 12:15:00 AM 20.42 68.756 0.492 7.81 81.07 6.28
8/23/2022 12:30:00 AM 20.38 68.684 0.492 7.81 76.79 6.32
8/23/2022 12:45:00 AM 20.33 68.594 0.493 7.8 82.05 6.11
8/23/2022 1:00:00 AM 20.29 68.522 0.492 7.81 81.13 6.11
8/23/2022 1:15:00 AM 20.24 68.432 0.493 7.8 82.21 6.14
8/23/2022 1:30:00 AM 20.23 68.414 0.492 7.81 76.7 5.83
8/23/2022 1:45:00 AM 20.15 68.27 0.492 7.8 78.28 5.97
8/23/2022 2:00:00 AM 20.1 68.18 0.492 7.79 76.52 6.12
8/23/2022 2:15:00 AM 20.05 68.09 0.492 7.8 77.86 6.08
8/23/2022 2:30:00 AM 20 68 0.492 7.79 82.18 5.97
8/23/2022 2:45:00 AM 19.96 67.92799 0.492 7.79 83.31 6.15
8/23/2022 3:00:00 AM 19.92 67.856 0.492 7.79 80.96 6.07
8/23/2022 3:15:00 AM 19.88 67.784 0.492 7.79 81.35 5.74
8/23/2022 3:30:00 AM 19.84 67.712 0.492 7.79 80 6.15
8/23/2022 3:45:00 AM 19.8 67.64 0.492 7.79 76.38 6.08
8/23/2022 4:00:00 AM 19.76 67.568 0.492 7.79 79.66 5.99
8/23/2022 4:15:00 AM 19.72 67.496 0.492 7.78 77.48 6.07
8/23/2022 4:30:00 AM 19.69 67.442 0.491 7.78 83.18 5.98
8/23/2022 4:45:00 AM 19.64 67.352 0.491 7.78 79.82 6.03
8/23/2022 5:00:00 AM 19.61 67.298 0.491 7.78 76.82 6.1
8/23/2022 5:15:00 AM 19.58 67.244 0.491 7.78 79.29 5.79
8/23/2022 5:30:00 AM 19.55 67.19 0.491 7.78 78.19 6.1
8/23/2022 5:45:00 AM 19.52 67.136 0.491 7.78 82.44 6.17
8/23/2022 6:00:00 AM 19.49 67.082 0.49 7.79 77.2 6.15
8/23/2022 6:15:00 AM 19.45 67.01 0.49 7.79 76.02 6.16
8/23/2022 6:30:00 AM 19.42 66.956 0.49 7.78 77.07 6.22
8/23/2022 6:45:00 AM 19.38 66.884 0.49 7.79 77.31 6.29
8/23/2022 7:00:00 AM 19.35 66.83 0.49 7.79 81 6.15
8/23/2022 7:15:00 AM 19.32 66.776 0.49 7.78 74.91 5.84
8/23/2022 7:30:00 AM 19.3 66.74 0.489 7.78 71.44 5.87
8/23/2022 7:45:00 AM 19.29 66.722 0.489 7.8 74.18 6.2
8/23/2022 8:00:00 AM 19.28 66.704 0.489 7.79 73.72 6.22
8/23/2022 8:15:00 AM 19.28 66.704 0.489 7.79 71.86 6.21
8/23/2022 8:30:00 AM 19.3 66.74 0.488 7.8 74.03 6.49
8/23/2022 8:45:00 AM 19.34 66.812 0.488 7.8 73.55 6.56
8/23/2022 9:00:00 AM 19.38 66.884 0.487 7.81 73.84 6.54
8/23/2022 9:15:00 AM 19.43 66.974 0.487 7.81 71.96 6.65
8/23/2022 9:30:00 AM 19.48 67.064 0.487 7.81 74.4 6.7
8/23/2022 9:45:00 AM 19.52 67.136 0.487 7.84 73.92 6.87
8/23/2022 10:00:00 AM 19.59 67.262 0.486 7.85 72.87 6.89
8/23/2022 10:15:00 AM 19.64 67.352 0.486 7.86 71.06 7.02
8/23/2022 10:30:00 AM 19.69 67.442 0.485 7.87 72.67 7.32
8/23/2022 10:45:00 AM 19.77 67.586 0.484 7.87 72.58 7.47
8/23/2022 11:00:00 AM 19.83 67.694 0.483 7.9 71.21 7.43
8/23/2022 11:15:00 AM 19.91 67.838 0.483 7.91 70.13 7.56
8/23/2022 11:30:00 AM 20.02 68.036 0.482 7.93 71.16 7.85
8/23/2022 11:45:00 AM 20.14 68.252 0.481 7.95 75.21 8.08
8/23/2022 12:00:00 PM 20.27 68.486 0.48 7.96 71.41 8.25
8/23/2022 12:15:00 PM 20.43 68.774 0.479 7.97 72.74 7.95
8/23/2022 12:30:00 PM 20.61 69.098 0.477 8.01 74.03 8.33
8/23/2022 12:45:00 PM 20.76 69.368 0.476 8.03 75.29 8.69
8/23/2022 1:00:00 PM 20.93 69.674 0.474 8.04 71.71 8.75
8/23/2022 1:15:00 PM 21.13 70.034 0.473 8.05 72.62 8.95
8/23/2022 1:30:00 PM 21.28 70.304 0.471 8.06 71.71 9.19
8/23/2022 1:45:00 PM 21.43 70.574 0.47 8.06 71.29 9.12
8/23/2022 2:00:00 PM 21.43 70.574 0.469 8.09 71.29 9.13
8/23/2022 2:15:00 PM 21.57 70.826 0.469 8.08 71.17 8.98
8/23/2022 2:30:00 PM 21.8 71.24 0.467 8.09 72.68 8.61
8/23/2022 2:45:00 PM 21.99 71.582 0.466 8.09 72.7 8.95
8/23/2022 3:00:00 PM 22.17 71.906 0.466 8.11 72.67 8.91
8/23/2022 3:15:00 PM 22.39 72.302 0.465 8.09 80.94 8.59
8/23/2022 3:30:00 PM 22.39 72.302 0.466 8.09 76.43 8.68
8/23/2022 3:45:00 PM 22.52 72.536 0.465 8.08 81.5 8.56
8/23/2022 4:00:00 PM 22.54 72.57201 0.465 8.07 72.6 8.51
8/23/2022 4:15:00 PM 22.58 72.644 0.466 8.07 73.34 8.34
8/23/2022 4:30:00 PM 22.65 72.77 0.465 8.07 73.61 8.32
8/23/2022 4:45:00 PM 22.7 72.86 0.465 8.04 72.18 7.91
8/23/2022 5:00:00 PM 22.74 72.932 0.465 8.03 72.42 8
8/23/2022 5:15:00 PM 22.75 72.95 0.466 8.05 74.73 7.84
8/23/2022 5:30:00 PM 22.69 72.842 0.466 8.05 76.22 7.65
8/23/2022 5:45:00 PM 22.63 72.734 0.466 8.05 74.8 8.2
8/23/2022 6:00:00 PM 22.54 72.57201 0.466 8.03 78.62 8.05
8/23/2022 6:15:00 PM 22.47 72.446 0.467 8.01 74.02 7.8
8/23/2022 6:30:00 PM 22.4 72.32 0.467 7.99 82.3 7.5
8/23/2022 6:45:00 PM 22.34 72.212 0.468 7.97 87.82 7.09
8/23/2022 7:00:00 PM 22.27 72.086 0.468 7.97 77.92 7.55
8/23/2022 7:15:00 PM 22.19 71.942 0.468 7.97 73.92 7.35
8/23/2022 7:30:00 PM 22.11 71.798 0.468 7.96 83.84 7.26
8/23/2022 7:45:00 PM 22.03 71.654 0.469 7.93 76.14 6.96
8/23/2022 8:00:00 PM 21.92 71.456 0.469 7.94 77.21 7.13
8/23/2022 8:15:00 PM 21.84 71.312 0.469 7.91 75.1 6.75
8/23/2022 8:30:00 PM 21.74 71.132 0.47 7.9 81.09 6.93
8/23/2022 8:45:00 PM 21.67 71.006 0.47 7.89 83.36 6.66
8/23/2022 9:00:00 PM 21.6 70.88 0.47 7.88 83.66 6.67
8/23/2022 9:15:00 PM 21.5 70.7 0.47 7.88 84.37 6.52
8/23/2022 9:30:00 PM 21.45 70.61 0.47 7.85 85.56 6.16
8/23/2022 9:45:00 PM 21.36 70.448 0.471 7.84 83.97 6.19
8/23/2022 10:00:00 PM 21.29 70.32201 0.471 7.84 88.02 6.13
8/23/2022 10:15:00 PM 21.22 70.196 0.471 7.83 87.88 6.26
8/23/2022 10:30:00 PM 21.16 70.088 0.47 7.85 91.16 6.21
8/23/2022 10:45:00 PM 21.11 69.998 0.471 7.85 87.66 5.91
8/23/2022 11:00:00 PM 21.04 69.872 0.471 7.83 80.07 6.22
8/23/2022 11:15:00 PM 20.99 69.782 0.471 7.83 86.32 6.13
8/23/2022 11:30:00 PM 20.96 69.728 0.471 7.82 83.65 6.04
8/23/2022 11:45:00 PM 20.94 69.692 0.471 7.82 82.83 6.16
8/24/2022 12:00:00 AM 20.88 69.584 0.471 7.82 77.73 5.96
8/24/2022 12:15:00 AM 20.84 69.512 0.471 7.82 92.72 6.04
8/24/2022 12:30:00 AM 20.8 69.44 0.471 7.81 82 5.89
8/24/2022 12:45:00 AM 20.75 69.35 0.472 7.8 91.72 5.81
8/24/2022 1:00:00 AM 20.7 69.26 0.472 7.8 80.52 5.82
8/24/2022 1:15:00 AM 20.65 69.17 0.472 7.79 88.66 5.93
8/24/2022 1:30:00 AM 20.61 69.098 0.472 7.8 90.77 5.68
8/24/2022 1:45:00 AM 20.55 68.99 0.472 7.81 88.17 5.78
8/24/2022 2:00:00 AM 20.51 68.918 0.473 7.79 121.17 5.81
8/24/2022 2:15:00 AM 20.47 68.846 0.473 7.79 88.43 5.79
8/24/2022 2:30:00 AM 20.44 68.792 0.473 7.8 91.43 5.85
8/24/2022 2:45:00 AM 20.37 68.666 0.473 7.79 84.64 5.79
8/24/2022 3:00:00 AM 20.3 68.54 0.473 7.78 92.65 5.92
8/24/2022 3:15:00 AM 20.25 68.45 0.474 7.79 82.62 6.02
8/24/2022 3:30:00 AM 20.18 68.324 0.474 7.8 81.27 6.02
8/24/2022 3:45:00 AM 20.12 68.216 0.474 7.8 90.55 5.98
8/24/2022 4:00:00 AM 20.09 68.162 0.474 7.79 91.25 5.96
8/24/2022 4:15:00 AM 20 68 0.472 7.7 391.47 5.75
8/24/2022 4:30:00 AM 19.96 67.92799 0.474 7.72 261.49 5.74
8/24/2022 4:45:00 AM 19.88 67.784 0.475 7.73 502.68 5.92
8/24/2022 5:00:00 AM 19.82 67.676 0.475 7.74 208.6 6
8/24/2022 5:15:00 AM 19.78 67.604 0.475 7.73 293.11 5.79
8/24/2022 5:30:00 AM 19.72 67.496 0.475 7.74 206.79 5.69
8/24/2022 5:45:00 AM 19.65 67.37 0.476 7.74 262.35 6.09
8/24/2022 6:00:00 AM 19.6 67.28 0.475 7.75 123.12 5.84
8/24/2022 6:15:00 AM 19.55 67.19 0.476 7.75 170.74 6.12
8/24/2022 6:30:00 AM 19.5 67.1 0.476 7.74 163.56 5.67
8/24/2022 6:45:00 AM 19.43 66.974 0.477 7.75 184.21 5.87
8/24/2022 7:00:00 AM 19.38 66.884 0.476 7.74 159.93 5.62
8/24/2022 7:15:00 AM 19.34 66.812 0.477 7.73 145.82 5.96
8/24/2022 7:30:00 AM 19.28 66.704 0.477 7.75 153.88 5.8
8/24/2022 7:45:00 AM 19.26 66.668 0.477 7.74 113.93 5.96
8/24/2022 8:00:00 AM 19.24 66.632 0.478 7.73 126.79 5.64
8/24/2022 8:15:00 AM 19.21 66.578 0.477 7.75 106.13 5.77
8/24/2022 8:30:00 AM 19.2 66.56 0.478 7.73 97.43 5.99
8/24/2022 8:45:00 AM 19.22 66.596 0.478 7.74 83.83 6.07
8/24/2022 9:00:00 AM 19.25 66.65 0.478 7.75 92.02 6.19
8/24/2022 9:15:00 AM 19.27 66.686 0.478 7.77 88.91 6.33
8/24/2022 9:30:00 AM 19.31 66.758 0.478 7.75 98.09 6.25
8/24/2022 9:45:00 AM 19.35 66.83 0.478 7.79 92.89 6.24
8/24/2022 10:00:00 AM 19.42 66.956 0.478 7.78 90.8 6.21
8/24/2022 10:15:00 AM 19.47 67.046 0.478 7.79 121.96 6.27
8/24/2022 10:30:00 AM 19.53 67.154 0.478 7.8 116.26 6.36
8/24/2022 10:45:00 AM 19.59 67.262 0.478 7.81 92.69 6.53
8/24/2022 11:00:00 AM 19.64 67.352 0.479 7.82 85.76 6.69
8/24/2022 11:15:00 AM 19.72 67.496 0.478 7.83 100.39 7.06
8/24/2022 11:30:00 AM 19.83 67.694 0.478 7.83 85.03 6.77
8/24/2022 11:45:00 AM 19.94 67.892 0.478 7.84 89.63 7.29
8/24/2022 12:00:00 PM 20.02 68.036 0.477 7.86 101.98 7.3
8/24/2022 12:15:00 PM 20.15 68.27 0.477 7.88 85.2 7.61
8/24/2022 12:30:00 PM 20.36 68.648 0.477 7.89 89.54 7.78
8/24/2022 12:45:00 PM 20.54 68.972 0.477 7.88 95.46 7.53
8/24/2022 1:00:00 PM 20.76 69.368 0.476 7.95 87.72 7.85
8/24/2022 1:15:00 PM 20.94 69.692 0.476 7.94 93.74 8.06
8/24/2022 1:30:00 PM 21.05 69.89 0.475 7.97 103.47 8.27
8/24/2022 1:45:00 PM 21.21 70.17799 0.475 7.95 103.37 8.42
8/24/2022 2:00:00 PM 21.42 70.556 0.475 8 92.15 8.75
8/24/2022 2:15:00 PM 21.62 70.916 0.473 7.96 109.2 8.57
8/24/2022 2:30:00 PM 21.65 70.97 0.473 8 122.41 8.42
8/24/2022 2:45:00 PM 21.77 71.186 0.473 8.03 90.75 8.56
8/24/2022 3:00:00 PM 21.89 71.402 0.472 8.02 121.27 8.52
8/24/2022 3:15:00 PM 22.09 71.762 0.472 8.06 105.23 8.59
8/24/2022 3:30:00 PM 22.16 71.888 0.472 8.02 95.84 8.73
8/24/2022 3:45:00 PM 22.31 72.158 0.471 8.06 91.01 8.75
8/24/2022 4:00:00 PM 22.38 72.284 0.47 8.02 86.45 8.27
8/24/2022 4:15:00 PM 22.49 72.482 0.47 8.1 137.94 9.51
8/24/2022 4:30:00 PM 22.48 72.464 0.47 7.93 885.33 9.65
8/24/2022 4:45:00 PM 22.44 72.392 0.47 8.08 87.27 9.56
8/24/2022 5:00:00 PM 22.38 72.284 0.47 8.09 411.84 9.05
8/24/2022 5:15:00 PM 0 32 0 0 0 0
8/24/2022 5:30:00 PM 22.2 71.96 0.47 8.08 119 9.01
8/24/2022 5:45:00 PM 22.1 71.78 0.471 8.04 190.98 8.81
8/24/2022 6:00:00 PM 22.03 71.654 0.471 8.04 105.33 8.68
8/24/2022 6:15:00 PM 21.96 71.528 0.471 8.01 98.51 8.53
8/24/2022 6:30:00 PM 21.9 71.42 0.472 8 100.95 8.39
8/24/2022 6:45:00 PM 21.82 71.276 0.472 7.99 135.63 8.24
8/24/2022 7:00:00 PM 21.73 71.114 0.472 7.98 90.12 8.1
8/24/2022 7:15:00 PM 21.64 70.952 0.473 7.96 80.59 8
8/24/2022 7:30:00 PM 21.55 70.79 0.473 7.95 87.81 7.86
8/24/2022 7:45:00 PM 21.46 70.628 0.473 7.94 88.74 7.76
8/24/2022 8:00:00 PM 21.36 70.448 0.473 7.93 85.74 7.63
8/24/2022 8:15:00 PM 21.26 70.268 0.473 7.92 82.06 7.56
8/24/2022 8:30:00 PM 21.16 70.088 0.474 7.91 128.84 7.46
8/24/2022 8:45:00 PM 21.06 69.908 0.474 7.89 89.07 7.36
8/24/2022 9:00:00 PM 20.96 69.728 0.474 7.88 113.69 7.28
8/24/2022 9:15:00 PM 20.86 69.548 0.474 7.87 100.38 7.21
8/24/2022 9:30:00 PM 20.76 69.368 0.475 7.87 140.55 7.16
8/24/2022 9:45:00 PM 20.66 69.188 0.475 7.86 137.54 7.12
8/24/2022 10:00:00 PM 20.58 69.044 0.475 7.85 121.66 7.03
8/24/2022 10:15:00 PM 20.49 68.882 0.475 7.84 1798.55 6.96
8/24/2022 10:30:00 PM 20.4 68.72 0.475 7.83 227.41 6.97
8/24/2022 10:45:00 PM 20.31 68.558 0.475 7.83 302.39 6.9
8/24/2022 11:00:00 PM 20.22 68.396 0.476 7.82 139.37 6.9
8/24/2022 11:15:00 PM 20.15 68.27 0.476 7.82 143.04 6.88
8/24/2022 11:30:00 PM 20.08 68.144 0.476 7.81 179.31 6.88
8/24/2022 11:45:00 PM 20.01 68.018 0.476 7.81 153.01 6.83
8/25/2022 12:00:00 AM 19.95 67.91 0.476 7.8 225.5 6.83
8/25/2022 12:15:00 AM 19.88 67.784 0.476 7.79 102.88 6.83
8/25/2022 12:30:00 AM 19.82 67.676 0.476 7.8 124.36 6.82
8/25/2022 12:45:00 AM 19.76 67.568 0.476 7.78 748.36 6.82
8/25/2022 1:00:00 AM 19.7 67.46 0.476 7.8 163.49 6.81
8/25/2022 1:15:00 AM 19.64 67.352 0.474 7.8 159.7 6.84
8/25/2022 1:30:00 AM 19.58 67.244 0.476 7.78 275.99 6.74
8/25/2022 1:45:00 AM 19.52 67.136 0.477 7.79 190.74 6.82
8/25/2022 2:00:00 AM 19.46 67.028 0.477 7.78 152.44 6.72
8/25/2022 2:15:00 AM 19.4 66.92 0.477 7.78 152 6.78
8/25/2022 2:30:00 AM 19.35 66.83 0.478 7.78 128.03 6.71
8/25/2022 2:45:00 AM 19.29 66.722 0.479 7.78 105.07 6.82
8/25/2022 3:00:00 AM 19.23 66.614 0.478 7.78 102.3 6.8
8/25/2022 3:15:00 AM 19.17 66.506 0.479 7.78 127.78 6.81
8/25/2022 3:30:00 AM 19.12 66.416 0.478 7.78 131.29 6.74
8/25/2022 3:45:00 AM 19.06 66.308 0.479 7.78 122.43 6.78
8/25/2022 4:00:00 AM 19 66.2 0.479 7.78 88.22 6.79
8/25/2022 4:15:00 AM 18.94 66.092 0.48 7.78 134.97 6.8
8/25/2022 4:30:00 AM 18.88 65.984 0.48 7.78 79.45 6.83
8/25/2022 4:45:00 AM 18.82 65.876 0.48 7.77 127.92 6.85
8/25/2022 5:00:00 AM 18.77 65.786 0.48 7.77 137.29 6.79
8/25/2022 5:15:00 AM 18.71 65.67799 0.48 7.77 115.27 6.77
8/25/2022 5:30:00 AM 18.65 65.57 0.481 7.77 139.46 6.76
8/25/2022 5:45:00 AM 18.6 65.48 0.481 7.78 80.32 6.77
8/25/2022 6:00:00 AM 18.54 65.372 0.48 7.72 2274.07 6.32
8/25/2022 6:15:00 AM 18.49 65.282 0.48 7.71 1821.27 6.67
8/25/2022 6:30:00 AM 18.43 65.174 0.48 7.69 1048.89 6.65
8/25/2022 6:45:00 AM 18.39 65.102 0.481 7.69 883.47 6.65
8/25/2022 7:00:00 AM 18.34 65.012 0.481 7.67 343.31 6.74
8/25/2022 7:15:00 AM 18.3 64.94 0.482 7.69 412.53 6.82
8/25/2022 7:30:00 AM 18.28 64.904 0.482 7.71 431.02 6.71
8/25/2022 7:45:00 AM 18.27 64.886 0.482 7.67 414.48 6.82
8/25/2022 8:00:00 AM 18.26 64.868 0.482 7.71 316.45 6.81
8/25/2022 8:15:00 AM 18.28 64.904 0.482 7.72 219.66 6.91
8/25/2022 8:30:00 AM 18.3 64.94 0.483 7.72 433.48 6.98
8/25/2022 8:45:00 AM 18.34 65.012 0.483 7.73 233.11 6.89
8/25/2022 9:00:00 AM 18.38 65.084 0.482 7.73 191.62 6.92
8/25/2022 9:15:00 AM 18.44 65.192 0.483 7.73 238.87